Provisional Data: Catatonk Creek near Spencer, NY


Please select a monitoring station.
Please select start date.
Please select start date.

Toggle Unit: C/F Toggle Unit: C/F
Sample Time Temperature (C) Temperature (F) Specific Conductivity (mS/cm) pH   Turbidity (NTU+) DO (mg/L)
5/4/2021 12:00:00 AM 11.98 53.564 0.225 7.87 8.79 8.95
5/4/2021 12:15:00 AM 11.95 53.51 0.224 7.87 8.91 8.94
5/4/2021 12:30:00 AM 11.91 53.438 0.224 7.87 9.15 8.94
5/4/2021 12:45:00 AM 11.89 53.402 0.224 7.87 9.21 8.97
5/4/2021 1:00:00 AM 11.86 53.348 0.223 7.87 8.71 8.93
5/4/2021 1:15:00 AM 11.81 53.258 0.226 7.87 8.32 8.95
5/4/2021 1:30:00 AM 11.8 53.24 0.224 7.87 8.68 8.97
5/4/2021 1:45:00 AM 11.76 53.168 0.225 7.87 9.08 8.98
5/4/2021 2:00:00 AM 11.73 53.114 0.224 7.87 9 8.92
5/4/2021 2:15:00 AM 11.71 53.078 0.224 7.87 8.97 8.99
5/4/2021 2:30:00 AM 11.67 53.006 0.224 7.86 8.85 8.99
5/4/2021 2:45:00 AM 11.64 52.952 0.224 7.86 9.4 9.02
5/4/2021 3:00:00 AM 11.61 52.898 0.222 7.86 8.08 8.99
5/4/2021 3:15:00 AM 11.58 52.844 0.221 7.86 8.38 9.01
5/4/2021 3:30:00 AM 11.55 52.79 0.219 7.86 8.83 9.01
5/4/2021 3:45:00 AM 11.52 52.736 0.218 7.86 8.55 9.03
5/4/2021 4:00:00 AM 11.48 52.664 0.216 7.86 10.25 9.04
5/4/2021 4:15:00 AM 11.46 52.628 0.215 7.86 9.15 9.04
5/4/2021 4:30:00 AM 11.43 52.574 0.213 7.85 9.18 9.07
5/4/2021 4:45:00 AM 11.39 52.502 0.213 7.85 10.58 9.09
5/4/2021 5:00:00 AM 11.37 52.466 0.211 7.85 11.04 9.11
5/4/2021 5:15:00 AM 11.33 52.394 0.21 7.85 9.28 9.09
5/4/2021 5:30:00 AM 11.32 52.376 0.208 7.85 8.57 9.12
5/4/2021 5:45:00 AM 11.29 52.322 0.209 7.85 9.06 9.16
5/4/2021 6:00:00 AM 11.26 52.268 0.207 7.85 10.23 9.12
5/4/2021 6:15:00 AM 11.24 52.232 0.205 7.85 9.3 9.16
5/4/2021 6:30:00 AM 11.22 52.196 0.204 7.85 8.34 9.18
5/4/2021 6:45:00 AM 11.19 52.142 0.207 7.85 9.43 9.16
5/4/2021 7:00:00 AM 11.18 52.124 0.204 7.85 7.52 9.13
5/4/2021 7:15:00 AM 11.17 52.106 0.204 7.84 9.53 9.13
5/4/2021 7:30:00 AM 11.15 52.07 0.205 7.85 7.71 9.2
5/4/2021 7:45:00 AM 11.15 52.07 0.202 7.85 7.42 9.24
5/4/2021 8:00:00 AM 11.15 52.07 0.203 7.85 7 9.27
5/4/2021 8:15:00 AM 11.16 52.088 0.203 7.86 7.29 9.33
5/4/2021 8:30:00 AM 11.18 52.124 0.204 7.86 6.99 9.38
5/4/2021 8:45:00 AM 11.19 52.142 0.203 7.87 7.13 9.51
5/4/2021 9:00:00 AM 11.21 52.178 0.204 7.87 6.6 9.56
5/4/2021 9:15:00 AM 11.25 52.25 0.204 7.88 7.3 9.73
5/4/2021 9:30:00 AM 11.29 52.322 0.202 7.89 6.35 9.83
5/4/2021 9:45:00 AM 11.33 52.394 0.203 7.9 6.94 9.93
5/4/2021 10:00:00 AM 11.44 52.592 0.203 7.92 6.41 10.09
5/4/2021 10:15:00 AM 11.52 52.736 0.203 7.92 6.25 10.1
5/4/2021 10:30:00 AM 11.64 52.952 0.204 7.93 6.83 10.31
5/4/2021 10:45:00 AM 11.79 53.222 0.202 7.94 6.51 10.38
5/4/2021 11:00:00 AM 11.91 53.438 0.205 7.96 6.3 10.49
5/4/2021 11:15:00 AM 12.04 53.672 0.204 7.97 10.48 10.58
5/4/2021 11:30:00 AM 12.16 53.888 0.204 7.99 7.02 10.67
5/4/2021 11:45:00 AM 12.26 54.068 0.204 7.99 6.23 10.7
5/4/2021 12:00:00 PM 12.43 54.374 0.207 8 6.17 10.77
5/4/2021 12:15:00 PM 12.64 54.752 0.207 8.02 5.56 10.67
5/4/2021 12:30:00 PM 12.82 55.076 0.207 8.02 5.96 10.85
5/4/2021 12:45:00 PM 13.03 55.454 0.209 8.03 6.23 10.9
5/4/2021 1:00:00 PM 13.2 55.76 0.21 8.05 6.14 10.95
5/4/2021 1:15:00 PM 13.35 56.03 0.208 8.05 6.4 10.97
5/4/2021 1:30:00 PM 13.46 56.228 0.209 8.06 6.45 11
5/4/2021 1:45:00 PM 13.71 56.678 0.208 8.07 5.84 11.06
5/4/2021 2:00:00 PM 13.89 57.002 0.208 8.08 5.67 11.01
5/4/2021 2:15:00 PM 14.06 57.308 0.21 8.09 6.2 11.05
5/4/2021 2:30:00 PM 14.26 57.668 0.209 8.09 6.17 11.04
5/4/2021 2:45:00 PM 14.36 57.848 0.209 8.1 6.05 10.93
5/4/2021 3:00:00 PM 14.49 58.082 0.209 8.1 5.66 10.87
5/4/2021 3:15:00 PM 14.56 58.208 0.21 8.1 6 10.88
5/4/2021 3:30:00 PM 14.66 58.388 0.21 8.1 5.68 10.79
5/4/2021 3:45:00 PM 14.82 58.676 0.209 8.1 6.27 10.82
5/4/2021 4:00:00 PM 14.88 58.784 0.209 8.09 6.04 10.67
5/4/2021 4:15:00 PM 14.92 58.856 0.213 8.09 5.85 10.6
5/4/2021 4:30:00 PM 14.97 58.946 0.211 8.08 5.83 10.5
5/4/2021 4:45:00 PM 15.01 59.018 0.212 8.08 6.2 10.44
5/4/2021 5:00:00 PM 15.05 59.09 0.212 8.08 6.12 10.36
5/4/2021 5:15:00 PM 15.07 59.126 0.212 8.06 6.65 10.21
5/4/2021 5:30:00 PM 15.1 59.18 0.213 8.05 6.16 10.05
5/4/2021 5:45:00 PM 15.13 59.234 0.213 8.04 5.99 9.99
5/4/2021 6:00:00 PM 15.14 59.252 0.217 8.02 5.58 9.78
5/4/2021 6:15:00 PM 15.16 59.288 0.214 8.02 5.79 9.67
5/4/2021 6:30:00 PM 15.11 59.198 0.216 8 6.17 9.44
5/4/2021 6:45:00 PM 15.17 59.306 0.215 7.99 6.33 9.51
5/4/2021 7:00:00 PM 15.18 59.324 0.217 7.99 5.81 9.34
5/4/2021 7:15:00 PM 15.19 59.342 0.217 7.98 6.71 9.38
5/4/2021 7:30:00 PM 15.2 59.36 0.216 7.97 5.96 9.26
5/4/2021 7:45:00 PM 15.16 59.288 0.219 7.96 5.92 9.2
5/4/2021 8:00:00 PM 15.15 59.27 0.219 7.95 6.18 9.08
5/4/2021 8:15:00 PM 15.14 59.252 0.217 7.94 5.67 8.99
5/4/2021 8:30:00 PM 15.11 59.198 0.219 7.93 6.18 8.9
5/4/2021 8:45:00 PM 15.09 59.162 0.218 7.92 6.77 8.83
5/4/2021 9:00:00 PM 15.06 59.108 0.219 7.92 6.62 8.72
5/4/2021 9:15:00 PM 15.03 59.054 0.219 7.92 6.28 8.71
5/4/2021 9:30:00 PM 15.02 59.036 0.22 7.91 6.33 8.64
5/4/2021 9:45:00 PM 14.97 58.946 0.223 7.91 6.58 8.55
5/4/2021 10:00:00 PM 14.96 58.928 0.222 7.9 6.38 8.54
5/4/2021 10:15:00 PM 14.93 58.874 0.222 7.9 6.76 8.48
5/4/2021 10:30:00 PM 14.88 58.784 0.224 7.9 6.26 8.45
5/4/2021 10:45:00 PM 14.85 58.73 0.224 7.9 6.65 8.42
5/4/2021 11:00:00 PM 14.8 58.64 0.224 7.89 6.42 8.38
5/4/2021 11:15:00 PM 14.77 58.586 0.225 7.89 7.11 8.37
5/4/2021 11:30:00 PM 14.71 58.478 0.227 7.89 6.83 8.35
5/4/2021 11:45:00 PM 14.69 58.442 0.225 7.89 6.6 8.35
5/5/2021 12:00:00 AM 14.6 58.28 0.226 7.88 8.02 8.35
5/5/2021 12:15:00 AM 14.58 58.244 0.226 7.89 7.93 8.36
5/5/2021 12:30:00 AM 14.52 58.136 0.224 7.89 7.81 8.36
5/5/2021 12:45:00 AM 14.49 58.082 0.224 7.89 8.12 8.35
5/5/2021 1:00:00 AM 14.43 57.974 0.224 7.89 7.77 8.34
5/5/2021 1:15:00 AM 14.39 57.902 0.223 7.88 8.41 8.34
5/5/2021 1:30:00 AM 14.31 57.758 0.224 7.88 8.66 8.32
5/5/2021 1:45:00 AM 14.24 57.632 0.229 7.88 10.12 8.33
5/5/2021 2:00:00 AM 14.2 57.56 0.228 7.88 8.62 8.33
5/5/2021 2:15:00 AM 14.14 57.452 0.228 7.88 8.64 8.34
5/5/2021 2:30:00 AM 14.07 57.326 0.227 7.87 8.12 8.37
5/5/2021 2:45:00 AM 14 57.2 0.228 7.87 8.76 8.34
5/5/2021 3:00:00 AM 13.94 57.092 0.227 7.88 8.03 8.4
5/5/2021 3:15:00 AM 13.88 56.984 0.228 7.88 7.94 8.36
5/5/2021 3:30:00 AM 13.82 56.876 0.228 7.88 8.28 8.4
5/5/2021 3:45:00 AM 13.78 56.804 0.228 7.88 7.77 8.41
5/5/2021 4:00:00 AM 13.73 56.714 0.228 7.87 8.49 8.41
5/5/2021 4:15:00 AM 13.69 56.642 0.226 7.88 8.21 8.43
5/5/2021 4:30:00 AM 13.63 56.534 0.227 7.88 8.15 8.43
5/5/2021 4:45:00 AM 13.58 56.444 0.226 7.88 9.22 8.49
5/5/2021 5:00:00 AM 13.54 56.372 0.225 7.88 8.3 8.52
5/5/2021 5:15:00 AM 13.49 56.282 0.225 7.88 8.44 8.51
5/5/2021 5:30:00 AM 13.45 56.21 0.224 7.88 8.5 8.55
5/5/2021 5:45:00 AM 13.41 56.138 0.223 7.88 7.76 8.58
5/5/2021 6:00:00 AM 13.37 56.066 0.223 7.88 9.38 8.6
5/5/2021 6:15:00 AM 13.32 55.976 0.221 7.88 9.51 8.52
5/5/2021 6:30:00 AM 13.28 55.904 0.219 7.88 10.88 8.47
5/5/2021 6:45:00 AM 13.23 55.814 0.217 7.87 8.22 8.58
5/5/2021 7:00:00 AM 13.18 55.724 0.214 7.87 8.44 8.62
5/5/2021 7:15:00 AM 13.14 55.652 0.211 7.87 8.09 8.61
5/5/2021 7:30:00 AM 13.09 55.562 0.209 7.87 8.78 8.74
5/5/2021 7:45:00 AM 13.06 55.508 0.207 7.87 6.89 8.73
5/5/2021 8:00:00 AM 13.01 55.418 0.205 7.87 6.77 8.76
5/5/2021 8:15:00 AM 12.97 55.346 0.203 7.88 6.42 8.83
5/5/2021 8:30:00 AM 12.94 55.292 0.203 7.88 6.73 8.9
5/5/2021 8:45:00 AM 12.91 55.238 0.201 7.88 7.01 8.94
5/5/2021 9:00:00 AM 12.88 55.184 0.2 7.88 7.15 8.98
5/5/2021 9:15:00 AM 12.84 55.112 0.2 7.89 7.13 9.03
5/5/2021 9:30:00 AM 12.82 55.076 0.199 7.89 6.61 9.11
5/5/2021 9:45:00 AM 12.79 55.022 0.198 7.89 6.61 9.17
5/5/2021 10:00:00 AM 12.76 54.968 0.198 7.9 6.73 9.23
5/5/2021 10:15:00 AM 12.74 54.932 0.198 7.9 7.22 9.22
5/5/2021 10:30:00 AM 12.72 54.896 0.198 7.91 6.49 9.33
5/5/2021 10:45:00 AM 12.7 54.86 0.198 7.92 6.33 9.42
5/5/2021 11:00:00 AM 12.68 54.824 0.198 7.92 6.74 9.49
5/5/2021 11:15:00 AM 12.67 54.806 0.199 7.92 6.21 9.49
5/5/2021 11:30:00 AM 12.66 54.788 0.199 7.93 5.95 9.61
5/5/2021 11:45:00 AM 12.65 54.77 0.2 7.94 6.96 9.59
5/5/2021 12:00:00 PM 12.65 54.77 0.2 7.95 7.14 9.78
5/5/2021 12:15:00 PM 12.63 54.734 0.2 7.96 7.24 9.8
5/5/2021 12:30:00 PM 12.61 54.698 0.202 7.96 6.42 9.87
5/5/2021 12:45:00 PM 12.61 54.698 0.202 7.97 7.95 9.95
5/5/2021 1:00:00 PM 12.61 54.698 0.203 7.98 6.96 9.99
5/5/2021 1:15:00 PM 12.61 54.698 0.202 7.99 6.79 10.07
5/5/2021 1:30:00 PM 12.64 54.752 0.203 8 7.01 10.12
5/5/2021 1:45:00 PM 12.65 54.77 0.203 8.01 6.85 10.26
5/5/2021 2:00:00 PM 12.68 54.824 0.204 8.02 6.07 10.34
5/5/2021 2:15:00 PM 12.68 54.824 0.204 8.03 6.31 10.36
5/5/2021 2:30:00 PM 12.67 54.806 0.205 8.03 6.15 10.2
5/5/2021 2:45:00 PM 12.66 54.788 0.205 8.03 6.81 10.32
5/5/2021 3:00:00 PM 12.65 54.77 0.206 8.03 7.09 10.38
5/5/2021 3:15:00 PM 12.63 54.734 0.206 8.03 6.83 10.34
5/5/2021 3:30:00 PM 12.66 54.788 0.206 8.04 6.36 10.44
5/5/2021 3:45:00 PM 12.66 54.788 0.207 8.05 5.95 10.43
5/5/2021 4:00:00 PM 12.68 54.824 0.208 8.06 6.51 10.49
5/5/2021 4:15:00 PM 12.68 54.824 0.208 8.06 6.45 10.5
5/5/2021 4:30:00 PM 12.68 54.824 0.209 8.06 6.33 10.49
5/5/2021 4:45:00 PM 12.66 54.788 0.21 8.06 6.53 10.44
5/5/2021 5:00:00 PM 12.66 54.788 0.209 8.07 5.91 10.49
5/5/2021 5:15:00 PM 12.64 54.752 0.21 8.06 6.5 10.44
5/5/2021 5:30:00 PM 12.61 54.698 0.21 8.06 5.78 10.37
5/5/2021 5:45:00 PM 12.59 54.662 0.21 8.05 6.37 10.33
5/5/2021 6:00:00 PM 12.57 54.626 0.212 8.05 6.03 10.29
5/5/2021 6:15:00 PM 12.54 54.572 0.212 8.04 7.27 10.23
5/5/2021 6:30:00 PM 12.5 54.5 0.212 8.04 6.36 10.15
5/5/2021 6:45:00 PM 12.46 54.428 0.213 8.03 6.28 10.09
5/5/2021 7:00:00 PM 12.43 54.374 0.214 8.03 6.18 10.03
5/5/2021 7:15:00 PM 12.39 54.302 0.215 8.02 6.3 9.94
5/5/2021 7:30:00 PM 12.34 54.212 0.217 8.01 7.22 9.8
5/5/2021 7:45:00 PM 12.3 54.14 0.217 8 6.4 9.75
5/5/2021 8:00:00 PM 12.25 54.05 0.217 7.99 6.35 9.72
5/5/2021 8:15:00 PM 12.2 53.96 0.217 7.98 6.34 9.64
5/5/2021 8:30:00 PM 12.15 53.87 0.216 7.98 6.21 9.58
5/5/2021 8:45:00 PM 12.1 53.78 0.216 7.97 6.65 9.53
5/5/2021 9:00:00 PM 12.05 53.69 0.215 7.97 7.03 9.5
5/5/2021 9:15:00 PM 11.99 53.582 0.216 7.95 7.49 9.44
5/5/2021 9:30:00 PM 11.94 53.492 0.215 7.95 7.39 9.39
5/5/2021 9:45:00 PM 11.89 53.402 0.215 7.95 7.63 9.36
5/5/2021 10:00:00 PM 11.82 53.276 0.215 7.94 7.09 9.35
5/5/2021 10:15:00 PM 11.77 53.186 0.214 7.94 7.15 9.32
5/5/2021 10:30:00 PM 11.71 53.078 0.214 7.93 7.5 9.31
5/5/2021 10:45:00 PM 11.65 52.97 0.213 7.93 7.22 9.32
5/5/2021 11:00:00 PM 11.58 52.844 0.214 7.93 6.98 9.29
5/5/2021 11:15:00 PM 11.52 52.736 0.213 7.93 7.86 9.3
5/5/2021 11:30:00 PM 11.45 52.61 0.213 7.92 7.07 9.3
5/5/2021 11:45:00 PM 11.39 52.502 0.213 7.92 7.21 9.31
5/6/2021 12:00:00 AM 11.33 52.394 0.213 7.92 7.52 9.3
5/6/2021 12:15:00 AM 11.27 52.286 0.213 7.92 7.05 9.31
5/6/2021 12:30:00 AM 11.22 52.196 0.213 7.92 7.57 9.31
5/6/2021 12:45:00 AM 11.17 52.106 0.212 7.92 10 9.33
5/6/2021 1:00:00 AM 11.1 51.98 0.213 7.91 8.13 9.29
5/6/2021 1:15:00 AM 11.04 51.872 0.213 7.91 6.9 9.3
5/6/2021 1:30:00 AM 10.99 51.782 0.213 7.91 7.27 9.32
5/6/2021 1:45:00 AM 10.94 51.692 0.215 7.91 6.93 9.35
5/6/2021 2:00:00 AM 10.89 51.602 0.214 7.91 6.97 9.36
5/6/2021 2:15:00 AM 10.84 51.512 0.214 7.91 6.98 9.37
5/6/2021 2:30:00 AM 10.79 51.422 0.215 7.91 6.98 9.39
5/6/2021 2:45:00 AM 10.74 51.332 0.215 7.91 7.19 9.4
5/6/2021 3:00:00 AM 10.69 51.242 0.214 7.91 7.49 9.41
5/6/2021 3:15:00 AM 10.63 51.134 0.214 7.91 6.88 9.4
5/6/2021 3:30:00 AM 10.57 51.026 0.214 7.9 6.93 9.4
5/6/2021 3:45:00 AM 10.52 50.936 0.215 7.9 6.85 9.42
5/6/2021 4:00:00 AM 10.47 50.846 0.217 7.9 7 9.42
5/6/2021 4:15:00 AM 10.43 50.774 0.216 7.91 6.83 9.45
5/6/2021 4:30:00 AM 10.38 50.684 0.218 7.91 8.24 9.45
5/6/2021 4:45:00 AM 10.34 50.612 0.219 7.91 6.58 9.45
5/6/2021 5:00:00 AM 10.29 50.522 0.219 7.91 6.38 9.47
5/6/2021 5:15:00 AM 10.25 50.45 0.219 7.91 7.35 9.48
5/6/2021 5:30:00 AM 10.21 50.378 0.22 7.91 7.15 9.49
5/6/2021 5:45:00 AM 10.16 50.288 0.221 7.91 7.47 9.49
5/6/2021 6:00:00 AM 10.11 50.198 0.221 7.92 8.02 9.48
5/6/2021 6:15:00 AM 10.07 50.126 0.221 7.92 6.41 9.49
5/6/2021 6:30:00 AM 10.03 50.054 0.221 7.92 6.64 9.53
5/6/2021 6:45:00 AM 9.98 49.964 0.222 7.92 6.68 9.55
5/6/2021 7:00:00 AM 9.94 49.892 0.223 7.93 6.03 9.59
5/6/2021 7:15:00 AM 9.91 49.838 0.224 7.93 6.03 9.63
5/6/2021 7:30:00 AM 9.88 49.784 0.225 7.94 6.13 9.73
5/6/2021 7:45:00 AM 9.87 49.766 0.225 7.94 5.9 9.82
5/6/2021 8:00:00 AM 9.89 49.802 0.225 7.95 5.67 9.94
5/6/2021 8:15:00 AM 9.95 49.91 0.225 7.96 6.12 10.08
5/6/2021 8:30:00 AM 9.98 49.964 0.226 7.97 5.83 10.16
5/6/2021 8:45:00 AM 10.01 50.018 0.225 7.98 5.18 10.32
5/6/2021 9:00:00 AM 10.02 50.036 0.226 7.99 5.24 10.4
5/6/2021 9:15:00 AM 10.03 50.054 0.227 8 6.55 10.49
5/6/2021 9:30:00 AM 10.06 50.108 0.227 8.01 5.65 10.6
5/6/2021 9:45:00 AM 10.1 50.18 0.227 8.02 5.11 10.69
5/6/2021 10:00:00 AM 10.19 50.342 0.228 8.03 6.02 10.83
5/6/2021 10:15:00 AM 10.31 50.558 0.229 8.05 5.38 10.95
5/6/2021 10:30:00 AM 10.41 50.738 0.229 8.05 5.6 10.99
5/6/2021 10:45:00 AM 10.58 51.044 0.228 8.07 4.94 11.09
5/6/2021 11:00:00 AM 10.75 51.35 0.228 8.08 4.84 11.2
5/6/2021 11:15:00 AM 10.93 51.674 0.229 8.09 5.01 11.25
5/6/2021 11:30:00 AM 11.13 52.034 0.229 8.11 4.83 11.36
5/6/2021 11:45:00 AM 11.35 52.43 0.229 8.12 4.83 11.47
5/6/2021 12:00:00 PM 11.51 52.718 0.231 8.13 5.06 11.48
5/6/2021 12:15:00 PM 11.72 53.096 0.23 8.13 5.56 11.51
5/6/2021 12:30:00 PM 11.94 53.492 0.229 8.15 5.18 11.58
5/6/2021 12:45:00 PM 12.11 53.798 0.231 8.16 5.57 11.59
5/6/2021 1:00:00 PM 12.31 54.158 0.231 8.16 5.83 11.6
5/6/2021 1:15:00 PM 12.56 54.608 0.231 8.17 5.46 11.64
5/6/2021 1:30:00 PM 12.78 55.004 0.231 8.18 4.99 11.65
5/6/2021 1:45:00 PM 13.02 55.436 0.231 8.19 4.75 11.68
5/6/2021 2:00:00 PM 13.18 55.724 0.232 8.2 5.17 11.66
5/6/2021 2:15:00 PM 13.35 56.03 0.232 8.2 5.17 11.62
5/6/2021 2:30:00 PM 13.45 56.21 0.232 8.21 4.98 11.59
5/6/2021 2:45:00 PM 13.59 56.462 0.232 8.22 4.49 11.6
5/6/2021 3:00:00 PM 13.72 56.696 0.233 8.23 4.39 11.61
5/6/2021 3:15:00 PM 13.81 56.858 0.233 8.23 5.07 11.57
5/6/2021 3:30:00 PM 13.93 57.074 0.233 8.23 4.47 11.51
5/6/2021 3:45:00 PM 13.98 57.164 0.233 8.24 4.74 11.5
5/6/2021 4:00:00 PM 14.05 57.29 0.233 8.24 4.57 11.42
5/6/2021 4:15:00 PM 14.02 57.236 0.234 8.23 4.72 11.3
5/6/2021 4:30:00 PM 14.03 57.254 0.234 8.23 5.04 11.24
5/6/2021 4:45:00 PM 14.02 57.236 0.235 8.23 4.75 11.19
5/6/2021 5:00:00 PM 14.01 57.218 0.234 8.23 4.88 11.14
5/6/2021 5:15:00 PM 14.02 57.236 0.234 8.22 4.53 11.07
5/6/2021 5:30:00 PM 14 57.2 0.235 8.22 4.36 10.99
5/6/2021 5:45:00 PM 14 57.2 0.236 8.21 4.86 10.93
5/6/2021 6:00:00 PM 14 57.2 0.236 8.21 5.24 10.9
5/6/2021 6:15:00 PM 14 57.2 0.236 8.2 4.39 10.77
5/6/2021 6:30:00 PM 13.95 57.11 0.237 8.19 4.71 10.68
5/6/2021 6:45:00 PM 13.91 57.038 0.237 8.17 4.59 10.59
5/6/2021 7:00:00 PM 13.85 56.93 0.237 8.16 5.01 10.48
5/6/2021 7:15:00 PM 13.78 56.804 0.238 8.15 5.41 10.32
5/6/2021 7:30:00 PM 13.7 56.66 0.239 8.13 4.91 10.22
5/6/2021 7:45:00 PM 13.64 56.552 0.239 8.13 4.73 10.12
5/6/2021 8:00:00 PM 13.57 56.426 0.24 8.11 4.91 9.99
5/6/2021 8:15:00 PM 13.48 56.264 0.24 8.1 5.19 9.85
5/6/2021 8:30:00 PM 13.41 56.138 0.241 8.08 5.04 9.75
5/6/2021 8:45:00 PM 13.31 55.958 0.242 8.07 5.59 9.62
5/6/2021 9:00:00 PM 13.23 55.814 0.242 8.05 6.08 9.51
5/6/2021 9:15:00 PM 13.14 55.652 0.243 8.04 5.77 9.39
5/6/2021 9:30:00 PM 13.04 55.472 0.243 8.03 5.46 9.33
5/6/2021 9:45:00 PM 12.94 55.292 0.244 8.02 5.72 9.24
5/6/2021 10:00:00 PM 12.84 55.112 0.245 8.01 5.03 9.14
5/6/2021 10:15:00 PM 12.74 54.932 0.245 8 5.25 9.12
5/6/2021 10:30:00 PM 12.64 54.752 0.245 8 5.68 9.07
5/6/2021 10:45:00 PM 12.52 54.536 0.246 7.99 5.79 9.02
5/6/2021 11:00:00 PM 12.41 54.338 0.247 7.98 6.09 8.99
5/6/2021 11:15:00 PM 12.29 54.122 0.248 7.98 5.68 8.96
5/6/2021 11:30:00 PM 12.18 53.924 0.247 7.98 5.31 8.95
5/6/2021 11:45:00 PM 12.07 53.726 0.247 7.97 5.96 8.94
5/7/2021 12:00:00 AM 11.95 53.51 0.249 7.97 5.55 8.96
5/7/2021 12:15:00 AM 11.84 53.312 0.248 7.97 5.6 8.94
5/7/2021 12:30:00 AM 11.73 53.114 0.249 7.97 6.27 8.95
5/7/2021 12:45:00 AM 11.61 52.898 0.251 7.96 5.56 8.97
5/7/2021 1:00:00 AM 11.5 52.7 0.249 7.96 5.75 8.99
5/7/2021 1:15:00 AM 11.39 52.502 0.249 7.97 5.42 9.01
5/7/2021 1:30:00 AM 11.26 52.268 0.25 7.96 5.91 9.03
5/7/2021 1:45:00 AM 11.14 52.052 0.25 7.96 6.52 9.03
5/7/2021 2:00:00 AM 11.03 51.854 0.25 7.96 5.51 8.99
5/7/2021 2:15:00 AM 10.92 51.656 0.249 7.96 5.98 9.11
5/7/2021 2:30:00 AM 10.8 51.44 0.25 7.96 6.24 9.07
5/7/2021 2:45:00 AM 10.69 51.242 0.249 7.96 5.88 9.12
5/7/2021 3:00:00 AM 10.58 51.044 0.25 7.96 9.87 9.13
5/7/2021 3:15:00 AM 10.46 50.828 0.25 7.96 6.47 9.17
5/7/2021 3:30:00 AM 10.36 50.648 0.251 7.96 5.66 9.2
5/7/2021 3:45:00 AM 10.25 50.45 0.25 7.96 5.44 9.22
5/7/2021 4:00:00 AM 10.15 50.27 0.251 7.96 6.87 9.26
5/7/2021 4:15:00 AM 10.05 50.09 0.251 7.96 5.25 9.3
5/7/2021 4:30:00 AM 9.95 49.91 0.252 7.96 5.59 9.31
5/7/2021 4:45:00 AM 9.85 49.73 0.251 7.96 7.13 9.33
5/7/2021 5:00:00 AM 9.75 49.55 0.253 7.96 5.74 9.33
5/7/2021 5:15:00 AM 9.65 49.37 0.251 7.96 6.52 9.3
5/7/2021 5:30:00 AM 9.56 49.208 0.252 7.96 6.18 9.4
5/7/2021 5:45:00 AM 9.47 49.046 0.251 7.96 6.06 9.43
5/7/2021 6:00:00 AM 9.38 48.884 0.251 7.96 7.52 9.48
5/7/2021 6:15:00 AM 9.3 48.74 0.251 7.96 5.42 9.47
5/7/2021 6:30:00 AM 9.22 48.596 0.251 7.96 5.17 9.53
5/7/2021 6:45:00 AM 9.14 48.452 0.25 7.96 6.43 9.59
5/7/2021 7:00:00 AM 9.07 48.326 0.25 7.96 5.25 9.6
5/7/2021 7:15:00 AM 9.01 48.218 0.25 7.97 5.58 9.73
5/7/2021 7:30:00 AM 8.97 48.146 0.253 7.98 4.72 9.81
5/7/2021 7:45:00 AM 8.94 48.092 0.25 7.98 4.7 9.91
5/7/2021 8:00:00 AM 8.94 48.092 0.252 7.99 4.67 10.04
5/7/2021 8:15:00 AM 8.93 48.074 0.253 8 4.81 10.15
5/7/2021 8:30:00 AM 8.95 48.11 0.254 8 4.57 10.28
5/7/2021 8:45:00 AM 8.99 48.182 0.253 8.01 4.34 10.39
5/7/2021 9:00:00 AM 9.06 48.308 0.257 8.02 4.21 10.54
5/7/2021 9:15:00 AM 9.14 48.452 0.254 8.03 4.47 10.65
5/7/2021 9:30:00 AM 9.22 48.596 0.254 8.05 5.26 10.8
5/7/2021 9:45:00 AM 9.33 48.794 0.254 8.06 4.23 10.94
5/7/2021 10:00:00 AM 9.46 49.028 0.254 8.07 4.37 11.09
5/7/2021 10:15:00 AM 9.61 49.298 0.254 8.09 4.37 11.24
5/7/2021 10:30:00 AM 9.78 49.604 0.254 8.1 5.28 11.37
5/7/2021 10:45:00 AM 9.86 49.748 0.255 8.11 3.92 11.4
5/7/2021 11:00:00 AM 9.91 49.838 0.255 8.12 4.05 11.42
5/7/2021 11:15:00 AM 9.95 49.91 0.254 8.13 3.94 11.44
5/7/2021 11:30:00 AM 9.96 49.928 0.255 8.13 3.9 11.42
5/7/2021 11:45:00 AM 9.98 49.964 0.256 8.13 4.09 11.4
5/7/2021 12:00:00 PM 10.01 50.018 0.255 8.14 4.26 11.38
5/7/2021 12:15:00 PM 10.07 50.126 0.254 8.14 3.89 11.42
5/7/2021 12:30:00 PM 10.17 50.306 0.255 8.15 3.87 11.51
5/7/2021 12:45:00 PM 10.26 50.468 0.255 8.16 3.87 11.59
5/7/2021 1:00:00 PM 10.31 50.558 0.255 8.17 4.2 11.58
5/7/2021 1:15:00 PM 10.36 50.648 0.255 8.17 3.87 11.6
5/7/2021 1:30:00 PM 10.39 50.702 0.257 8.17 3.93 11.58
5/7/2021 1:45:00 PM 10.45 50.81 0.256 8.18 4.04 11.62
5/7/2021 2:00:00 PM 10.51 50.918 0.256 8.19 4.07 11.67
5/7/2021 2:15:00 PM 10.62 51.116 0.257 8.2 3.98 11.74
5/7/2021 2:30:00 PM 10.69 51.242 0.255 8.21 3.66 11.79
5/7/2021 2:45:00 PM 10.74 51.332 0.256 8.22 3.75 11.78
5/7/2021 3:00:00 PM 10.79 51.422 0.256 8.21 3.73 11.74
5/7/2021 3:15:00 PM 10.85 51.53 0.256 8.21 4.44 11.67
5/7/2021 3:30:00 PM 10.88 51.584 0.257 8.21 3.74 11.58
5/7/2021 3:45:00 PM 10.93 51.674 0.257 8.21 3.92 11.53
5/7/2021 4:00:00 PM 10.97 51.746 0.26 8.2 3.63 11.4
5/7/2021 4:15:00 PM 11.03 51.854 0.259 8.21 3.96 11.45
5/7/2021 4:30:00 PM 11.08 51.944 0.259 8.19 3.85 11.36
5/7/2021 4:45:00 PM 11.12 52.016 0.26 8.2 3.83 11.32
5/7/2021 5:00:00 PM 11.15 52.07 0.259 8.19 4.27 11.18
5/7/2021 5:15:00 PM 11.18 52.124 0.261 8.19 3.67 11.11
5/7/2021 5:30:00 PM 11.21 52.178 0.26 8.18 3.96 11.06
5/7/2021 5:45:00 PM 11.2 52.16 0.259 8.17 3.81 10.96
5/7/2021 6:00:00 PM 11.19 52.142 0.26 8.16 3.81 10.82
5/7/2021 6:15:00 PM 11.16 52.088 0.26 8.15 4.06 10.77
5/7/2021 6:30:00 PM 11.13 52.034 0.261 8.14 4.09 10.65
5/7/2021 6:45:00 PM 11.11 51.998 0.259 8.13 4.02 10.57
5/7/2021 7:00:00 PM 11.09 51.962 0.261 8.12 3.82 10.47
5/7/2021 7:15:00 PM 11.07 51.926 0.26 8.11 3.89 10.34
5/7/2021 7:30:00 PM 11.04 51.872 0.261 8.09 3.96 10.09
5/7/2021 7:45:00 PM 11.02 51.836 0.26 8.09 4.02 10.13
5/7/2021 8:00:00 PM 11 51.8 0.261 8.07 4.03 10.02
5/7/2021 8:15:00 PM 10.98 51.764 0.261 8.06 4.24 9.91
5/7/2021 8:30:00 PM 10.95 51.71 0.263 8.05 4.45 9.81
5/7/2021 8:45:00 PM 10.93 51.674 0.263 8.04 4.71 9.72
5/7/2021 9:00:00 PM 10.9 51.62 0.263 8.03 4.71 9.63
5/7/2021 9:15:00 PM 10.87 51.566 0.262 8.03 4.55 9.54
5/7/2021 9:30:00 PM 10.84 51.512 0.262 8.02 4.93 9.49
5/7/2021 9:45:00 PM 10.82 51.476 0.261 8.02 6.2 9.45
5/7/2021 10:00:00 PM 10.78 51.404 0.262 8.01 4.38 9.41
5/7/2021 10:15:00 PM 10.74 51.332 0.262 8 4.66 9.33
5/7/2021 10:30:00 PM 10.7 51.26 0.261 8 4.79 9.33
5/7/2021 10:45:00 PM 10.66 51.188 0.261 7.99 5 9.28
5/7/2021 11:00:00 PM 10.62 51.116 0.261 7.99 4.26 9.27
5/7/2021 11:15:00 PM 10.58 51.044 0.26 7.98 5.43 9.25
5/7/2021 11:30:00 PM 10.54 50.972 0.259 7.98 4.9 9.24
5/7/2021 11:45:00 PM 10.5 50.9 0.259 7.98 4.43 9.23
5/8/2021 12:00:00 AM 10.46 50.828 0.258 7.98 5.14 9.21
5/8/2021 12:15:00 AM 10.42 50.756 0.258 7.98 9.94 9.21
5/8/2021 12:30:00 AM 10.38 50.684 0.257 7.97 5.74 9.27
5/8/2021 12:45:00 AM 10.33 50.594 0.258 7.97 6.01 9.24
5/8/2021 1:00:00 AM 10.29 50.522 0.255 7.97 5.81 9.29
5/8/2021 1:15:00 AM 10.23 50.414 0.254 7.97 5.16 9.3
5/8/2021 1:30:00 AM 10.18 50.324 0.254 7.97 6.53 9.3
5/8/2021 1:45:00 AM 10.14 50.252 0.254 7.97 5.69 9.31
5/8/2021 2:00:00 AM 10.09 50.162 0.253 7.97 5.82 9.32
5/8/2021 2:15:00 AM 10.03 50.054 0.254 7.96 8.16 9.32
5/8/2021 2:30:00 AM 9.98 49.964 0.253 7.96 5.45 9.33
5/8/2021 2:45:00 AM 9.93 49.874 0.254 7.96 5.92 9.37
5/8/2021 3:00:00 AM 9.87 49.766 0.253 7.96 6.17 9.4
5/8/2021 3:15:00 AM 9.81 49.658 0.25 7.96 6.28 9.42
5/8/2021 3:30:00 AM 9.75 49.55 0.248 7.96 7.09 9.44
5/8/2021 3:45:00 AM 9.68 49.424 0.245 7.95 6.09 9.45
5/8/2021 4:00:00 AM 9.62 49.316 0.241 7.96 6.59 9.51
5/8/2021 4:15:00 AM 9.54 49.172 0.237 7.95 6.72 9.54
5/8/2021 4:30:00 AM 9.47 49.046 0.233 7.95 7.2 9.59
5/8/2021 4:45:00 AM 9.4 48.92 0.23 7.95 8.21 9.62
5/8/2021 5:00:00 AM 9.32 48.776 0.225 7.95 6.88 9.67
5/8/2021 5:15:00 AM 9.25 48.65 0.22 7.95 7.6 9.72
5/8/2021 5:30:00 AM 9.18 48.524 0.215 7.95 7.96 9.77
5/8/2021 5:45:00 AM 9.1 48.38 0.205 7.94 9.32 9.86
5/8/2021 6:00:00 AM 9.02 48.236 0.196 7.94 20.72 9.91
5/8/2021 6:15:00 AM 8.93 48.074 0.189 7.93 10.46 9.96
5/8/2021 6:30:00 AM 8.85 47.93 0.179 7.93 10.99 10.03
5/8/2021 6:45:00 AM 8.76 47.768 0.172 7.92 12.23 10.08
5/8/2021 7:00:00 AM 8.68 47.624 0.164 7.91 14.88 10.18
5/8/2021 7:15:00 AM 8.61 47.498 0.156 7.9 14.84 10.23
5/8/2021 7:30:00 AM 8.55 47.39 0.152 7.9 19.64 10.3
5/8/2021 7:45:00 AM 8.5 47.3 0.146 7.89 14.67 10.36
5/8/2021 8:00:00 AM 8.46 47.228 0.14 7.88 22.13 10.4
5/8/2021 8:15:00 AM 8.4 47.12 0.136 7.88 18.53 10.44
5/8/2021 8:30:00 AM 8.36 47.048 0.134 7.87 19.86 10.45
5/8/2021 8:45:00 AM 8.33 46.994 0.136 7.87 22.72 10.51
5/8/2021 9:00:00 AM 8.3 46.94 0.131 7.86 25.71 10.55
5/8/2021 9:15:00 AM 8.29 46.922 0.133 7.86 19.24 10.49
5/8/2021 9:30:00 AM 8.28 46.904 0.131 7.87 37.84 10.54
5/8/2021 9:45:00 AM 8.3 46.94 0.135 7.86 16 10.7
5/8/2021 10:00:00 AM 8.31 46.958 0.131 7.87 18.89 10.76
5/8/2021 10:15:00 AM 8.33 46.994 0.129 7.87 25.5 10.78
5/8/2021 10:30:00 AM 8.36 47.048 0.132 7.87 20.86 10.79
5/8/2021 10:45:00 AM 8.36 47.048 0.133 7.88 17.49 10.8
5/8/2021 11:00:00 AM 8.35 47.03 0.132 7.89 14.68 10.88
5/8/2021 11:15:00 AM 8.37 47.066 0.137 7.88 17.58 10.88
5/8/2021 11:30:00 AM 8.39 47.102 0.132 7.89 16.41 10.89
5/8/2021 11:45:00 AM 8.44 47.192 0.138 7.88 15.94 10.9
5/8/2021 12:00:00 PM 8.47 47.246 0.137 7.89 14.29 10.95
5/8/2021 12:15:00 PM 8.54 47.372 0.136 7.89 15.46 11.06
5/8/2021 12:30:00 PM 8.59 47.462 0.135 7.89 15.03 11.08
5/8/2021 12:45:00 PM 8.65 47.57 0.137 7.9 13.92 11.06
5/8/2021 1:00:00 PM 8.67 47.606 0.135 7.9 13.77 11.04
5/8/2021 1:15:00 PM 8.72 47.696 0.137 7.92 14.05 11.08
5/8/2021 1:30:00 PM 8.75 47.75 0.135 7.92 13.37 11.16
5/8/2021 1:45:00 PM 8.82 47.876 0.135 7.93 14.17 11.21
5/8/2021 2:00:00 PM 8.91 48.038 0.139 7.93 12.2 11.24
5/8/2021 2:15:00 PM 8.96 48.128 0.138 7.93 12.15 11.16
5/8/2021 2:30:00 PM 8.98 48.164 0.141 7.94 11.72 11.19
5/8/2021 2:45:00 PM 8.98 48.164 0.139 7.94 11.64 11.05
5/8/2021 3:00:00 PM 8.96 48.128 0.14 7.94 11.9 11.16
5/8/2021 3:15:00 PM 8.98 48.164 0.141 7.95 11.38 11.2
5/8/2021 3:30:00 PM 9 48.2 0.145 7.95 10.74 11.17
5/8/2021 3:45:00 PM 9.02 48.236 0.142 7.95 11.04 11.17
5/8/2021 4:00:00 PM 9.05 48.29 0.144 7.95 10.49 11.13
5/8/2021 4:15:00 PM 9.08 48.344 0.145 7.95 10.09 11.11
5/8/2021 4:30:00 PM 9.19 48.542 0.144 7.96 9.49 11.17
5/8/2021 4:45:00 PM 9.22 48.596 0.148 7.97 10.36 11.23
5/8/2021 5:00:00 PM 9.27 48.686 0.146 7.97 10.13 11.26
5/8/2021 5:15:00 PM 9.3 48.74 0.148 7.98 9.38 11.24
5/8/2021 5:30:00 PM 9.33 48.794 0.149 7.98 9.4 11.24
5/8/2021 5:45:00 PM 9.36 48.848 0.151 7.98 9.89 11.19
5/8/2021 6:00:00 PM 9.39 48.902 0.151 7.98 9.37 11.14
5/8/2021 6:15:00 PM 9.41 48.938 0.155 7.98 8.73 11.12
5/8/2021 6:30:00 PM 9.43 48.974 0.154 7.98 8.71 11.05
5/8/2021 6:45:00 PM 9.44 48.992 0.155 7.98 8.72 11.03
5/8/2021 7:00:00 PM 9.45 49.01 0.156 7.98 8.59 10.97
5/8/2021 7:15:00 PM 9.45 49.01 0.156 7.98 8.77 10.96
5/8/2021 7:30:00 PM 9.45 49.01 0.157 7.97 8.2 10.91
5/8/2021 7:45:00 PM 9.44 48.992 0.159 7.97 8.32 10.87
5/8/2021 8:00:00 PM 9.41 48.938 0.161 7.96 7.98 10.77
5/8/2021 8:15:00 PM 9.38 48.884 0.161 7.96 7.55 10.76
5/8/2021 8:30:00 PM 9.36 48.848 0.162 7.96 7.92 10.72
5/8/2021 8:45:00 PM 9.33 48.794 0.164 7.95 7.38 10.64
5/8/2021 9:00:00 PM 9.3 48.74 0.164 7.95 7.64 10.6
5/8/2021 9:15:00 PM 9.27 48.686 0.164 7.94 7.86 10.53
5/8/2021 9:30:00 PM 9.25 48.65 0.167 7.94 7.86 10.48
5/8/2021 9:45:00 PM 9.21 48.578 0.167 7.93 8.08 10.43
5/8/2021 10:00:00 PM 9.17 48.506 0.168 7.93 7.84 10.39
5/8/2021 10:15:00 PM 9.12 48.416 0.168 7.92 7.76 10.38
5/8/2021 10:30:00 PM 9.09 48.362 0.17 7.92 7.69 10.33
5/8/2021 10:45:00 PM 9.05 48.29 0.169 7.92 7.77 10.33
5/8/2021 11:00:00 PM 9.02 48.236 0.172 7.91 7.17 10.24
5/8/2021 11:15:00 PM 8.99 48.182 0.172 7.91 7.37 10.29
5/8/2021 11:30:00 PM 8.96 48.128 0.175 7.91 7.27 10.25
5/8/2021 11:45:00 PM 8.93 48.074 0.174 7.91 7.68 10.21
5/9/2021 12:00:00 AM 8.89 48.002 0.175 7.91 7.94 10.2
5/9/2021 12:15:00 AM 8.84 47.912 0.176 7.91 7.63 10.24
5/9/2021 12:30:00 AM 8.8 47.84 0.181 7.91 7.69 10.22
5/9/2021 12:45:00 AM 8.75 47.75 0.179 7.91 7.66 10.2
5/9/2021 1:00:00 AM 8.7 47.66 0.179 7.91 7.41 10.24
5/9/2021 1:15:00 AM 8.65 47.57 0.18 7.91 7.42 10.16
5/9/2021 1:30:00 AM 8.61 47.498 0.182 7.91 7.95 10.17
5/9/2021 1:45:00 AM 8.54 47.372 0.182 7.91 7.21 10.17
5/9/2021 2:00:00 AM 8.48 47.264 0.181 7.91 7.51 10.17
5/9/2021 2:15:00 AM 8.42 47.156 0.183 7.91 7.29 10.12
5/9/2021 2:30:00 AM 8.36 47.048 0.182 7.91 7.09 10.25
5/9/2021 2:45:00 AM 8.31 46.958 0.183 7.91 7.2 10.29
5/9/2021 3:00:00 AM 8.26 46.868 0.185 7.91 6.88 10.29
5/9/2021 3:15:00 AM 8.2 46.76 0.184 7.91 6.53 10.3
5/9/2021 3:30:00 AM 8.15 46.67 0.186 7.91 6.8 10.32
5/9/2021 3:45:00 AM 8.1 46.58 0.185 7.91 6.46 10.33
5/9/2021 4:00:00 AM 8.04 46.472 0.185 7.91 6.55 10.36
5/9/2021 4:15:00 AM 7.99 46.382 0.187 7.91 9.91 10.34
5/9/2021 4:30:00 AM 7.94 46.292 0.186 7.91 6.37 10.38
5/9/2021 4:45:00 AM 7.89 46.202 0.188 7.91 7.06 10.37
5/9/2021 5:00:00 AM 7.85 46.13 0.188 7.91 6.75 10.07
5/9/2021 5:15:00 AM 7.8 46.04 0.189 7.91 6.82 10.39
5/9/2021 5:30:00 AM 7.75 45.95 0.189 7.91 6.65 10.4
5/9/2021 5:45:00 AM 7.71 45.878 0.191 7.91 6 10.41
5/9/2021 6:00:00 AM 7.65 45.77 0.19 7.91 6.04 10.43
5/9/2021 6:15:00 AM 7.61 45.698 0.191 7.91 5.98 10.44
5/9/2021 6:30:00 AM 7.56 45.608 0.19 7.91 5.92 10.48
5/9/2021 6:45:00 AM 7.53 45.554 0.192 7.92 6.9 10.51
5/9/2021 7:00:00 AM 7.5 45.5 0.191 7.92 6.36 10.56
5/9/2021 7:15:00 AM 7.51 45.518 0.196 7.93 5.89 10.62
5/9/2021 7:30:00 AM 7.48 45.464 0.192 7.93 5.71 10.69
5/9/2021 7:45:00 AM 7.5 45.5 0.194 7.93 5.62 10.76
5/9/2021 8:00:00 AM 7.53 45.554 0.198 7.94 5.74 10.86
5/9/2021 8:15:00 AM 7.54 45.572 0.195 7.95 5.22 10.93
5/9/2021 8:30:00 AM 7.57 45.626 0.196 7.96 5.41 11.04
5/9/2021 8:45:00 AM 7.63 45.734 0.197 7.97 5.16 11.16
5/9/2021 9:00:00 AM 7.66 45.788 0.195 7.98 5.15 11.21
5/9/2021 9:15:00 AM 7.74 45.932 0.197 8 5.55 11.36
5/9/2021 9:30:00 AM 7.84 46.112 0.197 8.01 5.15 11.47
5/9/2021 9:45:00 AM 7.92 46.256 0.195 8.02 4.87 11.56
5/9/2021 10:00:00 AM 8.02 46.436 0.199 8.03 5.05 11.66
5/9/2021 10:15:00 AM 8.11 46.598 0.198 8.05 5.24 11.74
5/9/2021 10:30:00 AM 8.2 46.76 0.197 8.06 4.86 11.8
5/9/2021 10:45:00 AM 8.28 46.904 0.197 8.07 4.5 11.85
5/9/2021 11:00:00 AM 8.38 47.084 0.2 8.08 4.63 11.89
5/9/2021 11:15:00 AM 8.46 47.228 0.201 8.09 4.75 11.94
5/9/2021 11:30:00 AM 8.55 47.39 0.197 8.1 4.48 11.99
5/9/2021 11:45:00 AM 8.65 47.57 0.201 8.11 4.86 12.02
5/9/2021 12:00:00 PM 8.77 47.786 0.198 8.11 4.54 12.06
5/9/2021 12:15:00 PM 8.88 47.984 0.2 8.12 4.37 12.06
5/9/2021 12:30:00 PM 8.99 48.182 0.201 8.13 4.28 12.11
5/9/2021 12:45:00 PM 9.09 48.362 0.202 8.14 4.24 12.12
5/9/2021 1:00:00 PM 9.19 48.542 0.199 8.15 4.37 12.13
5/9/2021 1:15:00 PM 9.29 48.722 0.205 8.16 4.58 12.14
5/9/2021 1:30:00 PM 9.38 48.884 0.201 8.17 4.59 12.15
5/9/2021 1:45:00 PM 9.46 49.028 0.202 8.17 4.42 12.14
5/9/2021 2:00:00 PM 9.54 49.172 0.203 8.17 4.29 12.09
5/9/2021 2:15:00 PM 9.58 49.244 0.201 8.17 4.32 11.99
5/9/2021 2:30:00 PM 9.63 49.334 0.204 8.16 4.3 11.91
5/9/2021 2:45:00 PM 9.68 49.424 0.202 8.16 4.4 11.85
5/9/2021 3:00:00 PM 9.73 49.514 0.202 8.16 4.46 11.84
5/9/2021 3:15:00 PM 9.78 49.604 0.203 8.16 4.56 11.82
5/9/2021 3:30:00 PM 9.82 49.676 0.204 8.16 4.23 11.78
5/9/2021 3:45:00 PM 9.84 49.712 0.204 8.15 4.28 11.69
5/9/2021 4:00:00 PM 9.85 49.73 0.203 8.16 4.65 11.65
5/9/2021 4:15:00 PM 9.84 49.712 0.206 8.15 4.47 11.56
5/9/2021 4:30:00 PM 9.84 49.712 0.206 8.14 4.37 11.48
5/9/2021 4:45:00 PM 9.84 49.712 0.201 8.13 4.28 11.42
5/9/2021 5:00:00 PM 9.84 49.712 0.202 8.12 4.19 11.34
5/9/2021 5:15:00 PM 9.84 49.712 0.205 8.11 4.32 11.23
5/9/2021 5:30:00 PM 9.84 49.712 0.207 8.1 4.41 11.17
5/9/2021 5:45:00 PM 9.83 49.694 0.205 8.09 4.33 11.06
5/9/2021 6:00:00 PM 9.82 49.676 0.202 8.08 4.38 10.97
5/9/2021 6:15:00 PM 9.79 49.622 0.202 8.07 4.35 10.93
5/9/2021 6:30:00 PM 9.76 49.568 0.205 8.06 4.51 10.85
5/9/2021 6:45:00 PM 9.73 49.514 0.203 8.05 5 10.78
5/9/2021 7:00:00 PM 9.7 49.46 0.199 8.04 5.04 10.71
5/9/2021 7:15:00 PM 9.65 49.37 0.204 8.03 4.72 10.64
5/9/2021 7:30:00 PM 9.61 49.298 0.2 8.02 4.65 10.57
5/9/2021 7:45:00 PM 9.56 49.208 0.203 8.01 4.91 10.52
5/9/2021 8:00:00 PM 9.52 49.136 0.204 8.01 5.44 10.44
5/9/2021 8:15:00 PM 9.47 49.046 0.203 8 5.24 10.4
5/9/2021 8:30:00 PM 9.43 48.974 0.202 7.99 5.06 10.34
5/9/2021 8:45:00 PM 9.37 48.866 0.201 7.98 5.44 10.32
5/9/2021 9:00:00 PM 9.32 48.776 0.202 7.98 5.67 10.27
5/9/2021 9:15:00 PM 9.26 48.668 0.198 7.97 5.44 10.24
5/9/2021 9:30:00 PM 9.21 48.578 0.202 7.96 5.82 10.2
5/9/2021 9:45:00 PM 9.14 48.452 0.199 7.96 5.95 10.18
5/9/2021 10:00:00 PM 9.08 48.344 0.199 7.95 5.93 10.2
5/9/2021 10:15:00 PM 9.01 48.218 0.196 7.95 6.21 10.2
5/9/2021 10:30:00 PM 8.94 48.092 0.193 7.94 6.45 10.14
5/9/2021 10:45:00 PM 8.87 47.966 0.192 7.94 6.44 10.19
5/9/2021 11:00:00 PM 8.81 47.858 0.186 7.93 6.72 10.22
5/9/2021 11:15:00 PM 8.74 47.732 0.185 7.93 6.88 10.24
5/9/2021 11:30:00 PM 8.68 47.624 0.179 7.92 7.64 10.25
5/9/2021 11:45:00 PM 8.6 47.48 0.173 7.91 7.93 10.28
5/10/2021 12:00:00 AM 8.53 47.354 0.172 7.91 7.57 10.32
5/10/2021 12:15:00 AM 8.46 47.228 0.167 7.9 8.46 10.35
5/10/2021 12:30:00 AM 8.38 47.084 0.158 7.89 10.49 10.38
5/10/2021 12:45:00 AM 8.31 46.958 0.154 7.89 10.17 10.4
5/10/2021 1:00:00 AM 8.25 46.85 0.151 7.88 9.81 10.4
5/10/2021 1:15:00 AM 8.19 46.742 0.149 7.87 11.64 10.43
5/10/2021 1:30:00 AM 8.14 46.652 0.144 7.86 12.29 10.41
5/10/2021 1:45:00 AM 8.1 46.58 0.141 7.86 12.21 10.46
5/10/2021 2:00:00 AM 8.06 46.508 0.141 7.86 14.02 10.41
5/10/2021 2:15:00 AM 8.02 46.436 0.136 7.85 13.28 10.48
5/10/2021 2:30:00 AM 7.99 46.382 0.136 7.84 17.36 10.47
5/10/2021 2:45:00 AM 7.94 46.292 0.134 7.83 14.76 10.51
5/10/2021 3:00:00 AM 7.89 46.202 0.123 7.83 27.01 10.6
5/10/2021 3:15:00 AM 7.86 46.148 0.121 7.82 23.71 10.61
5/10/2021 3:30:00 AM 7.81 46.058 0.116 7.81 1457.69 10.65
5/10/2021 3:45:00 AM 7.78 46.004 0.113 7.8 24.74 10.67
5/10/2021 4:00:00 AM 7.74 45.932 0.11 7.79 18.74 10.72
5/10/2021 4:15:00 AM 7.71 45.878 0.109 7.79 25 10.74
5/10/2021 4:30:00 AM 7.68 45.824 0.105 7.78 23.76 10.73
5/10/2021 4:45:00 AM 7.65 45.77 0.106 7.77 22.57 10.75
5/10/2021 5:00:00 AM 7.62 45.716 0.106 7.77 23.63 10.77
5/10/2021 5:15:00 AM 7.6 45.68 0.103 7.76 23.82 10.79
5/10/2021 5:30:00 AM 7.57 45.626 0.102 7.75 23.69 10.8
5/10/2021 5:45:00 AM 7.54 45.572 0.101 7.75 27.56 10.82
5/10/2021 6:00:00 AM 7.53 45.554 0.102 7.74 28.38 10.81
5/10/2021 6:15:00 AM 7.51 45.518 0.101 7.74 27.82 10.8
5/10/2021 6:30:00 AM 7.49 45.482 0.101 7.74 19.72 10.82
5/10/2021 6:45:00 AM 7.47 45.446 0.101 7.73 22.46 10.82
5/10/2021 7:00:00 AM 7.45 45.41 0.101 7.73 16.75 10.82
5/10/2021 7:15:00 AM 7.44 45.392 0.102 7.73 25.26 10.83
5/10/2021 7:30:00 AM 7.44 45.392 0.104 7.73 21.27 10.83
5/10/2021 7:45:00 AM 7.44 45.392 0.104 7.73 18.61 10.83
5/10/2021 8:00:00 AM 7.45 45.41 0.105 7.73 18.14 10.84
5/10/2021 8:15:00 AM 7.46 45.428 0.107 7.73 19.91 10.85
5/10/2021 8:30:00 AM 7.47 45.446 0.11 7.73 16.62 10.87
5/10/2021 8:45:00 AM 7.48 45.464 0.112 7.74 18 10.88
5/10/2021 9:00:00 AM 7.5 45.5 0.112 7.74 17.39 10.89
5/10/2021 9:15:00 AM 7.51 45.518 0.113 7.75 31.11 10.9
5/10/2021 9:30:00 AM 7.54 45.572 0.114 7.75 17.02 10.86
5/10/2021 9:45:00 AM 7.56 45.608 0.115 7.76 15.94 10.93
5/10/2021 10:00:00 AM 7.6 45.68 0.115 7.76 15.83 10.99
5/10/2021 10:15:00 AM 7.67 45.806 0.117 7.78 14.48 11
5/10/2021 10:30:00 AM 7.75 45.95 0.125 7.78 15.27 11
5/10/2021 10:45:00 AM 7.81 46.058 0.122 7.79 14.09 11.12
5/10/2021 11:00:00 AM 7.9 46.22 0.122 7.8 14.17 11.12
5/10/2021 11:15:00 AM 7.97 46.346 0.121 7.82 13.94 11.18
5/10/2021 11:30:00 AM 8.08 46.544 0.121 7.83 12.85 11.21
5/10/2021 11:45:00 AM 8.23 46.814 0.124 7.84 12.18 11.31
5/10/2021 12:00:00 PM 8.45 47.21 0.126 7.85 12.69 11.35
5/10/2021 12:15:00 PM 8.56 47.408 0.122 7.87 13.24 11.35
5/10/2021 12:30:00 PM 8.69 47.642 0.136 7.86 12.88 11.3
5/10/2021 12:45:00 PM 8.82 47.876 0.133 7.87 11.41 11.36
5/10/2021 1:00:00 PM 8.95 48.11 0.132 7.87 10.71 11.34
5/10/2021 1:15:00 PM 9.16 48.488 0.132 7.89 11.35 11.32
5/10/2021 1:30:00 PM 9.31 48.758 0.129 7.91 10.91 11.44
5/10/2021 1:45:00 PM 9.45 49.01 0.13 7.9 10.4 11.37
5/10/2021 2:00:00 PM 9.56 49.208 0.131 7.91 11.08 11.39
5/10/2021 2:15:00 PM 9.67 49.406 0.131 7.92 11.22 11.42
5/10/2021 2:30:00 PM 9.86 49.748 0.134 7.93 11.09 11.42
5/10/2021 2:45:00 PM 10 50 0.131 7.93 10.53 11.35
5/10/2021 3:00:00 PM 10.15 50.27 0.134 7.94 10.52 11.35
5/10/2021 3:15:00 PM 10.3 50.54 0.135 7.95 9.58 11.38
5/10/2021 3:30:00 PM 10.38 50.684 0.137 7.95 10.93 11.28
5/10/2021 3:45:00 PM 10.52 50.936 0.137 7.95 9.84 11.24
5/10/2021 4:00:00 PM 10.65 51.17 0.14 7.96 9.64 11.22
5/10/2021 4:15:00 PM 10.81 51.458 0.137 7.97 9.01 11.19
5/10/2021 4:30:00 PM 10.92 51.656 0.139 7.98 8.37 11.22
5/10/2021 4:45:00 PM 11.01 51.818 0.138 7.98 9.46 11.13
5/10/2021 5:00:00 PM 11.06 51.908 0.144 7.97 31.25 11.09
5/10/2021 5:15:00 PM 11.09 51.962 0.144 7.98 7.93 11.08
5/10/2021 5:30:00 PM 11.12 52.016 0.143 7.97 8.22 11.02
5/10/2021 5:45:00 PM 11.17 52.106 0.144 7.98 8.59 10.94
5/10/2021 6:00:00 PM 11.22 52.196 0.144 7.97 8.11 10.9
5/10/2021 6:15:00 PM 11.26 52.268 0.142 7.97 7.85 10.88
5/10/2021 6:30:00 PM 11.28 52.304 0.144 7.97 7.33 10.79
5/10/2021 6:45:00 PM 11.29 52.322 0.144 7.97 7.76 10.71
5/10/2021 7:00:00 PM 11.27 52.286 0.149 7.97 8.34 10.69
5/10/2021 7:15:00 PM 11.24 52.232 0.153 7.95 7.9 10.58
5/10/2021 7:30:00 PM 11.2 52.16 0.152 7.96 7.63 10.54
5/10/2021 7:45:00 PM 11.15 52.07 0.152 7.94 8.01 10.42
5/10/2021 8:00:00 PM 11.09 51.962 0.153 7.94 8.04 10.42
5/10/2021 8:15:00 PM 11.02 51.836 0.153 7.94 8.11 10.33
5/10/2021 8:30:00 PM 10.93 51.674 0.159 7.93 7.51 10.24
5/10/2021 8:45:00 PM 10.86 51.548 0.155 7.93 7.68 10.22
5/10/2021 9:00:00 PM 10.78 51.404 0.158 7.92 7.7 10.14
5/10/2021 9:15:00 PM 10.69 51.242 0.158 7.92 7.68 10.11
5/10/2021 9:30:00 PM 10.59 51.062 0.162 7.91 7.67 10.08
5/10/2021 9:45:00 PM 10.5 50.9 0.159 7.9 8.27 10.04
5/10/2021 10:00:00 PM 10.4 50.72 0.163 7.9 8.71 9.98
5/10/2021 10:15:00 PM 10.31 50.558 0.159 7.89 8.45 9.96
5/10/2021 10:30:00 PM 10.2 50.36 0.163 7.89 8.02 9.92
5/10/2021 10:45:00 PM 10.1 50.18 0.164 7.89 8.39 9.92
5/10/2021 11:00:00 PM 10.01 50.018 0.163 7.88 7.88 9.94
5/10/2021 11:15:00 PM 9.92 49.856 0.166 7.88 7.79 9.97
5/10/2021 11:30:00 PM 9.83 49.694 0.165 7.88 7.95 9.94
5/10/2021 11:45:00 PM 9.75 49.55 0.166 7.88 8.06 9.94
5/11/2021 12:00:00 AM 9.66 49.388 0.165 7.88 8.2 9.9
5/11/2021 12:15:00 AM 9.58 49.244 0.167 7.88 7.95 9.98
5/11/2021 12:30:00 AM 9.5 49.1 0.167 7.88 8.18 9.98
5/11/2021 12:45:00 AM 9.43 48.974 0.167 7.88 8.36 9.98
5/11/2021 1:00:00 AM 9.37 48.866 0.17 7.88 7.86 9.99
5/11/2021 1:15:00 AM 9.3 48.74 0.168 7.88 7.72 9.99
5/11/2021 1:30:00 AM 9.24 48.632 0.171 7.88 7.73 9.94
5/11/2021 1:45:00 AM 9.18 48.524 0.171 7.88 7.78 10
5/11/2021 2:00:00 AM 9.12 48.416 0.169 7.88 7.41 10
5/11/2021 2:15:00 AM 9.06 48.308 0.17 7.87 7.58 10.05
5/11/2021 2:30:00 AM 8.99 48.182 0.174 7.87 7.63 10.06
5/11/2021 2:45:00 AM 8.92 48.056 0.171 7.87 7.87 10.08
5/11/2021 3:00:00 AM 8.86 47.948 0.172 7.87 7.72 10.09
5/11/2021 3:15:00 AM 8.81 47.858 0.175 7.87 7.39 10.06
5/11/2021 3:30:00 AM 8.73 47.714 0.171 7.87 8.17 10.1
5/11/2021 3:45:00 AM 8.67 47.606 0.17 7.87 7.47 10.15
5/11/2021 4:00:00 AM 8.61 47.498 0.174 7.87 7.6 10.11
5/11/2021 4:15:00 AM 8.53 47.354 0.171 7.87 7.11 10.16
5/11/2021 4:30:00 AM 8.47 47.246 0.172 7.87 7.94 10.19
5/11/2021 4:45:00 AM 8.4 47.12 0.172 7.87 7.51 10.19
5/11/2021 5:00:00 AM 8.33 46.994 0.171 7.87 8.26 10.13
5/11/2021 5:15:00 AM 8.26 46.868 0.171 7.87 7.24 10.23
5/11/2021 5:30:00 AM 8.2 46.76 0.172 7.87 7.63 10.25
5/11/2021 5:45:00 AM 8.14 46.652 0.173 7.87 9.17 10.25
5/11/2021 6:00:00 AM 8.09 46.562 0.174 7.87 6.88 10.29
5/11/2021 6:15:00 AM 8.03 46.454 0.174 7.87 6.7 10.25
5/11/2021 6:30:00 AM 7.98 46.364 0.175 7.88 6.59 10.33
5/11/2021 6:45:00 AM 7.92 46.256 0.172 7.88 6.4 10.36
5/11/2021 7:00:00 AM 7.88 46.184 0.173 7.88 6.9 10.41
5/11/2021 7:15:00 AM 7.84 46.112 0.173 7.88 7.05 10.46
5/11/2021 7:30:00 AM 7.82 46.076 0.173 7.89 6.68 10.5
5/11/2021 7:45:00 AM 7.82 46.076 0.175 7.89 5.49 10.58
5/11/2021 8:00:00 AM 7.83 46.094 0.176 7.89 7.06 10.61
5/11/2021 8:15:00 AM 7.82 46.076 0.174 7.91 5.97 10.69
5/11/2021 8:30:00 AM 7.85 46.13 0.176 7.91 5.61 10.78
5/11/2021 8:45:00 AM 7.88 46.184 0.176 7.92 5.32 10.88
5/11/2021 9:00:00 AM 7.93 46.274 0.176 7.93 5.14 10.97
5/11/2021 9:15:00 AM 8.02 46.436 0.177 7.94 5.82 11.05
5/11/2021 9:30:00 AM 8.11 46.598 0.174 7.95 5.53 11.16
5/11/2021 9:45:00 AM 8.23 46.814 0.174 7.96 6.22 11.26
5/11/2021 10:00:00 AM 8.34 47.012 0.173 7.97 4.99 11.37
5/11/2021 10:15:00 AM 8.47 47.246 0.175 7.98 5.14 11.43
5/11/2021 10:30:00 AM 8.6 47.48 0.177 7.99 5.28 11.48
5/11/2021 10:45:00 AM 8.71 47.678 0.175 8 4.94 11.55
5/11/2021 11:00:00 AM 8.8 47.84 0.176 8.01 5.69 11.6
5/11/2021 11:15:00 AM 8.83 47.894 0.176 8.01 4.88 11.6
5/11/2021 11:30:00 AM 8.88 47.984 0.177 8.02 4.53 11.63
5/11/2021 11:45:00 AM 8.92 48.056 0.179 8.03 5.36 11.64
5/11/2021 12:00:00 PM 8.94 48.092 0.177 8.03 4.65 11.68
5/11/2021 12:15:00 PM 8.94 48.092 0.175 8.04 4.82 11.68
5/11/2021 12:30:00 PM 8.97 48.146 0.178 8.04 4.9 11.68
5/11/2021 12:45:00 PM 9 48.2 0.177 8.05 4.93 11.7
5/11/2021 1:00:00 PM 9.04 48.272 0.178 8.05 4.78 11.72
5/11/2021 1:15:00 PM 9.08 48.344 0.179 8.06 4.69 11.71
5/11/2021 1:30:00 PM 9.22 48.596 0.177 8.07 4.43 11.79
5/11/2021 1:45:00 PM 9.42 48.956 0.177 8.08 4.82 11.83
5/11/2021 2:00:00 PM 9.51 49.118 0.178 8.08 5 11.78
5/11/2021 2:15:00 PM 9.66 49.388 0.178 8.08 5.98 11.79
5/11/2021 2:30:00 PM 9.72 49.496 0.178 8.09 5.93 11.74
5/11/2021 2:45:00 PM 9.83 49.694 0.18 8.1 5.48 11.8
5/11/2021 3:00:00 PM 9.89 49.802 0.18 8.1 5.77 11.67
5/11/2021 3:15:00 PM 9.96 49.928 0.181 8.1 5.19 11.69
5/11/2021 3:30:00 PM 10.1 50.18 0.183 8.1 5.15 11.7
5/11/2021 3:45:00 PM 10.16 50.288 0.18 8.1 5.85 11.64
5/11/2021 4:00:00 PM 10.24 50.432 0.182 8.11 6.89 11.63
5/11/2021 4:15:00 PM 10.28 50.504 0.181 8.11 8.48 11.58
5/11/2021 4:30:00 PM 10.33 50.594 0.181 8.1 9.64 11.52
5/11/2021 4:45:00 PM 10.39 50.702 0.183 8.1 9.79 11.48
5/11/2021 5:00:00 PM 10.45 50.81 0.181 8.1 9.21 11.44
5/11/2021 5:15:00 PM 10.51 50.918 0.184 8.11 8.68 11.44
5/11/2021 5:30:00 PM 10.53 50.954 0.183 8.11 7.2 11.41
5/11/2021 5:45:00 PM 10.54 50.972 0.186 8.1 6.47 11.34
5/11/2021 6:00:00 PM 10.59 51.062 0.185 8.1 6.25 11.33
5/11/2021 6:15:00 PM 10.61 51.098 0.184 8.1 5.68 11.26
5/11/2021 6:30:00 PM 10.6 51.08 0.185 8.09 5.81 11.16
5/11/2021 6:45:00 PM 10.59 51.062 0.186 8.09 5.82 11.13
5/11/2021 7:00:00 PM 10.56 51.008 0.187 8.07 6.08 10.96
5/11/2021 7:15:00 PM 10.53 50.954 0.186 8.06 6.15 10.94
5/11/2021 7:30:00 PM 10.48 50.864 0.187 8.06 5.7 10.91
5/11/2021 7:45:00 PM 10.4 50.72 0.188 8.05 5.72 10.81
5/11/2021 8:00:00 PM 10.33 50.594 0.186 8.04 5.61 10.68
5/11/2021 8:15:00 PM 10.25 50.45 0.188 8.03 5.95 10.63
5/11/2021 8:30:00 PM 10.18 50.324 0.187 8.02 5.76 10.58
5/11/2021 8:45:00 PM 10.11 50.198 0.186 8.01 5.64 10.51
5/11/2021 9:00:00 PM 10.05 50.09 0.189 8 5.71 10.46
5/11/2021 9:15:00 PM 9.97 49.946 0.189 7.99 5.52 10.34
5/11/2021 9:30:00 PM 9.9 49.82 0.189 7.98 5.57 10.3
5/11/2021 9:45:00 PM 9.83 49.694 0.188 7.97 6.07 10.24
5/11/2021 10:00:00 PM 9.75 49.55 0.189 7.97 6.21 10.21
5/11/2021 10:15:00 PM 9.67 49.406 0.188 7.96 6.13 10.2
5/11/2021 10:30:00 PM 9.58 49.244 0.189 7.96 6.07 10.18
5/11/2021 10:45:00 PM 9.5 49.1 0.189 7.95 6.11 10.17
5/11/2021 11:00:00 PM 9.42 48.956 0.19 7.95 5.69 10.15
5/11/2021 11:15:00 PM 9.33 48.794 0.19 7.95 5.58 10.14
5/11/2021 11:30:00 PM 9.25 48.65 0.189 7.94 6.65 10.14
5/11/2021 11:45:00 PM 9.18 48.524 0.189 7.94 5.91 10.14
5/12/2021 12:00:00 AM 9.1 48.38 0.19 7.94 5.64 10.15
5/12/2021 12:15:00 AM 9.03 48.254 0.19 7.93 6.18 10.13
5/12/2021 12:30:00 AM 8.96 48.128 0.189 7.93 5.97 10.15
5/12/2021 12:45:00 AM 8.87 47.966 0.189 7.93 6.31 10.15
5/12/2021 1:00:00 AM 8.79 47.822 0.189 7.93 6.24 10.17
5/12/2021 1:15:00 AM 8.71 47.678 0.19 7.92 5.91 10.17
5/12/2021 1:30:00 AM 8.62 47.516 0.191 7.92 6.14 10.19
5/12/2021 1:45:00 AM 8.53 47.354 0.191 7.92 5.82 10.22
5/12/2021 2:00:00 AM 8.44 47.192 0.193 7.92 5.7 10.23
5/12/2021 2:15:00 AM 8.37 47.066 0.194 7.92 5.95 10.22
5/12/2021 2:30:00 AM 8.3 46.94 0.194 7.92 5.1 10.25
5/12/2021 2:45:00 AM 8.24 46.832 0.195 7.92 5.28 10.26
5/12/2021 3:00:00 AM 8.17 46.706 0.196 7.92 5.2 10.27
5/12/2021 3:15:00 AM 8.12 46.616 0.195 7.92 5.55 10.25
5/12/2021 3:30:00 AM 8.07 46.526 0.195 7.92 5.36 10.29
5/12/2021 3:45:00 AM 8.03 46.454 0.196 7.92 5.38 10.28
5/12/2021 4:00:00 AM 7.99 46.382 0.196 7.92 5.73 10.31
5/12/2021 4:15:00 AM 7.95 46.31 0.197 7.91 5.36 10.31
5/12/2021 4:30:00 AM 7.91 46.238 0.196 7.92 5.73 10.33
5/12/2021 4:45:00 AM 7.89 46.202 0.195 7.91 5.53 10.33
5/12/2021 5:00:00 AM 7.86 46.148 0.196 7.91 5.59 10.32
5/12/2021 5:15:00 AM 7.83 46.094 0.195 7.91 4.91 10.34
5/12/2021 5:30:00 AM 7.8 46.04 0.197 7.91 6.29 10.33
5/12/2021 5:45:00 AM 7.78 46.004 0.197 7.91 5.92 10.31
5/12/2021 6:00:00 AM 7.75 45.95 0.197 7.91 5.78 10.35
5/12/2021 6:15:00 AM 7.72 45.896 0.197 7.91 5.72 10.39
5/12/2021 6:30:00 AM 7.7 45.86 0.198 7.92 5.65 10.4
5/12/2021 6:45:00 AM 7.68 45.824 0.197 7.92 5.64 10.44
5/12/2021 7:00:00 AM 7.67 45.806 0.198 7.92 5.59 10.49
5/12/2021 7:15:00 AM 7.67 45.806 0.197 7.92 5.11 10.52
5/12/2021 7:30:00 AM 7.67 45.806 0.199 7.93 4.84 10.62
5/12/2021 7:45:00 AM 7.67 45.806 0.198 7.93 4.69 10.69
5/12/2021 8:00:00 AM 7.69 45.842 0.199 7.94 4.95 10.76
5/12/2021 8:15:00 AM 7.73 45.914 0.2 7.95 4.79 10.86
5/12/2021 8:30:00 AM 7.78 46.004 0.199 7.96 5.74 10.97
5/12/2021 8:45:00 AM 7.84 46.112 0.2 7.97 4.31 11.09
5/12/2021 9:00:00 AM 7.92 46.256 0.201 7.98 4.1 11.19
5/12/2021 9:15:00 AM 8.02 46.436 0.2 7.99 4.42 11.3
5/12/2021 9:30:00 AM 8.14 46.652 0.199 8 4.42 11.42
5/12/2021 9:45:00 AM 8.29 46.922 0.202 8.02 4.17 11.53
5/12/2021 10:00:00 AM 8.45 47.21 0.202 8.03 4.11 11.6
5/12/2021 10:15:00 AM 8.62 47.516 0.201 8.04 4.88 11.68
5/12/2021 10:30:00 AM 8.8 47.84 0.201 8.05 4.25 11.76
5/12/2021 10:45:00 AM 8.98 48.164 0.202 8.06 3.87 11.82
5/12/2021 11:00:00 AM 9.17 48.506 0.203 8.07 4.11 11.86
5/12/2021 11:15:00 AM 9.37 48.866 0.202 8.08 3.96 11.9
5/12/2021 11:30:00 AM 9.59 49.262 0.201 8.09 3.91 11.95
5/12/2021 11:45:00 AM 9.83 49.694 0.203 8.11 4.05 12.01
5/12/2021 12:00:00 PM 10.07 50.126 0.204 8.11 3.84 12.02
5/12/2021 12:15:00 PM 10.31 50.558 0.203 8.13 3.96 12.05
5/12/2021 12:30:00 PM 10.56 51.008 0.202 8.13 4.07 12.09
5/12/2021 12:45:00 PM 10.81 51.458 0.203 8.15 3.78 12.08
5/12/2021 1:00:00 PM 11.08 51.944 0.203 8.16 3.85 12.11
5/12/2021 1:15:00 PM 11.33 52.394 0.203 8.16 3.78 12.11
5/12/2021 1:30:00 PM 11.57 52.826 0.203 8.18 3.63 12.12
5/12/2021 1:45:00 PM 11.77 53.186 0.205 8.18 3.63 12.08
5/12/2021 2:00:00 PM 11.91 53.438 0.203 8.19 3.71 12
5/12/2021 2:15:00 PM 12.11 53.798 0.204 8.19 3.95 11.96
5/12/2021 2:30:00 PM 12.26 54.068 0.202 8.19 4.78 11.91
5/12/2021 2:45:00 PM 12.36 54.248 0.204 8.19 3.91 11.78
5/12/2021 3:00:00 PM 12.54 54.572 0.203 8.19 4.04 11.76
5/12/2021 3:15:00 PM 12.64 54.752 0.203 8.19 3.85 11.69
5/12/2021 3:30:00 PM 12.79 55.022 0.203 8.19 3.86 11.65
5/12/2021 3:45:00 PM 12.96 55.328 0.204 8.19 4.35 11.61
5/12/2021 4:00:00 PM 13.11 55.598 0.202 8.2 3.71 11.58
5/12/2021 4:15:00 PM 13.22 55.796 0.204 8.19 3.8 11.48
5/12/2021 4:30:00 PM 13.27 55.886 0.204 8.19 3.97 11.36
5/12/2021 4:45:00 PM 13.29 55.922 0.203 8.18 4.14 11.25
5/12/2021 5:00:00 PM 13.28 55.904 0.206 8.16 5.2 11.08
5/12/2021 5:15:00 PM 13.27 55.886 0.203 8.15 4.18 11
5/12/2021 5:30:00 PM 13.31 55.958 0.204 8.14 4.13 10.94
5/12/2021 5:45:00 PM 13.29 55.922 0.204 8.14 4.17 10.86
5/12/2021 6:00:00 PM 13.28 55.904 0.204 8.13 4.51 10.72
5/12/2021 6:15:00 PM 13.23 55.814 0.205 8.12 8.1 10.7
5/12/2021 6:30:00 PM 13.16 55.688 0.205 8.11 4.25 10.61
5/12/2021 6:45:00 PM 13.1 55.58 0.206 8.1 4.69 10.51
5/12/2021 7:00:00 PM 13.04 55.472 0.206 8.09 4.29 10.41
5/12/2021 7:15:00 PM 13 55.4 0.206 8.08 4.41 10.34
5/12/2021 7:30:00 PM 12.93 55.274 0.208 8.07 4.76 10.25
5/12/2021 7:45:00 PM 12.86 55.148 0.209 8.06 6.74 10.15
5/12/2021 8:00:00 PM 12.78 55.004 0.207 8.05 4.47 10.05
5/12/2021 8:15:00 PM 12.69 54.842 0.209 8.04 4.46 9.96
5/12/2021 8:30:00 PM 12.62 54.716 0.21 8.03 4.24 9.87
5/12/2021 8:45:00 PM 12.54 54.572 0.211 8.02 4.26 9.78
5/12/2021 9:00:00 PM 12.46 54.428 0.212 8 4.67 9.69
5/12/2021 9:15:00 PM 12.37 54.266 0.212 8 4.48 9.62
5/12/2021 9:30:00 PM 12.27 54.086 0.213 7.99 4.81 9.53
5/12/2021 9:45:00 PM 12.17 53.906 0.213 7.98 4.43 9.47
5/12/2021 10:00:00 PM 12.05 53.69 0.214 7.97 4.54 9.41
5/12/2021 10:15:00 PM 11.94 53.492 0.213 7.97 4.83 9.4
5/12/2021 10:30:00 PM 11.83 53.294 0.214 7.96 4.74 9.37
5/12/2021 10:45:00 PM 11.72 53.096 0.215 7.96 4.76 9.35
5/12/2021 11:00:00 PM 11.6 52.88 0.214 7.95 4.93 9.31
5/12/2021 11:15:00 PM 11.49 52.682 0.215 7.95 5.14 9.3
5/12/2021 11:30:00 PM 11.37 52.466 0.215 7.95 5.36 9.33
5/12/2021 11:45:00 PM 11.26 52.268 0.216 7.95 5.39 9.33
5/13/2021 12:00:00 AM 11.15 52.07 0.216 7.94 5.51 9.34
5/13/2021 12:15:00 AM 11.03 51.854 0.217 7.94 5.1 9.34
5/13/2021 12:30:00 AM 10.91 51.638 0.217 7.94 5.21 9.36
5/13/2021 12:45:00 AM 10.8 51.44 0.218 7.94 5.16 9.4
5/13/2021 1:00:00 AM 10.69 51.242 0.217 7.94 5.08 9.42
5/13/2021 1:15:00 AM 10.58 51.044 0.217 7.94 4.8 9.42
5/13/2021 1:30:00 AM 10.47 50.846 0.218 7.93 4.8 9.44
5/13/2021 1:45:00 AM 10.36 50.648 0.217 7.94 4.47 9.46
5/13/2021 2:00:00 AM 10.26 50.468 0.218 7.93 4.95 9.48
5/13/2021 2:15:00 AM 10.16 50.288 0.218 7.93 4.8 9.51
5/13/2021 2:30:00 AM 10.06 50.108 0.22 7.93 4.91 9.51
5/13/2021 2:45:00 AM 9.96 49.928 0.219 7.93 5.06 9.54
5/13/2021 3:00:00 AM 9.86 49.748 0.22 7.93 4.75 9.57
5/13/2021 3:15:00 AM 9.76 49.568 0.22 7.93 5.02 9.58
5/13/2021 3:30:00 AM 9.66 49.388 0.22 7.93 4.84 9.6
5/13/2021 3:45:00 AM 9.55 49.19 0.221 7.93 5 9.61
5/13/2021 4:00:00 AM 9.45 49.01 0.219 7.93 5.05 9.67
5/13/2021 4:15:00 AM 9.36 48.848 0.221 7.93 4.73 9.7
5/13/2021 4:30:00 AM 9.26 48.668 0.222 7.93 4.79 9.72
5/13/2021 4:45:00 AM 9.17 48.506 0.221 7.94 4.76 9.71
5/13/2021 5:00:00 AM 9.08 48.344 0.221 7.94 4.63 9.75
5/13/2021 5:15:00 AM 8.99 48.182 0.223 7.93 4.64 9.78
5/13/2021 5:30:00 AM 8.9 48.02 0.222 7.93 4.96 9.78
5/13/2021 5:45:00 AM 8.82 47.876 0.222 7.93 5.25 9.79
5/13/2021 6:00:00 AM 8.73 47.714 0.221 7.93 4.54 9.86
5/13/2021 6:15:00 AM 8.66 47.588 0.222 7.93 4.62 9.89
5/13/2021 6:30:00 AM 8.58 47.444 0.222 7.94 5.18 9.92
5/13/2021 6:45:00 AM 8.51 47.318 0.223 7.94 4.25 9.99
5/13/2021 7:00:00 AM 8.47 47.246 0.226 7.94 4.86 10.01
5/13/2021 7:15:00 AM 8.41 47.138 0.223 7.95 4.45 10.11
5/13/2021 7:30:00 AM 8.38 47.084 0.223 7.96 4.09 10.22
5/13/2021 7:45:00 AM 8.35 47.03 0.223 7.96 3.94 10.33
5/13/2021 8:00:00 AM 8.36 47.048 0.224 7.96 4 10.41
5/13/2021 8:15:00 AM 8.37 47.066 0.224 7.97 3.96 10.54
5/13/2021 8:30:00 AM 8.4 47.12 0.224 7.98 4.07 10.66
5/13/2021 8:45:00 AM 8.45 47.21 0.224 7.99 3.64 10.79
5/13/2021 9:00:00 AM 8.52 47.336 0.225 7.99 4.42 10.9
5/13/2021 9:15:00 AM 8.58 47.444 0.224 8.01 3.73 11.08
5/13/2021 9:30:00 AM 8.67 47.606 0.224 8.03 3.94 11.19
5/13/2021 9:45:00 AM 8.81 47.858 0.226 8.03 3.95 11.29
5/13/2021 10:00:00 AM 8.97 48.146 0.225 8.05 3.89 11.44
5/13/2021 10:15:00 AM 9.14 48.452 0.225 8.06 3.66 11.55
5/13/2021 10:30:00 AM 9.32 48.776 0.226 8.08 3.81 11.65
5/13/2021 10:45:00 AM 9.5 49.1 0.226 8.09 3.54 11.7
5/13/2021 11:00:00 AM 9.64 49.352 0.226 8.1 3.58 11.76
5/13/2021 11:15:00 AM 9.77 49.586 0.225 8.11 3.62 11.79
5/13/2021 11:30:00 AM 9.92 49.856 0.225 8.12 3.44 11.85
5/13/2021 11:45:00 AM 10.13 50.234 0.227 8.13 3.42 11.88
5/13/2021 12:00:00 PM 10.37 50.666 0.226 8.14 3.72 11.98
5/13/2021 12:15:00 PM 10.58 51.044 0.227 8.15 3.34 12
5/13/2021 12:30:00 PM 10.79 51.422 0.226 8.16 3.7 12.05
5/13/2021 12:45:00 PM 11 51.8 0.226 8.17 3.2 12.06
5/13/2021 1:00:00 PM 11.11 51.998 0.226 8.17 3.76 12.01
5/13/2021 1:15:00 PM 11.32 52.376 0.226 8.18 3.33 12.02
5/13/2021 1:30:00 PM 11.43 52.574 0.226 8.18 3.52 11.96
5/13/2021 1:45:00 PM 11.72 53.096 0.227 8.2 3.2 12.05
5/13/2021 2:00:00 PM 11.92 53.456 0.226 8.21 3.25 12.01
5/13/2021 2:15:00 PM 12.08 53.744 0.228 8.21 3.53 12.01
5/13/2021 2:30:00 PM 12.25 54.05 0.227 8.22 3.33 12.03
5/13/2021 2:45:00 PM 12.45 54.41 0.228 8.23 3.32 11.85
5/13/2021 3:00:00 PM 12.63 54.734 0.228 8.24 3.63 11.98
5/13/2021 3:15:00 PM 12.87 55.166 0.228 8.25 3.48 11.99
5/13/2021 3:30:00 PM 12.92 55.256 0.231 8.24 3.5 11.89
5/13/2021 3:45:00 PM 13.19 55.742 0.228 8.26 3.48 11.95
5/13/2021 4:00:00 PM 13.43 56.174 0.227 8.28 3.48 11.97
5/13/2021 4:15:00 PM 13.61 56.498 0.23 8.28 3.35 11.91
5/13/2021 4:30:00 PM 13.77 56.786 0.228 8.28 3.25 11.86
5/13/2021 4:45:00 PM 13.86 56.948 0.228 8.28 3.7 11.76
5/13/2021 5:00:00 PM 13.93 57.074 0.228 8.27 3.41 11.66
5/13/2021 5:15:00 PM 13.94 57.092 0.227 8.26 3.65 11.55
5/13/2021 5:30:00 PM 13.97 57.146 0.228 8.25 3.46 11.42
5/13/2021 5:45:00 PM 13.97 57.146 0.228 8.23 3.38 11.27
5/13/2021 6:00:00 PM 14.04 57.272 0.228 8.23 3.33 11.14
5/13/2021 6:15:00 PM 14.08 57.344 0.23 8.21 3.59 10.97
5/13/2021 6:30:00 PM 14.13 57.434 0.227 8.2 3.66 10.94
5/13/2021 6:45:00 PM 14.13 57.434 0.229 8.19 3.5 10.73
5/13/2021 7:00:00 PM 14.1 57.38 0.23 8.17 3.87 10.6
5/13/2021 7:15:00 PM 14.07 57.326 0.232 8.15 3.93 10.42
5/13/2021 7:30:00 PM 14.05 57.29 0.231 8.14 3.78 10.24
5/13/2021 7:45:00 PM 14.01 57.218 0.23 8.12 5.01 10.16
5/13/2021 8:00:00 PM 13.93 57.074 0.234 8.11 3.65 9.95
5/13/2021 8:15:00 PM 13.89 57.002 0.232 8.09 3.71 9.88
5/13/2021 8:30:00 PM 13.79 56.822 0.233 8.07 3.73 9.69
5/13/2021 8:45:00 PM 13.74 56.732 0.232 8.06 3.81 9.6
5/13/2021 9:00:00 PM 13.63 56.534 0.235 8.04 4.18 9.41
5/13/2021 9:15:00 PM 13.56 56.408 0.234 8.03 3.74 9.37
5/13/2021 9:30:00 PM 13.46 56.228 0.234 8.02 3.82 9.27
5/13/2021 9:45:00 PM 13.35 56.03 0.236 8.01 3.9 9.19
5/13/2021 10:00:00 PM 13.22 55.796 0.238 8 4.03 9.06
5/13/2021 10:15:00 PM 13.12 55.616 0.237 7.99 3.94 9.03
5/13/2021 10:30:00 PM 13.01 55.418 0.237 7.99 4.29 8.98
5/13/2021 10:45:00 PM 12.89 55.202 0.238 7.98 4.13 8.92
5/13/2021 11:00:00 PM 12.79 55.022 0.237 7.97 4.07 8.91
5/13/2021 11:15:00 PM 12.68 54.824 0.239 7.97 4.02 8.89
5/13/2021 11:30:00 PM 12.58 54.644 0.238 7.96 3.89 8.89
5/13/2021 11:45:00 PM 12.46 54.428 0.24 7.96 4.37 8.86
5/14/2021 12:00:00 AM 12.37 54.266 0.238 7.96 3.95 8.87
5/14/2021 12:15:00 AM 12.26 54.068 0.24 7.96 4.03 8.85
5/14/2021 12:30:00 AM 12.16 53.888 0.24 7.96 4.48 8.86
5/14/2021 12:45:00 AM 12.05 53.69 0.24 7.96 4.26 8.89
5/14/2021 1:00:00 AM 11.93 53.474 0.24 7.95 4.05 8.91
5/14/2021 1:15:00 AM 11.82 53.276 0.241 7.95 4.19 8.93
5/14/2021 1:30:00 AM 11.69 53.042 0.243 7.95 4.22 8.94
5/14/2021 1:45:00 AM 11.59 52.862 0.242 7.95 4.27 8.97
5/14/2021 2:00:00 AM 11.48 52.664 0.242 7.95 3.98 8.98
5/14/2021 2:15:00 AM 11.39 52.502 0.242 7.95 4.22 9
5/14/2021 2:30:00 AM 11.28 52.304 0.242 7.95 4.84 9.01
5/14/2021 2:45:00 AM 11.18 52.124 0.242 7.95 4.22 9.03
5/14/2021 3:00:00 AM 11.08 51.944 0.241 7.95 4.43 9.06
5/14/2021 3:15:00 AM 10.98 51.764 0.242 7.95 4.63 9.08
5/14/2021 3:30:00 AM 10.87 51.566 0.242 7.95 4.93 9.1
5/14/2021 3:45:00 AM 10.77 51.386 0.242 7.95 4.63 9.15
5/14/2021 4:00:00 AM 10.66 51.188 0.243 7.95 4.04 9.15
5/14/2021 4:15:00 AM 10.55 50.99 0.244 7.95 4.43 9.18
5/14/2021 4:30:00 AM 10.44 50.792 0.243 7.95 4.09 9.22
5/14/2021 4:45:00 AM 10.33 50.594 0.243 7.95 4.48 9.25
5/14/2021 5:00:00 AM 10.23 50.414 0.242 7.95 4.98 9.28
5/14/2021 5:15:00 AM 10.12 50.216 0.244 7.95 5.18 9.28
5/14/2021 5:30:00 AM 10.02 50.036 0.243 7.95 5.6 9.27
5/14/2021 5:45:00 AM 9.92 49.856 0.244 7.95 5.58 9.36
5/14/2021 6:00:00 AM 9.84 49.712 0.244 7.95 5.54 9.37
5/14/2021 6:15:00 AM 9.75 49.55 0.245 7.95 5.04 9.42
5/14/2021 6:30:00 AM 9.67 49.406 0.245 7.96 4.94 9.46
5/14/2021 6:45:00 AM 9.6 49.28 0.247 7.96 4.9 9.53
5/14/2021 7:00:00 AM 9.53 49.154 0.245 7.96 4.5 9.58
5/14/2021 7:15:00 AM 9.47 49.046 0.245 7.97 4.5 9.71
5/14/2021 7:30:00 AM 9.44 48.992 0.244 7.97 4.23 9.83
5/14/2021 7:45:00 AM 9.41 48.938 0.245 7.98 3.82 9.92
5/14/2021 8:00:00 AM 9.4 48.92 0.247 7.99 3.79 10.02
5/14/2021 8:15:00 AM 9.41 48.938 0.245 8 3.81 10.17
5/14/2021 8:30:00 AM 9.44 48.992 0.246 8.01 3.75 10.33
5/14/2021 8:45:00 AM 9.48 49.064 0.247 8.01 3.54 10.45
5/14/2021 9:00:00 AM 9.55 49.19 0.248 8.02 3.57 10.59
5/14/2021 9:15:00 AM 9.63 49.334 0.246 8.04 3.74 10.74
5/14/2021 9:30:00 AM 9.72 49.496 0.247 8.05 3.66 10.86
5/14/2021 9:45:00 AM 9.85 49.73 0.248 8.06 3.6 11.02
5/14/2021 10:00:00 AM 10 50 0.248 8.07 4.09 11.15
5/14/2021 10:15:00 AM 10.18 50.324 0.248 8.09 3.65 11.3
5/14/2021 10:30:00 AM 10.37 50.666 0.248 8.1 3.84 11.41
5/14/2021 10:45:00 AM 10.57 51.026 0.247 8.12 3.51 11.53
5/14/2021 11:00:00 AM 10.76 51.368 0.249 8.13 4.83 11.62
5/14/2021 11:15:00 AM 10.97 51.746 0.248 8.15 4.07 11.69
5/14/2021 11:30:00 AM 11.19 52.142 0.248 8.16 3.97 11.81
5/14/2021 11:45:00 AM 11.42 52.556 0.249 8.17 4.26 11.89
5/14/2021 12:00:00 PM 11.65 52.97 0.248 8.19 3.58 11.94
5/14/2021 12:15:00 PM 11.89 53.402 0.248 8.2 3.33 12
5/14/2021 12:30:00 PM 12.15 53.87 0.248 8.22 3.42 12.08
5/14/2021 12:45:00 PM 12.38 54.284 0.249 8.23 3.29 12.13
5/14/2021 1:00:00 PM 12.49 54.482 0.25 8.23 3.35 12.08
5/14/2021 1:15:00 PM 12.56 54.608 0.248 8.24 3.35 12.02
5/14/2021 1:30:00 PM 12.73 54.914 0.248 8.25 3.47 12.08
5/14/2021 1:45:00 PM 12.94 55.292 0.25 8.26 3.59 12.11
5/14/2021 2:00:00 PM 13.05 55.49 0.25 8.27 3.24 12.09
5/14/2021 2:15:00 PM 13.21 55.778 0.25 8.27 3.05 12.04
5/14/2021 2:30:00 PM 13.42 56.156 0.249 8.29 3.38 12.08
5/14/2021 2:45:00 PM 13.65 56.57 0.248 8.3 3.36 12.1
5/14/2021 3:00:00 PM 13.77 56.786 0.25 8.29 3.41 11.99
5/14/2021 3:15:00 PM 13.78 56.804 0.251 8.28 3.45 11.79
5/14/2021 3:30:00 PM 13.82 56.876 0.251 8.27 3.43 11.7
5/14/2021 3:45:00 PM 13.78 56.804 0.251 8.27 4.24 11.45
5/14/2021 4:00:00 PM 13.8 56.84 0.252 8.27 3.3 11.5
5/14/2021 4:15:00 PM 13.82 56.876 0.252 8.25 3.54 11.36
5/14/2021 4:30:00 PM 13.87 56.966 0.253 8.25 3.34 11.23
5/14/2021 4:45:00 PM 14.01 57.218 0.254 8.25 3.33 11.07
5/14/2021 5:00:00 PM 14.06 57.308 0.253 8.25 3.31 11.13
5/14/2021 5:15:00 PM 14.07 57.326 0.255 8.23 4.24 11.03
5/14/2021 5:30:00 PM 14.16 57.488 0.256 8.22 3.23 10.85
5/14/2021 5:45:00 PM 14.24 57.632 0.255 8.21 3.5 10.76
5/14/2021 6:00:00 PM 14.3 57.74 0.253 8.21 3.34 10.68
5/14/2021 6:15:00 PM 14.34 57.812 0.253 8.2 3.69 10.61
5/14/2021 6:30:00 PM 14.38 57.884 0.251 8.19 3.63 10.58
5/14/2021 6:45:00 PM 14.38 57.884 0.252 8.18 3.48 10.45
5/14/2021 7:00:00 PM 14.37 57.866 0.253 8.17 3.48 10.27
5/14/2021 7:15:00 PM 14.37 57.866 0.251 8.16 3.5 10.24
5/14/2021 7:30:00 PM 14.35 57.83 0.251 8.15 3.48 10.12
5/14/2021 7:45:00 PM 14.32 57.776 0.25 8.13 3.72 9.99
5/14/2021 8:00:00 PM 14.26 57.668 0.252 8.11 3.68 9.84
5/14/2021 8:15:00 PM 14.22 57.596 0.25 8.1 3.92 9.73
5/14/2021 8:30:00 PM 14.15 57.47 0.25 8.09 3.64 9.56
5/14/2021 8:45:00 PM 14.1 57.38 0.251 8.07 3.84 9.46
5/14/2021 9:00:00 PM 14.04 57.272 0.252 8.06 3.8 9.32
5/14/2021 9:15:00 PM 13.96 57.128 0.254 8.05 3.77 9.17
5/14/2021 9:30:00 PM 13.9 57.02 0.254 8.03 3.7 9.06
5/14/2021 9:45:00 PM 13.82 56.876 0.257 8.03 3.51 8.97
5/14/2021 10:00:00 PM 13.75 56.75 0.256 8.02 3.83 8.9
5/14/2021 10:15:00 PM 13.66 56.588 0.257 8.01 4.03 8.81
5/14/2021 10:30:00 PM 13.58 56.444 0.257 8 3.89 8.76
5/14/2021 10:45:00 PM 13.48 56.264 0.258 7.99 4.22 8.71
5/14/2021 11:00:00 PM 13.38 56.084 0.26 7.99 3.85 8.66
5/14/2021 11:15:00 PM 13.3 55.94 0.26 7.99 3.81 8.59
5/14/2021 11:30:00 PM 13.21 55.778 0.259 7.98 3.75 8.59
5/14/2021 11:45:00 PM 13.11 55.598 0.259 7.98 3.75 8.56
5/15/2021 12:00:00 AM 13.02 55.436 0.26 7.97 3.89 8.55
5/15/2021 12:15:00 AM 12.94 55.292 0.258 7.97 3.94 8.56
5/15/2021 12:30:00 AM 12.84 55.112 0.259 7.97 4.05 8.55
5/15/2021 12:45:00 AM 12.76 54.968 0.259 7.97 4.41 8.56
5/15/2021 1:00:00 AM 12.66 54.788 0.26 7.96 3.92 8.55
5/15/2021 1:15:00 AM 12.58 54.644 0.26 7.97 3.84 8.6
5/15/2021 1:30:00 AM 12.49 54.482 0.26 7.96 4.22 8.61
5/15/2021 1:45:00 AM 12.38 54.284 0.261 7.96 4.15 8.6
5/15/2021 2:00:00 AM 12.27 54.086 0.264 7.96 4.09 8.63
5/15/2021 2:15:00 AM 12.17 53.906 0.264 7.96 4.02 8.63
5/15/2021 2:30:00 AM 12.08 53.744 0.264 7.96 4.36 8.65
5/15/2021 2:45:00 AM 11.99 53.582 0.264 7.96 4.3 8.67
5/15/2021 3:00:00 AM 11.9 53.42 0.262 7.96 4.52 8.71
5/15/2021 3:15:00 AM 11.79 53.222 0.267 7.96 4.27 8.7
5/15/2021 3:30:00 AM 11.7 53.06 0.265 7.96 4.61 8.7
5/15/2021 3:45:00 AM 11.62 52.916 0.265 7.96 4.19 8.73
5/15/2021 4:00:00 AM 11.52 52.736 0.265 7.96 4.69 8.76
5/15/2021 4:15:00 AM 11.43 52.574 0.267 7.96 4.62 8.76
5/15/2021 4:30:00 AM 11.35 52.43 0.267 7.96 4.4 8.77
5/15/2021 4:45:00 AM 11.26 52.268 0.267 7.96 4.34 8.75
5/15/2021 5:00:00 AM 11.17 52.106 0.269 7.96 6.61 8.82
5/15/2021 5:15:00 AM 11.09 51.962 0.267 7.96 4.59 8.81
5/15/2021 5:30:00 AM 11 51.8 0.268 7.96 4.48 8.85
5/15/2021 5:45:00 AM 10.9 51.62 0.27 7.96 4.65 8.81
5/15/2021 6:00:00 AM 10.82 51.476 0.267 7.96 4.32 8.87
5/15/2021 6:15:00 AM 10.74 51.332 0.267 7.97 4.38 8.95
5/15/2021 6:30:00 AM 10.66 51.188 0.267 7.97 4.33 9.05
5/15/2021 6:45:00 AM 10.58 51.044 0.267 7.97 4.73 9.09
5/15/2021 7:00:00 AM 10.52 50.936 0.266 7.98 4.04 9.17
5/15/2021 7:15:00 AM 10.47 50.846 0.267 7.98 3.87 9.26
5/15/2021 7:30:00 AM 10.45 50.81 0.266 7.99 9.3 9.44
5/15/2021 7:45:00 AM 10.43 50.774 0.269 8 3.75 9.56
5/15/2021 8:00:00 AM 10.43 50.774 0.269 8.01 3.64 9.61
5/15/2021 8:15:00 AM 10.45 50.81 0.268 8.02 3.85 9.77
5/15/2021 8:30:00 AM 10.47 50.846 0.267 8.03 3.42 9.97
5/15/2021 8:45:00 AM 10.48 50.864 0.268 8.04 3.46 10.13
5/15/2021 9:00:00 AM 10.53 50.954 0.268 8.05 3.59 10.28
5/15/2021 9:15:00 AM 10.62 51.116 0.267 8.06 3.9 10.47
5/15/2021 9:30:00 AM 10.7 51.26 0.268 8.07 3.66 10.56
5/15/2021 9:45:00 AM 10.83 51.494 0.267 8.08 4.5 10.74
5/15/2021 10:00:00 AM 10.97 51.746 0.268 8.09 3.57 10.86
5/15/2021 10:15:00 AM 11.14 52.052 0.268 8.12 3.55 11.08
5/15/2021 10:30:00 AM 11.32 52.376 0.269 8.13 4.05 11.23
5/15/2021 10:45:00 AM 11.52 52.736 0.27 8.15 3.49 11.36
5/15/2021 11:00:00 AM 11.7 53.06 0.271 8.16 3.56 11.47
5/15/2021 11:15:00 AM 11.91 53.438 0.269 8.18 3.51 11.58
5/15/2021 11:30:00 AM 12.13 53.834 0.269 8.19 3.41 11.65
5/15/2021 11:45:00 AM 12.34 54.212 0.268 8.21 3.57 11.78
5/15/2021 12:00:00 PM 12.62 54.716 0.269 8.22 3.42 11.89
5/15/2021 12:15:00 PM 12.73 54.914 0.271 8.23 3.54 11.86
5/15/2021 12:30:00 PM 12.82 55.076 0.27 8.23 3.71 11.78
5/15/2021 12:45:00 PM 12.89 55.202 0.27 8.24 3.57 11.73
5/15/2021 1:00:00 PM 12.97 55.346 0.269 8.25 3.83 11.76
5/15/2021 1:15:00 PM 13.08 55.544 0.269 8.26 3.62 11.84
5/15/2021 1:30:00 PM 13.17 55.706 0.271 8.26 3.67 11.82
5/15/2021 1:45:00 PM 13.32 55.976 0.27 8.28 3.9 11.84
5/15/2021 2:00:00 PM 13.38 56.084 0.274 8.28 3.62 11.83
5/15/2021 2:15:00 PM 13.44 56.192 0.272 8.28 3.44 11.74
5/15/2021 2:30:00 PM 13.54 56.372 0.27 8.3 3.23 11.79
5/15/2021 2:45:00 PM 13.59 56.462 0.273 8.3 3.34 11.77
5/15/2021 3:00:00 PM 13.66 56.588 0.273 8.3 3.52 11.74
5/15/2021 3:15:00 PM 13.69 56.642 0.273 8.3 3.49 11.71
5/15/2021 3:30:00 PM 13.9 57.02 0.274 8.32 3.1 11.84
5/15/2021 3:45:00 PM 13.97 57.146 0.277 8.32 3.33 11.79
5/15/2021 4:00:00 PM 14.1 57.38 0.273 8.33 3.3 11.78
5/15/2021 4:15:00 PM 14.19 57.542 0.274 8.33 3.13 11.73
5/15/2021 4:30:00 PM 14.32 57.776 0.274 8.33 3.23 11.67
5/15/2021 4:45:00 PM 14.43 57.974 0.273 8.34 3.07 11.71
5/15/2021 5:00:00 PM 14.56 58.208 0.273 8.34 3.49 11.66
5/15/2021 5:15:00 PM 14.57 58.226 0.276 8.33 3.75 11.55
5/15/2021 5:30:00 PM 14.7 58.46 0.274 8.33 3.22 11.56
5/15/2021 5:45:00 PM 14.76 58.568 0.275 8.33 3.2 11.48
5/15/2021 6:00:00 PM 14.8 58.64 0.275 8.33 3.21 11.39
5/15/2021 6:15:00 PM 14.86 58.748 0.275 8.32 3.23 11.3
5/15/2021 6:30:00 PM 14.86 58.748 0.276 8.31 3.15 11.16
5/15/2021 6:45:00 PM 14.87 58.766 0.274 8.29 3.13 11.05
5/15/2021 7:00:00 PM 14.82 58.676 0.276 8.27 3.31 10.86
5/15/2021 7:15:00 PM 14.82 58.676 0.275 8.25 3.72 10.7
5/15/2021 7:30:00 PM 14.76 58.568 0.276 8.23 3.76 10.46
5/15/2021 7:45:00 PM 14.73 58.514 0.276 8.21 3.39 10.29
5/15/2021 8:00:00 PM 14.7 58.46 0.275 8.2 3.62 10.12
5/15/2021 8:15:00 PM 14.65 58.37 0.276 8.17 3.48 9.86
5/15/2021 8:30:00 PM 14.6 58.28 0.277 8.15 3.63 9.69
5/15/2021 8:45:00 PM 14.57 58.226 0.276 8.13 3.59 9.52
5/15/2021 9:00:00 PM 14.53 58.154 0.278 8.11 3.58 9.34
5/15/2021 9:15:00 PM 14.49 58.082 0.276 8.09 3.74 9.18
5/15/2021 9:30:00 PM 14.43 57.974 0.277 8.08 3.66 9.04
5/15/2021 9:45:00 PM 14.35 57.83 0.279 8.06 3.95 8.9
5/15/2021 10:00:00 PM 14.3 57.74 0.278 8.05 4.1 8.81
5/15/2021 10:15:00 PM 14.21 57.578 0.28 8.04 3.85 8.71
5/15/2021 10:30:00 PM 14.13 57.434 0.28 8.04 3.9 8.63
5/15/2021 10:45:00 PM 14.05 57.29 0.28 8.03 4.02 8.55
5/15/2021 11:00:00 PM 13.95 57.11 0.281 8.02 4.12 8.46
5/15/2021 11:15:00 PM 13.87 56.966 0.28 8.01 3.74 8.42
5/15/2021 11:30:00 PM 13.78 56.804 0.282 8.01 4.42 8.38
5/15/2021 11:45:00 PM 13.71 56.678 0.282 8 4.31 8.33
5/16/2021 12:00:00 AM 13.63 56.534 0.282 8 3.8 8.31
5/16/2021 12:15:00 AM 13.55 56.39 0.284 7.99 3.4 8.3
5/16/2021 12:30:00 AM 13.48 56.264 0.283 7.99 3.67 8.28
5/16/2021 12:45:00 AM 13.4 56.12 0.282 7.99 4.54 8.28
5/16/2021 1:00:00 AM 13.32 55.976 0.283 7.99 3.87 8.29
5/16/2021 1:15:00 AM 13.23 55.814 0.282 7.98 4.14 8.26
5/16/2021 1:30:00 AM 13.15 55.67 0.282 7.98 3.64 8.28
5/16/2021 1:45:00 AM 13.07 55.526 0.282 7.98 3.99 8.28
5/16/2021 2:00:00 AM 12.98 55.364 0.282 7.98 4.2 8.31
5/16/2021 2:15:00 AM 12.89 55.202 0.283 7.98 3.81 8.31
5/16/2021 2:30:00 AM 12.8 55.04 0.283 7.98 4 8.34
5/16/2021 2:45:00 AM 12.7 54.86 0.285 7.98 3.86 8.35
5/16/2021 3:00:00 AM 12.6 54.68 0.286 7.98 3.91 8.35
5/16/2021 3:15:00 AM 12.53 54.554 0.284 7.98 4.08 8.38
5/16/2021 3:30:00 AM 12.44 54.392 0.284 7.98 3.95 8.38
5/16/2021 3:45:00 AM 12.36 54.248 0.284 7.98 4.08 8.43
5/16/2021 4:00:00 AM 12.25 54.05 0.286 7.98 5.31 8.43
5/16/2021 4:15:00 AM 12.18 53.924 0.285 7.98 3.85 8.47
5/16/2021 4:30:00 AM 12.09 53.762 0.286 7.98 3.98 8.48
5/16/2021 4:45:00 AM 12 53.6 0.285 7.98 4.41 8.5
5/16/2021 5:00:00 AM 11.92 53.456 0.286 7.98 4.17 8.53
5/16/2021 5:15:00 AM 11.82 53.276 0.287 7.98 3.85 8.55
5/16/2021 5:30:00 AM 11.73 53.114 0.288 7.98 3.6 8.57
5/16/2021 5:45:00 AM 11.65 52.97 0.287 7.98 4.96 8.59
5/16/2021 6:00:00 AM 11.56 52.808 0.287 7.98 3.9 8.61
5/16/2021 6:15:00 AM 11.48 52.664 0.287 7.99 4.75 8.67
5/16/2021 6:30:00 AM 11.4 52.52 0.286 7.99 4.43 8.71
5/16/2021 6:45:00 AM 11.33 52.394 0.286 7.99 3.99 8.78
5/16/2021 7:00:00 AM 11.26 52.268 0.286 8 3.72 8.87
5/16/2021 7:15:00 AM 11.21 52.178 0.287 8 3.75 9
5/16/2021 7:30:00 AM 11.18 52.124 0.287 8.01 3.67 9.12
5/16/2021 7:45:00 AM 11.16 52.088 0.288 8.02 3.55 9.28
5/16/2021 8:00:00 AM 11.16 52.088 0.287 8.03 3.76 9.45
5/16/2021 8:15:00 AM 11.18 52.124 0.288 8.04 3.71 9.62
5/16/2021 8:30:00 AM 11.22 52.196 0.288 8.05 3.24 9.82
5/16/2021 8:45:00 AM 11.27 52.286 0.287 8.07 3.46 10.03
5/16/2021 9:00:00 AM 11.32 52.376 0.289 8.07 3.36 10.21
5/16/2021 9:15:00 AM 11.37 52.466 0.288 8.09 3.28 10.38
5/16/2021 9:30:00 AM 11.41 52.538 0.287 8.1 3.36 10.52
5/16/2021 9:45:00 AM 11.47 52.646 0.289 8.12 3.27 10.69
5/16/2021 10:00:00 AM 11.54 52.772 0.288 8.13 3.27 10.84
5/16/2021 10:15:00 AM 11.64 52.952 0.289 8.15 3.34 11.04
5/16/2021 10:30:00 AM 11.71 53.078 0.289 8.16 3.46 11.14
5/16/2021 10:45:00 AM 11.77 53.186 0.288 8.17 3.29 11.16
5/16/2021 11:00:00 AM 11.87 53.366 0.29 8.18 3.3 11.31
5/16/2021 11:15:00 AM 11.98 53.564 0.289 8.2 3.34 11.47
5/16/2021 11:30:00 AM 12.08 53.744 0.289 8.22 3.36 11.52
5/16/2021 11:45:00 AM 12.18 53.924 0.29 8.23 3.31 11.64
5/16/2021 12:00:00 PM 12.28 54.104 0.29 8.24 3.24 11.68
5/16/2021 12:15:00 PM 12.4 54.32 0.29 8.26 3.22 11.8
5/16/2021 12:30:00 PM 12.54 54.572 0.29 8.27 3.45 11.88
5/16/2021 12:45:00 PM 12.7 54.86 0.289 8.29 3.12 11.98
5/16/2021 1:00:00 PM 12.84 55.112 0.291 8.3 3.68 12.06
5/16/2021 1:15:00 PM 12.94 55.292 0.291 8.31 3.08 12.09
5/16/2021 1:30:00 PM 13.04 55.472 0.289 8.32 3.46 12.1
5/16/2021 1:45:00 PM 13.16 55.688 0.29 8.34 3.21 12.19
5/16/2021 2:00:00 PM 13.31 55.958 0.29 8.35 3.18 12.25
5/16/2021 2:15:00 PM 13.5 56.3 0.29 8.36 4.54 12.31
5/16/2021 2:30:00 PM 13.66 56.588 0.29 8.37 3.32 12.35
5/16/2021 2:45:00 PM 13.81 56.858 0.291 8.38 3.25 12.37
5/16/2021 3:00:00 PM 14.03 57.254 0.29 8.39 3.32 12.42
5/16/2021 3:15:00 PM 14.12 57.416 0.29 8.4 3.27 12.35
5/16/2021 3:30:00 PM 14.31 57.758 0.29 8.41 3.22 12.41
5/16/2021 3:45:00 PM 14.41 57.938 0.291 8.41 3.2 12.31
5/16/2021 4:00:00 PM 14.46 58.028 0.292 8.39 3.35 12.1
5/16/2021 4:15:00 PM 14.66 58.388 0.291 8.4 3.05 12.16
5/16/2021 4:30:00 PM 14.78 58.604 0.292 8.41 3.01 12.16
5/16/2021 4:45:00 PM 14.83 58.694 0.293 8.41 3.31 12.08
5/16/2021 5:00:00 PM 14.96 58.928 0.293 8.41 3.18 12.04
5/16/2021 5:15:00 PM 15.06 59.108 0.292 8.41 3.02 11.91
5/16/2021 5:30:00 PM 15.15 59.27 0.294 8.4 3.28 11.82
5/16/2021 5:45:00 PM 15.22 59.396 0.294 8.39 3.4 11.7
5/16/2021 6:00:00 PM 15.26 59.468 0.294 8.38 3.04 11.51
5/16/2021 6:15:00 PM 15.28 59.504 0.294 8.36 3.35 11.27
5/16/2021 6:30:00 PM 15.26 59.468 0.294 8.33 3.2 10.95
5/16/2021 6:45:00 PM 15.2 59.36 0.296 8.3 3.17 10.69
5/16/2021 7:00:00 PM 15.17 59.306 0.294 8.28 3.31 10.44
5/16/2021 7:15:00 PM 15.11 59.198 0.296 8.26 3.29 10.3
5/16/2021 7:30:00 PM 15.03 59.054 0.296 8.24 3.31 10.1
5/16/2021 7:45:00 PM 14.94 58.892 0.297 8.21 3.15 9.86
5/16/2021 8:00:00 PM 14.88 58.784 0.297 8.19 3.18 9.73
5/16/2021 8:15:00 PM 14.84 58.712 0.296 8.17 3.23 9.56
5/16/2021 8:30:00 PM 14.78 58.604 0.296 8.16 3.03 9.37
5/16/2021 8:45:00 PM 14.71 58.478 0.297 8.14 3.48 9.2
5/16/2021 9:00:00 PM 14.71 58.478 0.296 8.12 3.68 9.06
5/16/2021 9:15:00 PM 14.63 58.334 0.297 8.11 3.33 8.92
5/16/2021 9:30:00 PM 14.61 58.298 0.295 8.1 3.4 8.8
5/16/2021 9:45:00 PM 14.53 58.154 0.297 8.08 3.29 8.65
5/16/2021 10:00:00 PM 14.48 58.064 0.298 8.07 3.21 8.53
5/16/2021 10:15:00 PM 14.43 57.974 0.298 8.06 3.39 8.47
5/16/2021 10:30:00 PM 14.35 57.83 0.299 8.06 3.49 8.38
5/16/2021 10:45:00 PM 14.27 57.686 0.299 8.05 3.23 8.32
5/16/2021 11:00:00 PM 14.16 57.488 0.301 8.04 3.42 8.25
5/16/2021 11:15:00 PM 14.09 57.362 0.299 8.04 3.61 8.21
5/16/2021 11:30:00 PM 13.99 57.182 0.299 8.03 3.46 8.18
5/16/2021 11:45:00 PM 13.91 57.038 0.299 8.03 3.85 8.14
5/17/2021 12:00:00 AM 13.82 56.876 0.299 8.02 5.86 8.14
5/17/2021 12:15:00 AM 13.73 56.714 0.299 8.02 3.76 8.1
5/17/2021 12:30:00 AM 13.67 56.606 0.299 8.01 3.88 8.08
5/17/2021 12:45:00 AM 13.59 56.462 0.302 8.01 4.21 8.08
5/17/2021 1:00:00 AM 13.53 56.354 0.3 8.01 5.2 8.07
5/17/2021 1:15:00 AM 13.45 56.21 0.3 8.01 3.51 8.08
5/17/2021 1:30:00 AM 13.38 56.084 0.301 8.01 3.48 8.09
5/17/2021 1:45:00 AM 13.32 55.976 0.298 8.01 4.23 8.11
5/17/2021 2:00:00 AM 13.24 55.832 0.298 8.01 3.54 8.14
5/17/2021 2:15:00 AM 13.16 55.688 0.299 8 3.76 8.15
5/17/2021 2:30:00 AM 13.09 55.562 0.3 8 3.68 8.14
5/17/2021 2:45:00 AM 13 55.4 0.302 8 3.7 8.16
5/17/2021 3:00:00 AM 12.95 55.31 0.301 8 3.72 8.18
5/17/2021 3:15:00 AM 12.89 55.202 0.301 8.01 3.79 8.19
5/17/2021 3:30:00 AM 12.81 55.058 0.302 8 4.04 8.19
5/17/2021 3:45:00 AM 12.77 54.986 0.302 8.01 3.45 8.16
5/17/2021 4:00:00 AM 12.7 54.86 0.303 8.01 3.76 8.23
5/17/2021 4:15:00 AM 12.64 54.752 0.304 8.01 4 8.25
5/17/2021 4:30:00 AM 12.57 54.626 0.304 8.01 4.07 8.24
5/17/2021 4:45:00 AM 12.5 54.5 0.305 8.01 3.84 8.25
5/17/2021 5:00:00 AM 12.43 54.374 0.305 8.01 4.15 8.28
5/17/2021 5:15:00 AM 12.35 54.23 0.305 8.01 3.84 8.3
5/17/2021 5:30:00 AM 12.28 54.104 0.305 8.01 3.65 8.33
5/17/2021 5:45:00 AM 12.2 53.96 0.305 8 4.14 8.32
5/17/2021 6:00:00 AM 12.12 53.816 0.307 8 4.44 8.29
5/17/2021 6:15:00 AM 12.04 53.672 0.308 8.01 5.1 8.29
5/17/2021 6:30:00 AM 11.98 53.564 0.309 8.01 3.96 8.39
5/17/2021 6:45:00 AM 11.93 53.474 0.307 8.01 3.58 8.49
5/17/2021 7:00:00 AM 11.88 53.384 0.307 8.01 4.86 8.57
5/17/2021 7:15:00 AM 11.84 53.312 0.309 8.02 3.47 8.7
5/17/2021 7:30:00 AM 11.81 53.258 0.307 8.03 3.71 8.83
5/17/2021 7:45:00 AM 11.79 53.222 0.307 8.03 3.67 8.93
5/17/2021 8:00:00 AM 11.79 53.222 0.309 8.04 4.06 9.08
5/17/2021 8:15:00 AM 11.8 53.24 0.307 8.05 3.75 9.23
5/17/2021 8:30:00 AM 11.84 53.312 0.308 8.06 3.47 9.38
5/17/2021 8:45:00 AM 11.89 53.402 0.306 8.07 5.25 9.56
5/17/2021 9:00:00 AM 11.95 53.51 0.308 8.08 4.61 9.71
5/17/2021 9:15:00 AM 12.01 53.618 0.308 8.09 3.63 9.89
5/17/2021 9:30:00 AM 12.11 53.798 0.308 8.1 4.86 10.05
5/17/2021 9:45:00 AM 12.22 53.996 0.31 8.12 3.32 10.26
5/17/2021 10:00:00 AM 12.36 54.248 0.307 8.13 3.26 10.44
5/17/2021 10:15:00 AM 12.5 54.5 0.308 8.14 3.31 10.59
5/17/2021 10:30:00 AM 12.67 54.806 0.308 8.16 3.16 10.77
5/17/2021 10:45:00 AM 12.85 55.13 0.307 8.17 3.26 10.92
5/17/2021 11:00:00 AM 13.05 55.49 0.308 8.19 3.14 11.12
5/17/2021 11:15:00 AM 13.24 55.832 0.308 8.2 3.3 11.22
5/17/2021 11:30:00 AM 13.45 56.21 0.307 8.22 3.36 11.37
5/17/2021 11:45:00 AM 13.66 56.588 0.31 8.23 3.03 11.45
5/17/2021 12:00:00 PM 13.89 57.002 0.309 8.24 3.17 11.54
5/17/2021 12:15:00 PM 14.17 57.506 0.311 8.26 3.61 11.65
5/17/2021 12:30:00 PM 14.39 57.902 0.309 8.27 3.05 11.68
5/17/2021 12:45:00 PM 14.74 58.532 0.308 8.3 3.28 11.87
5/17/2021 1:00:00 PM 14.92 58.856 0.311 8.3 3.18 11.83
5/17/2021 1:15:00 PM 15.16 59.288 0.31 8.32 3.2 11.97
5/17/2021 1:30:00 PM 15.3 59.54 0.31 8.32 2.98 11.9
5/17/2021 1:45:00 PM 15.4 59.72 0.311 8.32 3.16 11.81
5/17/2021 2:00:00 PM 15.42 59.756 0.309 8.32 3.1 11.63
5/17/2021 2:15:00 PM 15.67 60.206 0.31 8.34 2.95 11.79
5/17/2021 2:30:00 PM 15.81 60.458 0.312 8.33 3 11.79
5/17/2021 2:45:00 PM 15.88 60.584 0.311 8.32 3.14 11.66
5/17/2021 3:00:00 PM 16.07 60.926 0.31 8.34 2.95 11.64
5/17/2021 3:15:00 PM 16.18 61.124 0.309 8.35 3.03 11.66
5/17/2021 3:30:00 PM 16.22 61.196 0.311 8.34 2.91 11.55
5/17/2021 3:45:00 PM 16.47 61.646 0.309 8.36 2.9 11.63
5/17/2021 4:00:00 PM 16.6 61.88 0.31 8.36 3.05 11.62
5/17/2021 4:15:00 PM 16.59 61.862 0.31 8.35 2.88 11.45
5/17/2021 4:30:00 PM 16.56 61.808 0.313 8.34 2.93 11.33
5/17/2021 4:45:00 PM 16.65 61.97 0.31 8.35 3.14 11.28
5/17/2021 5:00:00 PM 16.61 61.898 0.31 8.34 4.34 11.08
5/17/2021 5:15:00 PM 16.66 61.988 0.311 8.33 3.1 11.03
5/17/2021 5:30:00 PM 16.79 62.222 0.311 8.34 2.86 10.81
5/17/2021 5:45:00 PM 16.88 62.384 0.31 8.34 2.8 10.98
5/17/2021 6:00:00 PM 16.93 62.474 0.31 8.33 2.95 10.82
5/17/2021 6:15:00 PM 17.01 62.618 0.312 8.32 2.99 10.68
5/17/2021 6:30:00 PM 17.08 62.744 0.312 8.31 3.23 10.51
5/17/2021 6:45:00 PM 17.05 62.69 0.314 8.29 2.91 10.24
5/17/2021 7:00:00 PM 17.05 62.69 0.314 8.27 2.87 10.01
5/17/2021 7:15:00 PM 17.06 62.708 0.315 8.25 2.77 9.8
5/17/2021 7:30:00 PM 17 62.6 0.318 8.23 2.9 9.58
5/17/2021 7:45:00 PM 16.97 62.546 0.315 8.21 3.11 9.39
5/17/2021 8:00:00 PM 16.95 62.51 0.315 8.2 3.03 9.21
5/17/2021 8:15:00 PM 16.86 62.348 0.316 8.18 3.1 9.04
5/17/2021 8:30:00 PM 16.76 62.168 0.317 8.16 3.36 8.82
5/17/2021 8:45:00 PM 16.61 61.898 0.32 8.14 3.12 8.61
5/17/2021 9:00:00 PM 16.53 61.754 0.318 8.13 2.98 8.47
5/17/2021 9:15:00 PM 16.4 61.52 0.318 8.11 3.25 8.34
5/17/2021 9:30:00 PM 16.35 61.43 0.317 8.1 3.12 8.05
5/17/2021 9:45:00 PM 16.21 61.178 0.319 8.08 3.15 8.04
5/17/2021 10:00:00 PM 16.08 60.944 0.32 8.07 3.39 7.95
5/17/2021 10:15:00 PM 16.04 60.872 0.319 8.06 3.23 7.9
5/17/2021 10:30:00 PM 15.93 60.674 0.319 8.05 3.72 7.81
5/17/2021 10:45:00 PM 15.85 60.53 0.319 8.05 3.31 7.73
5/17/2021 11:00:00 PM 15.73 60.314 0.321 8.04 3.33 7.69
5/17/2021 11:15:00 PM 15.61 60.098 0.321 8.04 3.41 7.64
5/17/2021 11:30:00 PM 15.52 59.936 0.32 8.03 3.54 7.62
5/17/2021 11:45:00 PM 15.4 59.72 0.32 8.03 3.33 7.6
5/18/2021 12:00:00 AM 15.27 59.486 0.321 8.03 3.46 7.57
5/18/2021 12:15:00 AM 15.16 59.288 0.32 8.02 3.72 7.55
5/18/2021 12:30:00 AM 15.04 59.072 0.321 8.02 3.58 7.53
5/18/2021 12:45:00 AM 14.94 58.892 0.321 8.02 3.44 7.39
5/18/2021 1:00:00 AM 14.77 58.586 0.322 8.02 3.49 7.58
5/18/2021 1:15:00 AM 14.68 58.424 0.322 8.02 3.44 7.55
5/18/2021 1:30:00 AM 14.54 58.172 0.322 8.01 3.26 7.56
5/18/2021 1:45:00 AM 14.48 58.064 0.321 8.01 11.36 7.64
5/18/2021 2:00:00 AM 14.37 57.866 0.321 8.01 3.45 7.59
5/18/2021 2:15:00 AM 14.26 57.668 0.322 8.01 3.46 7.57
5/18/2021 2:30:00 AM 14.17 57.506 0.323 8.01 3.33 7.6
5/18/2021 2:45:00 AM 14.08 57.344 0.322 8.01 3.79 7.66
5/18/2021 3:00:00 AM 13.97 57.146 0.322 8.01 3.42 7.65
5/18/2021 3:15:00 AM 13.88 56.984 0.323 8.01 3.76 7.67
5/18/2021 3:30:00 AM 13.76 56.768 0.325 8.01 3.62 7.72
5/18/2021 3:45:00 AM 13.68 56.624 0.323 8.01 3.91 7.73
5/18/2021 4:00:00 AM 13.6 56.48 0.322 8.01 3.78 7.77
5/18/2021 4:15:00 AM 13.46 56.228 0.325 8.01 3.51 7.79
5/18/2021 4:30:00 AM 13.39 56.102 0.323 8.01 3.58 7.81
5/18/2021 4:45:00 AM 13.26 55.868 0.325 8.01 4.7 7.81
5/18/2021 5:00:00 AM 13.17 55.706 0.323 8.01 3.9 7.82
5/18/2021 5:15:00 AM 13.07 55.526 0.326 8.01 3.68 7.89
5/18/2021 5:30:00 AM 12.97 55.346 0.325 8.01 3.47 7.9
5/18/2021 5:45:00 AM 12.86 55.148 0.326 8.01 5.22 7.96
5/18/2021 6:00:00 AM 12.78 55.004 0.324 8.01 4.12 7.97
5/18/2021 6:15:00 AM 12.7 54.86 0.325 8.02 3.79 8.04
5/18/2021 6:30:00 AM 12.62 54.716 0.324 8.02 5.34 8.1
5/18/2021 6:45:00 AM 12.54 54.572 0.325 8.02 3.83 8.11
5/18/2021 7:00:00 AM 12.48 54.464 0.325 8.03 4.15 8.27
5/18/2021 7:15:00 AM 12.42 54.356 0.327 8.03 4.09 8.38
5/18/2021 7:30:00 AM 12.39 54.302 0.326 8.04 3.53 8.5
5/18/2021 7:45:00 AM 12.37 54.266 0.323 8.05 3.2 8.67
5/18/2021 8:00:00 AM 12.35 54.23 0.326 8.05 3.35 8.76
5/18/2021 8:15:00 AM 12.37 54.266 0.325 8.06 3.42 8.96
5/18/2021 8:30:00 AM 12.39 54.302 0.326 8.07 3.26 9.12
5/18/2021 8:45:00 AM 12.45 54.41 0.326 8.08 3.42 9.29
5/18/2021 9:00:00 AM 12.52 54.536 0.325 8.09 4.09 9.48
5/18/2021 9:15:00 AM 12.61 54.698 0.326 8.11 3.26 9.64
5/18/2021 9:30:00 AM 12.69 54.842 0.327 8.12 3.34 9.89
5/18/2021 9:45:00 AM 12.82 55.076 0.327 8.13 3.26 10.01
5/18/2021 10:00:00 AM 12.96 55.328 0.327 8.14 3.2 10.14
5/18/2021 10:15:00 AM 13.09 55.562 0.328 8.15 3.52 10.3
5/18/2021 10:30:00 AM 13.29 55.922 0.33 8.16 4.16 10.53
5/18/2021 10:45:00 AM 13.47 56.246 0.329 8.18 11.65 10.67
5/18/2021 11:00:00 AM 13.66 56.588 0.331 8.19 3.77 10.84
5/18/2021 11:15:00 AM 13.89 57.002 0.327 8.2 4.81 10.99
5/18/2021 11:30:00 AM 14.14 57.452 0.326 8.23 3.53 11.19
5/18/2021 11:45:00 AM 14.36 57.848 0.327 8.24 3.75 11.32
5/18/2021 12:00:00 PM 14.58 58.244 0.325 8.25 3.28 11.42
5/18/2021 12:15:00 PM 14.75 58.55 0.326 8.26 3.73 11.4
5/18/2021 12:30:00 PM 15.03 59.054 0.326 8.28 3.49 11.6
5/18/2021 12:45:00 PM 15.29 59.522 0.325 8.3 3.93 11.7
5/18/2021 1:00:00 PM 15.51 59.918 0.326 8.3 3.35 11.74
5/18/2021 1:15:00 PM 15.79 60.422 0.326 8.32 3.4 11.75
5/18/2021 1:30:00 PM 16.03 60.854 0.325 8.33 3.23 11.77
5/18/2021 1:45:00 PM 16.17 61.106 0.33 8.34 3.19 11.82
5/18/2021 2:00:00 PM 16.4 61.52 0.324 8.35 3.12 11.81
5/18/2021 2:15:00 PM 16.49 61.682 0.325 8.36 3.35 11.86
5/18/2021 2:30:00 PM 16.64 61.952 0.326 8.36 3.11 11.9
5/18/2021 2:45:00 PM 16.86 62.348 0.325 8.38 3.21 11.89
5/18/2021 3:00:00 PM 16.98 62.564 0.326 8.39 3.22 11.87
5/18/2021 3:15:00 PM 17.08 62.744 0.327 8.38 3.03 11.75
5/18/2021 3:30:00 PM 17.05 62.69 0.329 8.37 3.1 11.53
5/18/2021 3:45:00 PM 17.17 62.906 0.326 8.37 3.27 11.52
5/18/2021 4:00:00 PM 17.37 63.266 0.326 8.38 2.92 11.59
5/18/2021 4:15:00 PM 17.47 63.446 0.326 8.38 2.85 11.57
5/18/2021 4:30:00 PM 17.53 63.554 0.328 8.38 2.97 11.42
5/18/2021 4:45:00 PM 17.58 63.644 0.327 8.36 2.98 11.15
5/18/2021 5:00:00 PM 17.68 63.824 0.329 8.36 3.26 11.19
5/18/2021 5:15:00 PM 17.81 64.058 0.329 8.37 2.96 11.16
5/18/2021 5:30:00 PM 17.83 64.094 0.33 8.35 3.44 11.03
5/18/2021 5:45:00 PM 17.87 64.166 0.329 8.35 3.1 10.84
5/18/2021 6:00:00 PM 17.88 64.184 0.329 8.33 3.14 10.64
5/18/2021 6:15:00 PM 17.83 64.094 0.33 8.31 3.13 10.52
5/18/2021 6:30:00 PM 17.83 64.094 0.331 8.31 3.01 10.34
5/18/2021 6:45:00 PM 17.76 63.968 0.333 8.29 3.24 10.13
5/18/2021 7:00:00 PM 17.73 63.914 0.334 8.28 2.79 9.9
5/18/2021 7:15:00 PM 17.66 63.788 0.335 8.26 2.98 9.66
5/18/2021 7:30:00 PM 17.67 63.806 0.335 8.24 3.04 9.52
5/18/2021 7:45:00 PM 17.62 63.716 0.336 8.23 2.97 9.29
5/18/2021 8:00:00 PM 17.55 63.59 0.337 8.21 3.02 9.09
5/18/2021 8:15:00 PM 17.51 63.518 0.336 8.19 3.12 8.87
5/18/2021 8:30:00 PM 17.4 63.32 0.337 8.17 3.18 8.67
5/18/2021 8:45:00 PM 17.33 63.194 0.338 8.16 3.16 8.45
5/18/2021 9:00:00 PM 17.2 62.96 0.339 8.14 3.62 8.29
5/18/2021 9:15:00 PM 17.08 62.744 0.339 8.12 3.28 8.12
5/18/2021 9:30:00 PM 16.95 62.51 0.339 8.11 3.26 7.97
5/18/2021 9:45:00 PM 16.83 62.294 0.339 8.1 3.28 7.86
5/18/2021 10:00:00 PM 16.7 62.06 0.34 8.09 3.3 7.78
5/18/2021 10:15:00 PM 16.58 61.844 0.34 8.08 3.5 7.69
5/18/2021 10:30:00 PM 16.47 61.646 0.34 8.07 3.83 7.57
5/18/2021 10:45:00 PM 16.34 61.412 0.34 8.06 3.71 7.53
5/18/2021 11:00:00 PM 16.2 61.16 0.341 8.05 3.52 7.46
5/18/2021 11:15:00 PM 16.12 61.016 0.34 8.05 3.54 7.44
5/18/2021 11:30:00 PM 16.03 60.854 0.34 8.04 3.23 7.41
5/18/2021 11:45:00 PM 15.9 60.62 0.341 8.04 3.04 7.33
5/19/2021 12:00:00 AM 15.82 60.476 0.339 8.03 3.42 7.33
5/19/2021 12:15:00 AM 15.7 60.26 0.341 8.03 3.28 7.32
5/19/2021 12:30:00 AM 15.62 60.116 0.338 8.03 3.35 7.32
5/19/2021 12:45:00 AM 15.52 59.936 0.338 8.03 3.23 7.31
5/19/2021 1:00:00 AM 15.39 59.702 0.34 8.02 3.6 7.33
5/19/2021 1:15:00 AM 15.28 59.504 0.34 8.02 3.53 7.32
5/19/2021 1:30:00 AM 15.17 59.306 0.34 8.02 3.69 7.34
5/19/2021 1:45:00 AM 15.06 59.108 0.34 8.02 3.63 7.37
5/19/2021 2:00:00 AM 14.97 58.946 0.341 8.02 3.52 7.34
5/19/2021 2:15:00 AM 14.85 58.73 0.34 8.02 3.4 7.34
5/19/2021 2:30:00 AM 14.75 58.55 0.342 8.02 3.71 7.35
5/19/2021 2:45:00 AM 14.67 58.406 0.341 8.02 3.68 7.36
5/19/2021 3:00:00 AM 14.6 58.28 0.342 8.02 3.62 7.41
5/19/2021 3:15:00 AM 14.51 58.118 0.342 8.02 3.71 7.41
5/19/2021 3:30:00 AM 14.42 57.956 0.343 8.02 3.7 7.45
5/19/2021 3:45:00 AM 14.34 57.812 0.342 8.02 3.59 7.44
5/19/2021 4:00:00 AM 14.26 57.668 0.344 8.02 3.43 7.5
5/19/2021 4:15:00 AM 14.16 57.488 0.345 8.02 3.56 7.5
5/19/2021 4:30:00 AM 14.09 57.362 0.345 8.02 4.42 7.52
5/19/2021 4:45:00 AM 14.03 57.254 0.344 8.02 3.64 7.53
5/19/2021 5:00:00 AM 13.95 57.11 0.344 8.02 3.88 7.57
5/19/2021 5:15:00 AM 13.85 56.93 0.346 8.02 3.54 7.57
5/19/2021 5:30:00 AM 13.77 56.786 0.346 8.02 3.91 7.56
5/19/2021 5:45:00 AM 13.72 56.696 0.345 8.02 3.79 7.64
5/19/2021 6:00:00 AM 13.64 56.552 0.345 8.02 3.95 7.63
5/19/2021 6:15:00 AM 13.58 56.444 0.345 8.02 3.8 7.67
5/19/2021 6:30:00 AM 13.51 56.318 0.346 8.03 3.9 7.73
5/19/2021 6:45:00 AM 13.46 56.228 0.346 8.03 3.67 7.8
5/19/2021 7:00:00 AM 13.41 56.138 0.347 8.03 3.56 7.92
5/19/2021 7:15:00 AM 13.39 56.102 0.345 8.04 3.39 8.04
5/19/2021 7:30:00 AM 13.36 56.048 0.347 8.04 3.71 8.13
5/19/2021 7:45:00 AM 13.37 56.066 0.346 8.05 3.72 8.29
5/19/2021 8:00:00 AM 13.35 56.03 0.347 8.05 3.28 8.44
5/19/2021 8:15:00 AM 13.39 56.102 0.346 8.07 3.13 8.56
5/19/2021 8:30:00 AM 13.44 56.192 0.347 8.07 3.2 8.71
5/19/2021 8:45:00 AM 13.49 56.282 0.348 8.08 3.56 8.87
5/19/2021 9:00:00 AM 13.57 56.426 0.347 8.09 3.34 9.07
5/19/2021 9:15:00 AM 13.69 56.642 0.346 8.1 3.22 9.27
5/19/2021 9:30:00 AM 13.79 56.822 0.346 8.11 3.41 9.45
5/19/2021 9:45:00 AM 13.92 57.056 0.344 8.12 3.34 9.62
5/19/2021 10:00:00 AM 14.06 57.308 0.345 8.14 3.09 9.8
5/19/2021 10:15:00 AM 14.23 57.614 0.343 8.15 5.43 9.92
5/19/2021 10:30:00 AM 14.4 57.92 0.343 8.16 3.7 10.19
5/19/2021 10:45:00 AM 14.58 58.244 0.343 8.17 3.28 10.33
5/19/2021 11:00:00 AM 14.75 58.55 0.343 8.18 3.86 10.47
5/19/2021 11:15:00 AM 14.99 58.982 0.342 8.2 3.24 10.67
5/19/2021 11:30:00 AM 15.22 59.396 0.342 8.21 3.06 10.8
5/19/2021 11:45:00 AM 15.46 59.828 0.342 8.23 3.38 11
5/19/2021 12:00:00 PM 15.71 60.278 0.342 8.25 3.3 11.1
5/19/2021 12:15:00 PM 15.88 60.584 0.345 8.25 3.14 11.17
5/19/2021 12:30:00 PM 16.23 61.214 0.342 8.28 3.19 11.3
5/19/2021 12:45:00 PM 16.44 61.592 0.343 8.28 3.25 11.36
5/19/2021 1:00:00 PM 16.75 62.15 0.343 8.3 3.23 11.55
5/19/2021 1:15:00 PM 16.99 62.582 0.342 8.3 3.36 11.54
5/19/2021 1:30:00 PM 17.25 63.05 0.342 8.32 3.11 11.63
5/19/2021 1:45:00 PM 17.53 63.554 0.341 8.34 3.15 11.72
5/19/2021 2:00:00 PM 17.75 63.95 0.342 8.34 3.17 11.74
5/19/2021 2:15:00 PM 17.97 64.346 0.34 8.35 2.88 11.71
5/19/2021 2:30:00 PM 18.12 64.616 0.343 8.35 3.22 11.76
5/19/2021 2:45:00 PM 18.33 64.994 0.343 8.36 2.9 11.73
5/19/2021 3:00:00 PM 18.46 65.228 0.341 8.36 3.16 11.73
5/19/2021 3:15:00 PM 18.66 65.588 0.341 8.37 2.94 11.77
5/19/2021 3:30:00 PM 18.82 65.876 0.342 8.38 3.09 11.75
5/19/2021 3:45:00 PM 18.95 66.11 0.343 8.51 3.12 11.68
5/19/2021 4:00:00 PM 19.05 66.29 0.343 8.5 3.03 11.6
5/19/2021 4:15:00 PM 19.09 66.362 0.345 8.51 3.09 11.49
5/19/2021 4:30:00 PM 19.22 66.596 0.345 8.51 2.91 11.44
5/19/2021 4:45:00 PM 19.26 66.668 0.345 8.51 2.9 11.36
5/19/2021 5:00:00 PM 19.29 66.722 0.346 8.5 2.9 11.21
5/19/2021 5:15:00 PM 19.36 66.848 0.346 8.5 2.91 11.12
5/19/2021 5:30:00 PM 19.42 66.956 0.346 8.49 3.07 10.98
5/19/2021 5:45:00 PM 19.42 66.956 0.346 8.47 2.95 10.78
5/19/2021 6:00:00 PM 19.34 66.812 0.348 8.46 2.89 10.57
5/19/2021 6:15:00 PM 19.44 66.992 0.347 8.46 3.18 10.45
5/19/2021 6:30:00 PM 19.4 66.92 0.348 8.46 3.2 10.31
5/19/2021 6:45:00 PM 19.37 66.866 0.35 8.46 2.94 10.08
5/19/2021 7:00:00 PM 19.35 66.83 0.349 8.44 2.94 9.83
5/19/2021 7:15:00 PM 19.21 66.578 0.352 8.41 2.9 9.56
5/19/2021 7:30:00 PM 19.19 66.542 0.353 8.4 3 9.3
5/19/2021 7:45:00 PM 19.14 66.452 0.353 8.38 2.84 9.1
5/19/2021 8:00:00 PM 19.04 66.272 0.354 8.36 2.93 8.88
5/19/2021 8:15:00 PM 19 66.2 0.354 8.33 3.03 8.58
5/19/2021 8:30:00 PM 18.99 66.182 0.354 8.33 2.97 8.39
5/19/2021 8:45:00 PM 18.9 66.02 0.354 8.31 3.2 8.18
5/19/2021 9:00:00 PM 18.78 65.804 0.355 8.28 3.12 7.95
5/19/2021 9:15:00 PM 18.65 65.57 0.356 8.27 3.22 7.79
5/19/2021 9:30:00 PM 18.61 65.498 0.355 8.25 3.29 7.64
5/19/2021 9:45:00 PM 18.49 65.282 0.355 8.25 3.12 7.5
5/19/2021 10:00:00 PM 18.41 65.138 0.356 8.25 3.09 7.4
5/19/2021 10:15:00 PM 18.3 64.94 0.357 8.23 3.3 7.27
5/19/2021 10:30:00 PM 18.2 64.76 0.356 8.22 3.41 7.19
5/19/2021 10:45:00 PM 18.11 64.598 0.357 8.21 3.06 7.11
5/19/2021 11:00:00 PM 18.02 64.436 0.356 8.21 3.61 7.05
5/19/2021 11:15:00 PM 17.94 64.292 0.355 8.21 3.26 6.98
5/19/2021 11:30:00 PM 17.78 64.004 0.356 8.2 3.31 6.93
5/19/2021 11:45:00 PM 17.65 63.77 0.357 8.2 3.46 6.84
5/20/2021 12:00:00 AM 17.54 63.572 0.358 8.19 3.33 6.86
5/20/2021 12:15:00 AM 17.39 63.302 0.359 8.19 3.5 6.8
5/20/2021 12:30:00 AM 17.3 63.14 0.358 8.19 3.25 6.81
5/20/2021 12:45:00 AM 17.2 62.96 0.358 8.19 3.31 6.8
5/20/2021 1:00:00 AM 17.08 62.744 0.36 8.19 3.21 6.76
5/20/2021 1:15:00 AM 16.99 62.582 0.36 8.18 3.38 6.76
5/20/2021 1:30:00 AM 16.89 62.402 0.359 8.18 3.38 6.78
5/20/2021 1:45:00 AM 16.8 62.24 0.359 8.17 3.51 6.77
5/20/2021 2:00:00 AM 16.66 61.988 0.362 8.18 3.87 6.78
5/20/2021 2:15:00 AM 16.59 61.862 0.361 8.17 3.56 6.81
5/20/2021 2:30:00 AM 16.48 61.664 0.362 8.18 3.47 6.83
5/20/2021 2:45:00 AM 16.42 61.556 0.36 8.18 3.49 6.83
5/20/2021 3:00:00 AM 16.32 61.376 0.361 8.17 3.22 6.84
5/20/2021 3:15:00 AM 16.23 61.214 0.361 8.17 3.54 6.84
5/20/2021 3:30:00 AM 16.11 60.998 0.362 8.17 3.64 6.87
5/20/2021 3:45:00 AM 16.04 60.872 0.361 8.17 3.53 6.89
5/20/2021 4:00:00 AM 16.01 60.818 0.357 8.17 3.88 6.93
5/20/2021 4:15:00 AM 15.92 60.656 0.359 8.17 3.42 6.92
5/20/2021 4:30:00 AM 15.86 60.548 0.358 8.17 3.54 6.95
5/20/2021 4:45:00 AM 15.78 60.404 0.358 8.17 3.46 6.98
5/20/2021 5:00:00 AM 15.7 60.26 0.359 8.17 3.87 6.96
5/20/2021 5:15:00 AM 15.64 60.152 0.358 8.17 3.65 7.02
5/20/2021 5:30:00 AM 15.56 60.008 0.359 8.17 3.48 7.06
5/20/2021 5:45:00 AM 15.43 59.774 0.362 8.17 3.56 7.06
5/20/2021 6:00:00 AM 15.41 59.738 0.36 8.17 3.4 7.11
5/20/2021 6:15:00 AM 15.35 59.63 0.359 8.17 3.59 7.17
5/20/2021 6:30:00 AM 15.28 59.504 0.361 8.17 3.75 7.15
5/20/2021 6:45:00 AM 15.23 59.414 0.361 8.18 3.53 7.25
5/20/2021 7:00:00 AM 15.23 59.414 0.36 8.18 3.61 7.41
5/20/2021 7:15:00 AM 15.17 59.306 0.362 8.19 3.33 7.5
5/20/2021 7:30:00 AM 15.15 59.27 0.361 8.19 3.41 7.61
5/20/2021 7:45:00 AM 15.18 59.324 0.36 8.2 3.56 7.79
5/20/2021 8:00:00 AM 15.12 59.216 0.365 8.21 3.42 7.99
5/20/2021 8:15:00 AM 15.18 59.324 0.363 8.22 8.31 8.1
5/20/2021 8:30:00 AM 15.26 59.468 0.362 8.24 3.4 8.36
5/20/2021 8:45:00 AM 15.28 59.504 0.362 8.24 3.21 8.44
5/20/2021 9:00:00 AM 15.32 59.576 0.361 8.25 3.3 8.61
5/20/2021 9:15:00 AM 15.37 59.666 0.361 8.26 3.17 8.84
5/20/2021 9:30:00 AM 15.4 59.72 0.362 8.27 3.22 8.93
5/20/2021 9:45:00 AM 15.48 59.864 0.36 8.28 3.15 9.05
5/20/2021 10:00:00 AM 15.64 60.152 0.36 8.29 3.27 9.26
5/20/2021 10:15:00 AM 15.76 60.368 0.359 8.3 3.14 9.5
5/20/2021 10:30:00 AM 15.9 60.62 0.36 8.31 3.1 9.64
5/20/2021 10:45:00 AM 16.01 60.818 0.366 8.32 3.19 9.79
5/20/2021 11:00:00 AM 16.23 61.214 0.359 8.33 3.14 9.97
5/20/2021 11:15:00 AM 16.43 61.574 0.361 8.35 2.83 10.15
5/20/2021 11:30:00 AM 16.66 61.988 0.361 8.35 3.4 10.24
5/20/2021 11:45:00 AM 16.95 62.51 0.359 8.38 3.65 10.5
5/20/2021 12:00:00 PM 17.17 62.906 0.359 8.39 3.07 10.59
5/20/2021 12:15:00 PM 17.36 63.248 0.36 8.4 3.3 10.68
5/20/2021 12:30:00 PM 17.61 63.698 0.359 8.42 3.02 10.82
5/20/2021 12:45:00 PM 17.94 64.292 0.357 8.45 3.23 11
5/20/2021 1:00:00 PM 18.13 64.634 0.358 8.46 3.09 11.13
5/20/2021 1:15:00 PM 18.34 65.012 0.358 8.46 3.21 11.18
5/20/2021 1:30:00 PM 18.34 65.012 0.36 8.45 3.03 10.93
5/20/2021 1:45:00 PM 18.56 65.408 0.356 8.47 3.11 11.02
5/20/2021 2:00:00 PM 18.63 65.534 0.358 8.47 3.11 11.09
5/20/2021 2:15:00 PM 18.73 65.714 0.357 8.47 3.05 10.96
5/20/2021 2:30:00 PM 18.82 65.876 0.358 8.47 2.86 10.9
5/20/2021 2:45:00 PM 18.91 66.038 0.36 8.47 2.99 10.85
5/20/2021 3:00:00 PM 19.19 66.542 0.358 8.48 2.82 10.93
5/20/2021 3:15:00 PM 19.31 66.758 0.358 8.49 2.96 10.87
5/20/2021 3:30:00 PM 19.51 67.118 0.358 8.49 2.77 10.91
5/20/2021 3:45:00 PM 19.66 67.388 0.357 8.49 2.88 10.88
5/20/2021 4:00:00 PM 19.79 67.622 0.357 8.49 2.98 10.88
5/20/2021 4:15:00 PM 19.83 67.694 0.359 8.5 3 10.81
5/20/2021 4:30:00 PM 19.96 67.92799 0.357 8.49 2.97 10.78
5/20/2021 4:45:00 PM 19.98 67.964 0.359 8.49 2.86 10.6
5/20/2021 5:00:00 PM 20.06 68.108 0.359 8.49 2.85 10.56
5/20/2021 5:15:00 PM 20.06 68.108 0.36 8.48 2.9 10.44
5/20/2021 5:30:00 PM 20.08 68.144 0.359 8.48 3.24 10.39
5/20/2021 5:45:00 PM 20.01 68.018 0.361 8.46 3.03 10.21
5/20/2021 6:00:00 PM 19.86 67.748 0.363 8.44 3.04 9.91
5/20/2021 6:15:00 PM 19.94 67.892 0.361 8.44 2.94 9.78
5/20/2021 6:30:00 PM 19.9 67.82 0.361 8.44 2.96 9.61
5/20/2021 6:45:00 PM 19.85 67.73 0.363 8.42 3.1 9.46
5/20/2021 7:00:00 PM 19.75 67.55 0.363 8.41 3.99 9.18
5/20/2021 7:15:00 PM 19.8 67.64 0.363 8.4 3.2 8.97
5/20/2021 7:30:00 PM 19.87 67.766 0.363 8.39 3.12 8.81
5/20/2021 7:45:00 PM 19.83 67.694 0.363 8.38 2.98 8.62
5/20/2021 8:00:00 PM 19.7 67.46 0.364 8.36 2.83 8.36
5/20/2021 8:15:00 PM 19.68 67.424 0.365 8.35 3.07 8.18
5/20/2021 8:30:00 PM 19.73 67.514 0.364 8.34 3.12 7.98
5/20/2021 8:45:00 PM 19.69 67.442 0.364 8.33 3.24 7.83
5/20/2021 9:00:00 PM 19.61 67.298 0.364 8.32 3.54 7.66
5/20/2021 9:15:00 PM 19.52 67.136 0.366 8.3 3.51 7.5
5/20/2021 9:30:00 PM 19.48 67.064 0.366 8.29 3.08 7.37
5/20/2021 9:45:00 PM 19.42 66.956 0.365 8.28 3.21 7.23
5/20/2021 10:00:00 PM 19.3 66.74 0.367 8.27 3.44 7.11
5/20/2021 10:15:00 PM 19.18 66.524 0.367 8.26 3.41 6.99
5/20/2021 10:30:00 PM 19.09 66.362 0.368 8.25 3.32 6.9
5/20/2021 10:45:00 PM 19.03 66.254 0.368 8.25 3.58 6.79
5/20/2021 11:00:00 PM 18.91 66.038 0.368 8.24 3.34 6.74
5/20/2021 11:15:00 PM 18.9 66.02 0.367 8.23 3.62 6.7
5/20/2021 11:30:00 PM 18.77 65.786 0.369 8.22 3.6 6.64
5/20/2021 11:45:00 PM 18.7 65.66 0.368 8.22 3.57 6.56
5/21/2021 12:00:00 AM 18.61 65.498 0.369 8.22 3.36 6.6
5/21/2021 12:15:00 AM 18.49 65.282 0.369 8.21 3.29 6.53
5/21/2021 12:30:00 AM 18.41 65.138 0.37 8.2 3.62 6.53
5/21/2021 12:45:00 AM 18.29 64.922 0.37 8.2 3.36 6.51
5/21/2021 1:00:00 AM 18.22 64.796 0.369 8.2 3.09 6.54
5/21/2021 1:15:00 AM 18.1 64.58 0.369 8.2 3.33 6.57
5/21/2021 1:30:00 AM 17.95 64.31 0.37 8.2 3.71 6.57
5/21/2021 1:45:00 AM 17.84 64.112 0.372 8.2 3.34 6.56
5/21/2021 2:00:00 AM 17.75 63.95 0.371 8.19 3.64 6.54
5/21/2021 2:15:00 AM 17.63 63.734 0.371 8.19 3.65 6.55
5/21/2021 2:30:00 AM 17.49 63.482 0.371 8.19 3.33 6.54
5/21/2021 2:45:00 AM 17.38 63.284 0.371 8.19 3.48 6.66
5/21/2021 3:00:00 AM 17.25 63.05 0.373 8.19 3.65 6.68
5/21/2021 3:15:00 AM 17.17 62.906 0.372 8.19 3.6 6.66
5/21/2021 3:30:00 AM 17.03 62.654 0.373 8.19 3.51 6.67
5/21/2021 3:45:00 AM 17.01 62.618 0.372 8.19 3.84 6.72
5/21/2021 4:00:00 AM 16.93 62.474 0.371 8.19 3.77 6.75
5/21/2021 4:15:00 AM 16.82 62.276 0.373 8.19 3.36 6.77
5/21/2021 4:30:00 AM 16.74 62.132 0.373 8.19 3.66 6.81
5/21/2021 4:45:00 AM 16.67 62.006 0.372 8.19 4.04 6.81
5/21/2021 5:00:00 AM 16.62 61.916 0.371 8.19 3.53 6.82
5/21/2021 5:15:00 AM 16.5 61.7 0.372 8.19 3.59 6.85
5/21/2021 5:30:00 AM 16.4 61.52 0.372 8.19 3.46 6.88
5/21/2021 5:45:00 AM 16.29 61.322 0.373 8.18 3.7 6.88
5/21/2021 6:00:00 AM 16.23 61.214 0.374 8.19 3.75 6.93
5/21/2021 6:15:00 AM 16.17 61.106 0.371 8.19 4.13 6.97
5/21/2021 6:30:00 AM 16.03 60.854 0.372 8.19 3.54 7.08
5/21/2021 6:45:00 AM 16.02 60.836 0.37 8.19 3.75 7.15
5/21/2021 7:00:00 AM 15.93 60.674 0.371 8.19 3.94 7.21
5/21/2021 7:15:00 AM 15.84 60.512 0.373 8.19 4.04 7.35
5/21/2021 7:30:00 AM 15.85 60.53 0.371 8.2 3.87 7.4
5/21/2021 7:45:00 AM 15.86 60.548 0.37 8.21 3.75 7.58
5/21/2021 8:00:00 AM 15.86 60.548 0.37 8.21 3.61 7.72
5/21/2021 8:15:00 AM 15.86 60.548 0.371 8.21 3.35 7.83
5/21/2021 8:30:00 AM 15.94 60.692 0.37 8.22 3.23 7.96
5/21/2021 8:45:00 AM 16 60.8 0.37 8.23 3.9 8.1
5/21/2021 9:00:00 AM 16.07 60.926 0.371 8.24 3.6 8.28
5/21/2021 9:15:00 AM 16.15 61.07 0.37 8.25 3.51 8.4
5/21/2021 9:30:00 AM 16.25 61.25 0.371 8.26 3.4 8.6
5/21/2021 9:45:00 AM 16.37 61.466 0.371 8.27 3.35 8.77
5/21/2021 10:00:00 AM 16.52 61.736 0.371 8.28 3.09 8.98
5/21/2021 10:15:00 AM 16.65 61.97 0.371 8.29 3.35 9.08
5/21/2021 10:30:00 AM 16.82 62.276 0.371 8.3 3.15 9.34
5/21/2021 10:45:00 AM 16.95 62.51 0.371 8.31 3.14 9.51
5/21/2021 11:00:00 AM 17.15 62.87 0.372 8.32 4.31 9.67
5/21/2021 11:15:00 AM 17.38 63.284 0.371 8.34 3.08 9.71
5/21/2021 11:30:00 AM 17.56 63.608 0.372 8.35 3.84 9.93
5/21/2021 11:45:00 AM 17.79 64.022 0.371 8.36 3.03 10.08
5/21/2021 12:00:00 PM 17.98 64.364 0.372 8.37 3.08 10.25
5/21/2021 12:15:00 PM 18.22 64.796 0.371 8.38 3.04 10.38
5/21/2021 12:30:00 PM 18.49 65.282 0.369 8.39 3.15 10.38
5/21/2021 12:45:00 PM 18.72 65.696 0.371 8.41 3.09 10.58
5/21/2021 1:00:00 PM 18.99 66.182 0.369 8.42 3.2 10.69
5/21/2021 1:15:00 PM 19.11 66.398 0.37 8.42 3.13 10.8
5/21/2021 1:30:00 PM 19.42 66.956 0.369 8.44 3.08 10.86
5/21/2021 1:45:00 PM 19.49 67.082 0.368 8.44 3.08 10.65
5/21/2021 2:00:00 PM 19.53 67.154 0.368 8.44 3.07 10.65
5/21/2021 2:15:00 PM 19.74 67.532 0.369 8.45 3.37 10.66
5/21/2021 2:30:00 PM 19.91 67.838 0.368 8.46 3.29 10.76
5/21/2021 2:45:00 PM 20.03 68.054 0.368 8.46 3.02 10.67
5/21/2021 3:00:00 PM 20.22 68.396 0.368 8.47 3.11 10.71
5/21/2021 3:15:00 PM 20.35 68.63 0.368 8.47 3.14 10.64
5/21/2021 3:30:00 PM 20.52 68.936 0.368 8.47 3.26 10.77
5/21/2021 3:45:00 PM 20.59 69.062 0.368 8.47 3.06 10.75
5/21/2021 4:00:00 PM 20.88 69.584 0.367 8.48 2.99 10.77
5/21/2021 4:15:00 PM 21.04 69.872 0.368 8.49 3.08 10.79
5/21/2021 4:30:00 PM 21.03 69.854 0.369 8.47 2.99 10.66
5/21/2021 4:45:00 PM 21.22 70.196 0.367 8.49 3.12 10.65
5/21/2021 5:00:00 PM 21.15 70.07 0.368 8.47 3.02 10.25
5/21/2021 5:15:00 PM 21.07 69.926 0.37 8.46 2.98 10.08
5/21/2021 5:30:00 PM 21.07 69.926 0.37 8.45 3.23 9.96
5/21/2021 5:45:00 PM 21.18 70.124 0.369 8.45 3.11 9.89
5/21/2021 6:00:00 PM 21.15 70.07 0.37 8.44 3.52 9.68
5/21/2021 6:15:00 PM 21.15 70.07 0.37 8.43 2.94 9.53
5/21/2021 6:30:00 PM 21.21 70.17799 0.37 8.43 3.27 9.45
5/21/2021 6:45:00 PM 21.15 70.07 0.372 8.42 3.11 9.21
5/21/2021 7:00:00 PM 21.15 70.07 0.371 8.41 3.1 9
5/21/2021 7:15:00 PM 21.13 70.034 0.372 8.39 3.03 8.83
5/21/2021 7:30:00 PM 21.02 69.836 0.373 8.38 2.98 8.65
5/21/2021 7:45:00 PM 21.06 69.908 0.373 8.37 3.12 8.46
5/21/2021 8:00:00 PM 21.02 69.836 0.374 8.36 3.78 8.3
5/21/2021 8:15:00 PM 20.89 69.602 0.376 8.34 3.38 8.04
5/21/2021 8:30:00 PM 20.88 69.584 0.375 8.33 5.51 7.8
5/21/2021 8:45:00 PM 20.75 69.35 0.375 8.32 3.44 7.64
5/21/2021 9:00:00 PM 20.62 69.116 0.376 8.3 3.64 7.46
5/21/2021 9:15:00 PM 20.51 68.918 0.377 8.29 3.55 7.31
5/21/2021 9:30:00 PM 20.45 68.81 0.376 8.28 3.53 7.19
5/21/2021 9:45:00 PM 20.28 68.504 0.377 8.27 3.7 7.04
5/21/2021 10:00:00 PM 20.19 68.342 0.376 8.26 3.64 6.94
5/21/2021 10:15:00 PM 20.07 68.126 0.377 8.25 3.66 6.86
5/21/2021 10:30:00 PM 19.92 67.856 0.378 8.24 3.8 6.78
5/21/2021 10:45:00 PM 19.82 67.676 0.378 8.24 3.53 6.71
5/21/2021 11:00:00 PM 19.72 67.496 0.378 8.23 3.83 6.65
5/21/2021 11:15:00 PM 19.53 67.154 0.379 8.22 3.91 6.54
5/21/2021 11:30:00 PM 19.42 66.956 0.38 8.22 4.43 6.51
5/21/2021 11:45:00 PM 19.32 66.776 0.379 8.21 4.07 6.51
5/22/2021 12:00:00 AM 19.25 66.65 0.379 8.2 3.43 6.44
5/22/2021 12:15:00 AM 19.18 66.524 0.379 8.2 3.58 6.43
5/22/2021 12:30:00 AM 19.11 66.398 0.378 8.2 3.55 6.42
5/22/2021 12:45:00 AM 18.98 66.164 0.379 8.2 3.8 6.41
5/22/2021 1:00:00 AM 18.89 66.002 0.381 8.2 3.36 6.35
5/22/2021 1:15:00 AM 18.83 65.894 0.379 8.19 3.6 6.38
5/22/2021 1:30:00 AM 18.64 65.552 0.38 8.19 3.7 6.38
5/22/2021 1:45:00 AM 18.51 65.318 0.38 8.19 3.73 6.35
5/22/2021 2:00:00 AM 18.42 65.156 0.382 8.19 3.72 6.38
5/22/2021 2:15:00 AM 18.32 64.976 0.38 8.18 3.61 6.43
5/22/2021 2:30:00 AM 18.2 64.76 0.38 8.18 3.79 6.43
5/22/2021 2:45:00 AM 18.12 64.616 0.379 8.18 3.58 6.42
5/22/2021 3:00:00 AM 18.03 64.454 0.272 8.19 13.52 6.48
5/22/2021 3:15:00 AM 17.95 64.31 0.378 8.18 5.48 6.33
5/22/2021 3:30:00 AM 17.87 64.166 0.378 8.18 3.64 6.54
5/22/2021 3:45:00 AM 17.71 63.878 0.379 8.18 3.99 6.59
5/22/2021 4:00:00 AM 17.56 63.608 0.38 8.18 4.7 6.53
5/22/2021 4:15:00 AM 17.51 63.518 0.379 8.17 6.14 6.57
5/22/2021 4:30:00 AM 17.45 63.41 0.379 8.18 3.7 6.58
5/22/2021 4:45:00 AM 17.37 63.266 0.378 8.17 3.64 6.62
5/22/2021 5:00:00 AM 17.2 62.96 0.38 8.17 5.33 6.65
5/22/2021 5:15:00 AM 17.17 62.906 0.379 8.17 3.72 6.67
5/22/2021 5:30:00 AM 17.1 62.78 0.378 8.17 3.62 6.69
5/22/2021 5:45:00 AM 17.03 62.654 0.379 8.17 3.59 6.68
5/22/2021 6:00:00 AM 16.92 62.456 0.38 8.17 4.14 6.77
5/22/2021 6:15:00 AM 16.9 62.42 0.378 8.17 3.99 6.79
5/22/2021 6:30:00 AM 16.79 62.222 0.379 8.17 3.79 6.85
5/22/2021 6:45:00 AM 16.72 62.096 0.38 8.17 4.51 6.91
5/22/2021 7:00:00 AM 16.71 62.078 0.38 8.17 4.21 6.99
5/22/2021 7:15:00 AM 16.68 62.024 0.379 8.18 3.64 7.04
5/22/2021 7:30:00 AM 16.62 61.916 0.38 8.18 4 7.19
5/22/2021 7:45:00 AM 16.58 61.844 0.38 8.19 3.52 7.28
5/22/2021 8:00:00 AM 16.52 61.736 0.383 8.19 3.89 7.43
5/22/2021 8:15:00 AM 16.58 61.844 0.38 8.2 3.57 7.59
5/22/2021 8:30:00 AM 16.57 61.826 0.382 8.21 3.62 7.71
5/22/2021 8:45:00 AM 16.69 62.042 0.38 8.22 3.45 7.93
5/22/2021 9:00:00 AM 16.67 62.006 0.382 8.22 3.85 8.1
5/22/2021 9:15:00 AM 16.69 62.042 0.381 8.23 3.56 8.17
5/22/2021 9:30:00 AM 16.82 62.276 0.381 8.24 4.06 8.35
5/22/2021 9:45:00 AM 16.9 62.42 0.381 8.25 3.24 8.56
5/22/2021 10:00:00 AM 17.02 62.636 0.381 8.27 3.42 8.72
5/22/2021 10:15:00 AM 17.24 63.032 0.38 8.27 3.28 8.96
5/22/2021 10:30:00 AM 17.4 63.32 0.38 8.29 3.46 9.1
5/22/2021 10:45:00 AM 17.5 63.5 0.38 8.3 3.59 9.26
5/22/2021 11:00:00 AM 17.62 63.716 0.38 8.3 3.49 9.42
5/22/2021 11:15:00 AM 17.69 63.842 0.38 8.32 3.31 9.57
5/22/2021 11:30:00 AM 17.97 64.346 0.378 8.34 3.06 9.81
5/22/2021 11:45:00 AM 18.06 64.508 0.378 8.35 3.46 9.92
5/22/2021 12:00:00 PM 18.18 64.724 0.379 8.36 3.29 10.06
5/22/2021 12:15:00 PM 18.29 64.922 0.377 8.36 3.54 10.09
5/22/2021 12:30:00 PM 18.41 65.138 0.377 8.37 3.38 10.19
5/22/2021 12:45:00 PM 18.5 65.3 0.377 8.39 3.29 10.33
5/22/2021 1:00:00 PM 18.68 65.624 0.376 8.4 3.49 10.42
5/22/2021 1:15:00 PM 18.79 65.82201 0.376 8.4 3.38 10.48
5/22/2021 1:30:00 PM 18.95 66.11 0.375 8.42 3.53 10.56
5/22/2021 1:45:00 PM 19.04 66.272 0.376 8.43 3.38 10.56
5/22/2021 2:00:00 PM 19.14 66.452 0.376 8.43 3.5 10.57
5/22/2021 2:15:00 PM 19.29 66.722 0.375 8.44 3.38 10.61
5/22/2021 2:30:00 PM 19.41 66.938 0.375 8.45 3.84 10.66
5/22/2021 2:45:00 PM 19.46 67.028 0.376 8.44 4.59 10.6
5/22/2021 3:00:00 PM 19.58 67.244 0.376 8.46 3.32 10.62
5/22/2021 3:15:00 PM 19.77 67.586 0.376 8.45 3.45 10.64
5/22/2021 3:30:00 PM 19.82 67.676 0.375 8.46 3.87 10.54
5/22/2021 3:45:00 PM 19.77 67.586 0.377 8.46 4.18 10.37
5/22/2021 4:00:00 PM 19.89 67.802 0.376 8.46 3.55 10.32
5/22/2021 4:15:00 PM 19.88 67.784 0.377 8.46 3.52 10.22
5/22/2021 4:30:00 PM 19.89 67.802 0.377 8.46 3.14 10.2
5/22/2021 4:45:00 PM 19.93 67.874 0.377 8.46 3.39 10.02
5/22/2021 5:00:00 PM 19.94 67.892 0.377 8.46 3.23 9.87
5/22/2021 5:15:00 PM 19.87 67.766 0.378 8.45 3.32 9.73
5/22/2021 5:30:00 PM 19.89 67.802 0.377 8.45 3.3 9.69
5/22/2021 5:45:00 PM 19.84 67.712 0.379 8.44 3.3 9.6
5/22/2021 6:00:00 PM 19.79 67.622 0.379 8.43 3.48 9.41
5/22/2021 6:15:00 PM 19.68 67.424 0.381 8.42 3.26 9.17
5/22/2021 6:30:00 PM 19.7 67.46 0.381 8.41 3.3 9.05
5/22/2021 6:45:00 PM 19.67 67.406 0.381 8.39 3.29 8.86
5/22/2021 7:00:00 PM 19.62 67.316 0.381 8.38 3.4 8.65
5/22/2021 7:15:00 PM 19.58 67.244 0.381 8.37 3.43 8.46
5/22/2021 7:30:00 PM 19.48 67.064 0.382 8.35 3.6 8.33
5/22/2021 7:45:00 PM 19.4 66.92 0.383 8.34 3.36 8.15
5/22/2021 8:00:00 PM 19.32 66.776 0.384 8.33 3.2 7.91
5/22/2021 8:15:00 PM 19.21 66.578 0.385 8.31 3.43 7.78
5/22/2021 8:30:00 PM 19.19 66.542 0.385 8.31 3.42 7.64
5/22/2021 8:45:00 PM 19.08 66.344 0.386 8.29 3.59 7.49
5/22/2021 9:00:00 PM 19.07 66.326 0.386 8.28 3.61 7.33
5/22/2021 9:15:00 PM 18.99 66.182 0.386 8.27 3.68 7.22
5/22/2021 9:30:00 PM 18.92 66.056 0.387 8.26 3.77 7.03
5/22/2021 9:45:00 PM 18.84 65.912 0.388 8.25 4.06 7
5/22/2021 10:00:00 PM 18.82 65.876 0.387 8.24 3.76 6.94
5/22/2021 10:15:00 PM 18.7 65.66 0.388 8.23 3.97 6.81
5/22/2021 10:30:00 PM 18.67 65.606 0.388 8.23 3.78 6.76
5/22/2021 10:45:00 PM 18.57 65.426 0.389 8.22 3.82 6.71
5/22/2021 11:00:00 PM 18.55 65.39 0.388 8.22 3.93 6.63
5/22/2021 11:15:00 PM 18.47 65.246 0.389 8.21 3.55 6.64
5/22/2021 11:30:00 PM 18.47 65.246 0.388 8.21 3.86 6.61
5/22/2021 11:45:00 PM 18.34 65.012 0.39 8.2 3.78 6.54
5/23/2021 12:00:00 AM 18.3 64.94 0.39 8.2 3.68 6.56
5/23/2021 12:15:00 AM 18.25 64.85 0.39 8.2 3.86 6.48
5/23/2021 12:30:00 AM 18.2 64.76 0.39 8.2 3.86 6.43
5/23/2021 12:45:00 AM 18.19 64.742 0.389 8.2 3.73 6.47
5/23/2021 1:00:00 AM 18.12 64.616 0.389 8.19 3.73 6.48
5/23/2021 1:15:00 AM 18.03 64.454 0.389 8.19 3.56 6.45
5/23/2021 1:30:00 AM 18.02 64.436 0.389 8.19 3.88 6.47
5/23/2021 1:45:00 AM 17.86 64.148 0.39 8.18 3.96 6.44
5/23/2021 2:00:00 AM 17.87 64.166 0.389 8.18 4.14 6.42
5/23/2021 2:15:00 AM 17.78 64.004 0.39 8.18 3.83 6.45
5/23/2021 2:30:00 AM 17.7 63.86 0.39 8.18 3.91 6.4
5/23/2021 2:45:00 AM 17.68 63.824 0.39 8.18 3.85 6.47
5/23/2021 3:00:00 AM 17.65 63.77 0.389 8.18 4.11 6.43
5/23/2021 3:15:00 AM 17.63 63.734 0.389 8.18 4.48 6.46
5/23/2021 3:30:00 AM 17.56 63.608 0.389 8.17 4.11 6.42
5/23/2021 3:45:00 AM 17.52 63.536 0.388 8.17 4.26 6.46
5/23/2021 4:00:00 AM 17.47 63.446 0.388 8.17 3.95 6.53
5/23/2021 4:15:00 AM 17.35 63.23 0.39 8.17 4.07 6.41
5/23/2021 4:30:00 AM 17.37 63.266 0.388 8.17 3.67 6.54
5/23/2021 4:45:00 AM 17.3 63.14 0.39 8.17 4.06 6.45
5/23/2021 5:00:00 AM 17.29 63.122 0.388 8.17 3.61 6.54
5/23/2021 5:15:00 AM 17.25 63.05 0.389 8.17 3.89 6.5
5/23/2021 5:30:00 AM 17.18 62.924 0.389 8.17 4.3 6.57
5/23/2021 5:45:00 AM 17.17 62.906 0.388 8.17 3.91 6.55
5/23/2021 6:00:00 AM 17.09 62.762 0.389 8.16 3.99 6.6
5/23/2021 6:15:00 AM 17.09 62.762 0.389 8.17 3.82 6.69
5/23/2021 6:30:00 AM 16.98 62.564 0.392 8.17 3.81 6.72
5/23/2021 6:45:00 AM 17.01 62.618 0.389 8.17 4.18 6.74
5/23/2021 7:00:00 AM 16.98 62.564 0.39 8.17 3.84 6.81
5/23/2021 7:15:00 AM 16.94 62.492 0.39 8.17 4.1 6.91
5/23/2021 7:30:00 AM 16.9 62.42 0.391 8.17 3.91 7.02
5/23/2021 7:45:00 AM 16.92 62.456 0.391 8.18 3.92 7.07
5/23/2021 8:00:00 AM 16.85 62.33 0.392 8.18 3.98 7.11
5/23/2021 8:15:00 AM 16.91 62.438 0.391 8.19 4.2 7.25
5/23/2021 8:30:00 AM 16.95 62.51 0.392 8.2 3.61 7.38
5/23/2021 8:45:00 AM 16.98 62.564 0.393 8.2 3.8 7.58
5/23/2021 9:00:00 AM 17.08 62.744 0.392 8.21 3.52 7.66
5/23/2021 9:15:00 AM 17.18 62.924 0.392 8.22 3.54 7.85
5/23/2021 9:30:00 AM 17.22 62.996 0.392 8.23 3.59 7.96
5/23/2021 9:45:00 AM 17.29 63.122 0.392 8.24 3.32 8.19
5/23/2021 10:00:00 AM 17.35 63.23 0.393 8.24 3.67 8.26
5/23/2021 10:15:00 AM 17.4 63.32 0.393 8.24 3.59 8.31
5/23/2021 10:30:00 AM 17.53 63.554 0.393 8.25 3.49 8.47
5/23/2021 10:45:00 AM 17.64 63.752 0.392 8.26 3.52 8.62
5/23/2021 11:00:00 AM 17.78 64.004 0.392 8.27 3.55 8.75
5/23/2021 11:15:00 AM 17.91 64.238 0.391 8.28 3.6 8.89
5/23/2021 11:30:00 AM 17.99 64.382 0.392 8.28 3.52 8.97
5/23/2021 11:45:00 AM 18.04 64.472 0.391 8.29 3.41 8.99
5/23/2021 12:00:00 PM 18.13 64.634 0.391 8.29 3.52 9.04
5/23/2021 12:15:00 PM 18.15 64.67 0.392 8.3 3.37 9.17
5/23/2021 12:30:00 PM 18.17 64.706 0.392 8.31 3.37 9.26
5/23/2021 12:45:00 PM 18.5 65.3 0.39 8.33 3.5 9.05
5/23/2021 1:00:00 PM 18.67 65.606 0.391 8.33 3.48 9.5
5/23/2021 1:15:00 PM 18.77 65.786 0.39 8.34 3.35 9.48
5/23/2021 1:30:00 PM 18.74 65.732 0.391 8.33 3.45 9.26
5/23/2021 1:45:00 PM 18.75 65.75 0.392 8.33 3.66 9.19
5/23/2021 2:00:00 PM 18.99 66.182 0.391 8.34 3.28 9.46
5/23/2021 2:15:00 PM 19.15 66.47 0.39 8.35 3.35 9.57
5/23/2021 2:30:00 PM 19.05 66.29 0.391 8.35 3.39 9.33
5/23/2021 2:45:00 PM 19.21 66.578 0.39 8.35 3.34 9.34
5/23/2021 3:00:00 PM 19.17 66.506 0.391 8.35 3.47 9.21
5/23/2021 3:15:00 PM 19.24 66.632 0.39 8.36 3.76 9.34
5/23/2021 3:30:00 PM 19.27 66.686 0.389 8.36 3.58 9.28
5/23/2021 3:45:00 PM 19.23 66.614 0.39 8.36 3.24 9.22
5/23/2021 4:00:00 PM 19.3 66.74 0.389 8.36 3.31 9.24
5/23/2021 4:15:00 PM 19.31 66.758 0.39 8.36 3.62 9.23
5/23/2021 4:30:00 PM 19.34 66.812 0.391 8.37 3.26 9.3
5/23/2021 4:45:00 PM 19.39 66.902 0.389 8.37 3.41 9.29
5/23/2021 5:00:00 PM 19.27 66.686 0.39 8.37 3.12 9.14
5/23/2021 5:15:00 PM 19.26 66.668 0.39 8.36 3.43 8.97
5/23/2021 5:30:00 PM 19.28 66.704 0.39 8.35 3.32 8.9
5/23/2021 5:45:00 PM 19.22 66.596 0.39 8.35 3.79 8.79
5/23/2021 6:00:00 PM 19.13 66.434 0.391 8.35 3.43 8.73
5/23/2021 6:15:00 PM 19.03 66.254 0.392 8.34 3.48 8.64
5/23/2021 6:30:00 PM 18.96 66.128 0.392 8.33 3.51 8.46
5/23/2021 6:45:00 PM 18.93 66.074 0.391 8.32 3.22 8.29
5/23/2021 7:00:00 PM 18.8 65.84 0.393 8.31 3.45 8.26
5/23/2021 7:15:00 PM 18.7 65.66 0.392 8.3 3.36 8.14
5/23/2021 7:30:00 PM 18.66 65.588 0.392 8.3 3.35 8.05
5/23/2021 7:45:00 PM 18.55 65.39 0.393 8.29 5.4 7.95
5/23/2021 8:00:00 PM 18.47 65.246 0.393 8.28 3.77 7.87
5/23/2021 8:15:00 PM 18.32 64.976 0.393 8.28 3.52 7.67
5/23/2021 8:30:00 PM 18.27 64.886 0.392 8.27 3.68 7.63
5/23/2021 8:45:00 PM 18.12 64.616 0.394 8.26 3.33 7.52
5/23/2021 9:00:00 PM 18.03 64.454 0.394 8.25 3.52 7.45
5/23/2021 9:15:00 PM 17.94 64.292 0.393 8.25 3.73 7.36
5/23/2021 9:30:00 PM 17.82 64.076 0.393 8.24 4.09 7.27
5/23/2021 9:45:00 PM 17.7 63.86 0.394 8.24 3.99 7.2
5/23/2021 10:00:00 PM 17.62 63.716 0.394 8.23 4.14 7.15
5/23/2021 10:15:00 PM 17.52 63.536 0.394 8.23 3.8 7.07
5/23/2021 10:30:00 PM 17.35 63.23 0.395 8.22 3.76 7.04
5/23/2021 10:45:00 PM 17.29 63.122 0.394 8.22 3.84 7
5/23/2021 11:00:00 PM 17.15 62.87 0.395 8.22 4.23 6.92
5/23/2021 11:15:00 PM 17.05 62.69 0.395 8.21 4.07 6.97
5/23/2021 11:30:00 PM 16.89 62.402 0.397 8.21 4 6.95
5/23/2021 11:45:00 PM 16.78 62.204 0.397 8.21 3.95 6.91
5/24/2021 12:00:00 AM 16.65 61.97 0.399 8.2 4.13 6.87
5/24/2021 12:15:00 AM 16.57 61.826 0.398 8.2 3.81 6.87
5/24/2021 12:30:00 AM 16.48 61.664 0.399 8.2 4.11 6.96
5/24/2021 12:45:00 AM 16.4 61.52 0.398 8.2 3.92 6.92
5/24/2021 1:00:00 AM 16.33 61.394 0.397 8.19 3.77 6.91
5/24/2021 1:15:00 AM 16.22 61.196 0.398 8.19 4.11 6.92
5/24/2021 1:30:00 AM 16.15 61.07 0.398 8.19 4.15 6.91
5/24/2021 1:45:00 AM 16.05 60.89 0.398 8.19 4.01 6.93
5/24/2021 2:00:00 AM 15.9 60.62 0.399 8.19 3.99 6.89
5/24/2021 2:15:00 AM 15.84 60.512 0.398 8.18 3.86 6.94
5/24/2021 2:30:00 AM 15.71 60.278 0.4 8.18 3.93 6.94
5/24/2021 2:45:00 AM 15.61 60.098 0.4 8.18 3.98 6.92
5/24/2021 3:00:00 AM 15.54 59.972 0.399 8.18 4.08 6.93
5/24/2021 3:15:00 AM 15.49 59.882 0.398 8.18 3.73 6.94
5/24/2021 3:30:00 AM 15.38 59.684 0.4 8.18 4.14 7.03
5/24/2021 3:45:00 AM 15.34 59.612 0.398 8.18 4.28 7
5/24/2021 4:00:00 AM 15.24 59.432 0.398 8.18 4.04 7.06
5/24/2021 4:15:00 AM 15.11 59.198 0.4 8.18 4.13 7
5/24/2021 4:30:00 AM 15.07 59.126 0.399 8.18 4.06 7.07
5/24/2021 4:45:00 AM 15.05 59.09 0.398 8.17 3.81 7.09
5/24/2021 5:00:00 AM 14.98 58.964 0.398 8.18 4.27 7.11
5/24/2021 5:15:00 AM 14.92 58.856 0.398 8.17 4.63 7.13
5/24/2021 5:30:00 AM 14.89 58.802 0.397 8.17 5.34 7.14
5/24/2021 5:45:00 AM 14.81 58.658 0.398 8.17 4.35 7.18
5/24/2021 6:00:00 AM 14.74 58.532 0.398 8.17 7.33 7.17
5/24/2021 6:15:00 AM 14.65 58.37 0.401 8.17 4.19 7.24
5/24/2021 6:30:00 AM 14.59 58.262 0.4 8.17 5.04 7.29
5/24/2021 6:45:00 AM 14.58 58.244 0.399 8.18 5.05 7.42
5/24/2021 7:00:00 AM 14.48 58.064 0.4 8.17 4.1 7.39
5/24/2021 7:15:00 AM 14.49 58.082 0.399 8.18 3.85 7.57
5/24/2021 7:30:00 AM 14.5 58.1 0.399 8.19 3.97 7.71
5/24/2021 7:45:00 AM 14.46 58.028 0.4 8.18 5.65 7.76
5/24/2021 8:00:00 AM 14.49 58.082 0.399 8.2 3.9 7.94
5/24/2021 8:15:00 AM 14.48 58.064 0.399 8.2 7.06 8.05
5/24/2021 8:30:00 AM 14.52 58.136 0.399 8.21 13.24 8.22
5/24/2021 8:45:00 AM 14.56 58.208 0.398 8.22 4.6 8.45
5/24/2021 9:00:00 AM 14.6 58.28 0.399 8.23 3.66 8.62
5/24/2021 9:15:00 AM 14.64 58.352 0.398 8.24 4.88 8.79
5/24/2021 9:30:00 AM 14.66 58.388 0.398 8.23 3.83 8.87
5/24/2021 9:45:00 AM 14.74 58.532 0.398 8.25 3.52 8.96
5/24/2021 10:00:00 AM 14.86 58.748 0.398 8.26 3.58 9.14
5/24/2021 10:15:00 AM 14.9 58.82 0.4 8.27 3.41 9.35
5/24/2021 10:30:00 AM 15.08 59.144 0.398 8.27 3.35 9.38
5/24/2021 10:45:00 AM 15.2 59.36 0.398 8.28 3.24 9.54
5/24/2021 11:00:00 AM 15.4 59.72 0.398 8.29 3.48 9.68
5/24/2021 11:15:00 AM 15.52 59.936 0.397 8.3 3.38 9.83
5/24/2021 11:30:00 AM 15.61 60.098 0.398 8.3 3.41 9.89
5/24/2021 11:45:00 AM 15.77 60.386 0.398 8.31 3.2 10.06
5/24/2021 12:00:00 PM 15.85 60.53 0.4 8.31 3.22 10.07
5/24/2021 12:15:00 PM 16.07 60.926 0.398 8.33 3.31 10.15
5/24/2021 12:30:00 PM 16.2 61.16 0.404 8.34 3.22 10.13
5/24/2021 12:45:00 PM 16.51 61.718 0.402 8.37 5.34 10.34
5/24/2021 1:00:00 PM 16.87 62.366 0.397 8.39 3.01 10.46
5/24/2021 1:15:00 PM 17 62.6 0.397 8.38 3.06 10.46
5/24/2021 1:30:00 PM 17.15 62.87 0.396 8.39 3.08 10.45
5/24/2021 1:45:00 PM 17.26 63.068 0.397 8.39 3.01 10.44
5/24/2021 2:00:00 PM 17.36 63.248 0.398 8.39 3.08 10.43
5/24/2021 2:15:00 PM 17.65 63.77 0.396 8.4 3.25 10.52
5/24/2021 2:30:00 PM 17.77 63.986 0.397 8.4 3.18 10.54
5/24/2021 2:45:00 PM 17.93 64.274 0.395 8.41 3.05 10.49
5/24/2021 3:00:00 PM 18.01 64.418 0.398 8.4 2.89 10.39
5/24/2021 3:15:00 PM 18.23 64.814 0.396 8.41 3.16 10.42
5/24/2021 3:30:00 PM 18.3 64.94 0.398 8.4 3.03 10.32
5/24/2021 3:45:00 PM 18.47 65.246 0.399 8.41 2.88 10.41
5/24/2021 4:00:00 PM 18.59 65.462 0.396 8.42 2.77 10.28
5/24/2021 4:15:00 PM 18.67 65.606 0.396 8.42 2.81 10.24
5/24/2021 4:30:00 PM 18.77 65.786 0.396 8.42 2.97 10.25
5/24/2021 4:45:00 PM 18.83 65.894 0.396 8.42 2.91 10.21
5/24/2021 5:00:00 PM 18.85 65.93 0.396 8.42 2.92 10.13
5/24/2021 5:15:00 PM 18.85 65.93 0.396 8.41 3.16 10.07
5/24/2021 5:30:00 PM 18.89 66.002 0.395 8.41 2.97 9.92
5/24/2021 5:45:00 PM 18.87 65.966 0.395 8.41 2.88 9.82
5/24/2021 6:00:00 PM 18.71 65.67799 0.396 8.39 2.89 9.67
5/24/2021 6:15:00 PM 18.63 65.534 0.397 8.39 3.17 9.45
5/24/2021 6:30:00 PM 18.57 65.426 0.396 8.38 3.07 9.34
5/24/2021 6:45:00 PM 18.48 65.264 0.396 8.37 3.19 9.15
5/24/2021 7:00:00 PM 18.41 65.138 0.396 8.36 3.71 8.94
5/24/2021 7:15:00 PM 18.27 64.886 0.398 8.34 9.32 8.79
5/24/2021 7:30:00 PM 18.22 64.796 0.397 8.33 5.27 8.58
5/24/2021 7:45:00 PM 18.22 64.796 0.397 8.34 3.1 8.25
5/24/2021 8:00:00 PM 18.17 64.706 0.396 8.32 3.23 8.34
5/24/2021 8:15:00 PM 17.97 64.346 0.399 8.31 3.98 8.08
5/24/2021 8:30:00 PM 18.05 64.49 0.396 8.3 3.06 8.07
5/24/2021 8:45:00 PM 17.96 64.328 0.397 8.29 3.34 7.92
5/24/2021 9:00:00 PM 17.86 64.148 0.398 8.28 3.4 7.76
5/24/2021 9:15:00 PM 17.86 64.148 0.398 8.27 3.46 7.66
5/24/2021 9:30:00 PM 17.75 63.95 0.399 8.26 3.44 7.48
5/24/2021 9:45:00 PM 17.67 63.806 0.398 8.25 3.41 7.42
5/24/2021 10:00:00 PM 17.56 63.608 0.399 8.24 3.6 7.27
5/24/2021 10:15:00 PM 17.45 63.41 0.4 8.23 3.4 7.16
5/24/2021 10:30:00 PM 17.38 63.284 0.399 8.23 3.62 7.16
5/24/2021 10:45:00 PM 17.26 63.068 0.4 8.22 3.38 7.08
5/24/2021 11:00:00 PM 17.21 62.978 0.401 8.21 3.63 7.02
5/24/2021 11:15:00 PM 17.11 62.798 0.401 8.21 3.7 6.98
5/24/2021 11:30:00 PM 17.08 62.744 0.399 8.21 3.83 7
5/24/2021 11:45:00 PM 16.94 62.492 0.4 8.2 3.63 6.9
5/25/2021 12:00:00 AM 16.87 62.366 0.4 8.2 3.88 6.84
5/25/2021 12:15:00 AM 16.83 62.294 0.4 8.2 3.8 6.82
5/25/2021 12:30:00 AM 16.76 62.168 0.4 8.2 3.66 6.8
5/25/2021 12:45:00 AM 16.69 62.042 0.401 8.19 3.6 6.79
5/25/2021 1:00:00 AM 16.54 61.772 0.403 8.19 4.23 6.72
5/25/2021 1:15:00 AM 16.6 61.88 0.4 8.19 4.03 6.75
5/25/2021 1:30:00 AM 16.48 61.664 0.402 8.19 3.7 6.74
5/25/2021 1:45:00 AM 16.52 61.736 0.4 8.19 4.09 6.7
5/25/2021 2:00:00 AM 16.45 61.61 0.4 8.19 3.9 6.75
5/25/2021 2:15:00 AM 16.31 61.358 0.402 8.18 3.36 6.76
5/25/2021 2:30:00 AM 16.28 61.304 0.403 8.18 3.45 6.72
5/25/2021 2:45:00 AM 16.22 61.196 0.402 8.18 3.95 6.74
5/25/2021 3:00:00 AM 16.21 61.178 0.401 8.17 3.86 6.8
5/25/2021 3:15:00 AM 16.19 61.142 0.4 8.17 4.42 6.83
5/25/2021 3:30:00 AM 16.09 60.962 0.402 8.17 3.79 6.88
5/25/2021 3:45:00 AM 16.05 60.89 0.402 8.17 3.88 6.82
5/25/2021 4:00:00 AM 16 60.8 0.403 8.18 5.94 6.91
5/25/2021 4:15:00 AM 15.94 60.692 0.402 8.17 3.8 6.86
5/25/2021 4:30:00 AM 15.94 60.692 0.401 8.17 3.58 6.84
5/25/2021 4:45:00 AM 15.84 60.512 0.403 8.17 3.63 6.9
5/25/2021 5:00:00 AM 15.81 60.458 0.403 8.17 4.5 6.91
5/25/2021 5:15:00 AM 15.77 60.386 0.402 8.17 4.49 6.91
5/25/2021 5:30:00 AM 15.71 60.278 0.402 8.17 6.3 6.88
5/25/2021 5:45:00 AM 15.71 60.278 0.401 8.17 5.03 6.97
5/25/2021 6:00:00 AM 15.64 60.152 0.403 8.17 5.34 7.02
5/25/2021 6:15:00 AM 15.61 60.098 0.403 8.17 4.33 6.99
5/25/2021 6:30:00 AM 15.58 60.044 0.402 8.16 3.7 7.04
5/25/2021 6:45:00 AM 15.53 59.954 0.403 8.16 5.02 7.08
5/25/2021 7:00:00 AM 15.51 59.918 0.403 8.16 3.69 7.13
5/25/2021 7:15:00 AM 15.49 59.882 0.403 8.17 5.27 7.17
5/25/2021 7:30:00 AM 15.46 59.828 0.404 8.17 3.58 7.24
5/25/2021 7:45:00 AM 15.45 59.81 0.404 8.17 3.66 7.33
5/25/2021 8:00:00 AM 15.45 59.81 0.404 8.17 4.21 7.47
5/25/2021 8:15:00 AM 15.45 59.81 0.404 8.18 3.66 7.59
5/25/2021 8:30:00 AM 15.49 59.882 0.404 8.19 3.53 7.71
5/25/2021 8:45:00 AM 15.49 59.882 0.404 8.19 3.66 7.83
5/25/2021 9:00:00 AM 15.55 59.99 0.404 8.2 3.4 8.05
5/25/2021 9:15:00 AM 15.58 60.044 0.403 8.22 3.4 8.22
5/25/2021 9:30:00 AM 15.58 60.044 0.403 8.23 3.52 8.24
5/25/2021 9:45:00 AM 15.64 60.152 0.403 8.24 3.42 8.47
5/25/2021 10:00:00 AM 15.71 60.278 0.402 8.24 3.48 8.63
5/25/2021 10:15:00 AM 15.84 60.512 0.401 8.26 3.27 8.81
5/25/2021 10:30:00 AM 15.82 60.476 0.403 8.27 3.56 8.9
5/25/2021 10:45:00 AM 16 60.8 0.401 8.27 3.18 9.1
5/25/2021 11:00:00 AM 16.17 61.106 0.399 8.28 3.24 9.22
5/25/2021 11:15:00 AM 16.33 61.394 0.398 8.29 3.21 9.38
5/25/2021 11:30:00 AM 16.49 61.682 0.399 8.3 3.25 9.52
5/25/2021 11:45:00 AM 16.7 62.06 0.398 8.31 3.1 9.59
5/25/2021 12:00:00 PM 16.76 62.168 0.397 8.32 3.04 9.72
5/25/2021 12:15:00 PM 16.9 62.42 0.397 8.32 3.14 9.8
5/25/2021 12:30:00 PM 17.1 62.78 0.398 8.33 3.14 9.86
5/25/2021 12:45:00 PM 17.29 63.122 0.397 8.34 3.96 9.91
5/25/2021 1:00:00 PM 17.53 63.554 0.396 8.35 3.5 10.1
5/25/2021 1:15:00 PM 17.63 63.734 0.397 8.35 5.08 10.1
5/25/2021 1:30:00 PM 17.86 64.148 0.397 8.36 2.95 10.21
5/25/2021 1:45:00 PM 18.11 64.598 0.397 8.37 3.29 10.28
5/25/2021 2:00:00 PM 18.38 65.084 0.396 8.38 3.09 10.37
5/25/2021 2:15:00 PM 18.68 65.624 0.395 8.39 3.07 10.43
5/25/2021 2:30:00 PM 18.86 65.948 0.396 8.39 3.39 10.5
5/25/2021 2:45:00 PM 19.04 66.272 0.397 8.4 3.36 10.47
5/25/2021 3:00:00 PM 19.28 66.704 0.396 8.4 3.99 10.55
5/25/2021 3:15:00 PM 19.3 66.74 0.398 8.4 3.98 10.39
5/25/2021 3:30:00 PM 19.53 67.154 0.397 8.4 3.04 10.46
5/25/2021 3:45:00 PM 19.6 67.28 0.398 8.4 3.11 10.35
5/25/2021 4:00:00 PM 19.84 67.712 0.398 8.4 3.13 10.31
5/25/2021 4:15:00 PM 19.8 67.64 0.401 8.4 3.12 10.23
5/25/2021 4:30:00 PM 19.95 67.91 0.399 8.41 2.85 10.07
5/25/2021 4:45:00 PM 20.09 68.162 0.399 8.41 2.8 10.09
5/25/2021 5:00:00 PM 19.97 67.946 0.402 8.4 3.11 9.87
5/25/2021 5:15:00 PM 20.19 68.342 0.4 8.4 2.91 9.89
5/25/2021 5:30:00 PM 20.31 68.558 0.4 8.39 3.21 9.7
5/25/2021 5:45:00 PM 20.39 68.702 0.399 8.4 3.18 9.66
5/25/2021 6:00:00 PM 20.41 68.738 0.399 8.39 3.12 9.31
5/25/2021 6:15:00 PM 20.13 68.234 0.404 8.38 2.94 9.17
5/25/2021 6:30:00 PM 20.45 68.81 0.399 8.38 3.47 9.11
5/25/2021 6:45:00 PM 20.43 68.774 0.4 8.37 3.34 8.87
5/25/2021 7:00:00 PM 20.41 68.738 0.4 8.36 3.1 8.66
5/25/2021 7:15:00 PM 20.31 68.558 0.401 8.35 3.07 8.44
5/25/2021 7:30:00 PM 20.24 68.432 0.402 8.33 3.19 8.17
5/25/2021 7:45:00 PM 20.17 68.306 0.402 8.34 3.07 8.08
5/25/2021 8:00:00 PM 20.16 68.288 0.402 8.32 3.11 7.91
5/25/2021 8:15:00 PM 19.83 67.694 0.405 8.31 3.06 7.76
5/25/2021 8:30:00 PM 20.05 68.09 0.402 8.3 3.29 7.57
5/25/2021 8:45:00 PM 19.93 67.874 0.404 8.29 3.47 7.42
5/25/2021 9:00:00 PM 19.55 67.19 0.408 8.27 3.33 7.25
5/25/2021 9:15:00 PM 19.79 67.622 0.403 8.27 3.48 7.17
5/25/2021 9:30:00 PM 19.77 67.586 0.403 8.26 3.49 7.08
5/25/2021 9:45:00 PM 19.67 67.406 0.403 8.25 3.52 6.95
5/25/2021 10:00:00 PM 19.5 67.1 0.404 8.24 3.37 6.87
5/25/2021 10:15:00 PM 19.47 67.046 0.403 8.24 3.51 6.76
5/25/2021 10:30:00 PM 19.27 66.686 0.405 8.23 3.65 6.66
5/25/2021 10:45:00 PM 19.3 66.74 0.404 8.23 3.63 6.6
5/25/2021 11:00:00 PM 19.11 66.398 0.405 8.22 4.06 6.58
5/25/2021 11:15:00 PM 19.09 66.362 0.404 8.22 3.79 6.49
5/25/2021 11:30:00 PM 18.91 66.038 0.407 8.22 3.47 6.5
5/25/2021 11:45:00 PM 18.99 66.182 0.403 8.21 3.96 6.44
5/26/2021 12:00:00 AM 18.77 65.786 0.406 8.21 4.28 6.41
5/26/2021 12:15:00 AM 18.77 65.786 0.405 8.21 3.97 6.4
5/26/2021 12:30:00 AM 18.63 65.534 0.406 8.21 3.66 6.37
5/26/2021 12:45:00 AM 18.59 65.462 0.405 8.2 3.78 6.35
5/26/2021 1:00:00 AM 18.51 65.318 0.405 8.2 3.73 6.32
5/26/2021 1:15:00 AM 18.51 65.318 0.404 8.21 4.38 6.35
5/26/2021 1:30:00 AM 18.34 65.012 0.405 8.2 3.73 6.32
5/26/2021 1:45:00 AM 18.27 64.886 0.405 8.2 4.1 6.33
5/26/2021 2:00:00 AM 18.12 64.616 0.407 8.2 3.81 6.31
5/26/2021 2:15:00 AM 18.11 64.598 0.406 8.2 3.98 6.35
5/26/2021 2:30:00 AM 17.95 64.31 0.407 8.2 4.35 6.29
5/26/2021 2:45:00 AM 17.94 64.292 0.405 8.2 4.01 6.38
5/26/2021 3:00:00 AM 17.8 64.04 0.407 8.2 3.75 6.35
5/26/2021 3:15:00 AM 17.65 63.77 0.407 8.19 3.8 6.33
5/26/2021 3:30:00 AM 17.61 63.698 0.407 8.19 4.31 6.37
5/26/2021 3:45:00 AM 17.62 63.716 0.405 8.2 3.97 6.39
5/26/2021 4:00:00 AM 17.6 63.68 0.403 8.2 4.27 6.46
5/26/2021 4:15:00 AM 17.46 63.428 0.405 8.19 4.06 6.42
5/26/2021 4:30:00 AM 17.34 63.212 0.406 8.19 3.88 6.45
5/26/2021 4:45:00 AM 17.31 63.158 0.405 8.19 3.7 6.45
5/26/2021 5:00:00 AM 17.22 62.996 0.406 8.19 4.36 6.47
5/26/2021 5:15:00 AM 17.17 62.906 0.404 8.18 4.09 6.46
5/26/2021 5:30:00 AM 17 62.6 0.407 8.18 4.39 6.44
5/26/2021 5:45:00 AM 17.02 62.636 0.405 8.18 4.04 6.45
5/26/2021 6:00:00 AM 16.96 62.528 0.405 8.18 3.93 6.52
5/26/2021 6:15:00 AM 16.93 62.474 0.404 8.19 4.19 6.58
5/26/2021 6:30:00 AM 16.85 62.33 0.405 8.18 4.08 6.59
5/26/2021 6:45:00 AM 16.84 62.312 0.404 8.19 3.95 6.66
5/26/2021 7:00:00 AM 16.8 62.24 0.404 8.19 4.16 6.68
5/26/2021 7:15:00 AM 16.78 62.204 0.404 8.19 3.82 6.77
5/26/2021 7:30:00 AM 16.64 61.952 0.406 8.19 3.89 6.78
5/26/2021 7:45:00 AM 16.62 61.916 0.407 8.2 3.82 6.94
5/26/2021 8:00:00 AM 16.66 61.988 0.405 8.2 3.9 6.98
5/26/2021 8:15:00 AM 16.69 62.042 0.405 8.21 4.07 7.1
5/26/2021 8:30:00 AM 16.76 62.168 0.405 8.22 3.57 7.31
5/26/2021 8:45:00 AM 16.84 62.312 0.404 8.23 3.6 7.37
5/26/2021 9:00:00 AM 16.85 62.33 0.405 8.23 3.79 7.62
5/26/2021 9:15:00 AM 16.76 62.168 0.408 8.24 3.43 7.69
5/26/2021 9:30:00 AM 16.94 62.492 0.405 8.25 3.59 7.85
5/26/2021 9:45:00 AM 17.04 62.672 0.405 8.26 3.58 8.06
5/26/2021 10:00:00 AM 17.16 62.888 0.405 8.26 3.37 8.26
5/26/2021 10:15:00 AM 17.29 63.122 0.404 8.28 3.46 8.33
5/26/2021 10:30:00 AM 17.43 63.374 0.404 8.28 3.69 8.4
5/26/2021 10:45:00 AM 17.55 63.59 0.403 8.29 3.39 8.52
5/26/2021 11:00:00 AM 17.77 63.986 0.403 8.3 3.42 8.68
5/26/2021 11:15:00 AM 17.98 64.364 0.404 8.31 3.61 8.74
5/26/2021 11:30:00 AM 18.06 64.508 0.406 8.31 3.07 9.01
5/26/2021 11:45:00 AM 18.33 64.994 0.405 8.32 3.22 8.95
5/26/2021 12:00:00 PM 18.65 65.57 0.403 8.33 3.43 9.29
5/26/2021 12:15:00 PM 18.82 65.876 0.404 8.33 3.18 9.35
5/26/2021 12:30:00 PM 19.12 66.416 0.402 8.36 3.64 9.52
5/26/2021 12:45:00 PM 19.29 66.722 0.403 8.36 3.32 9.59
5/26/2021 1:00:00 PM 19.46 67.028 0.402 8.36 3.4 9.55
5/26/2021 1:15:00 PM 19.55 67.19 0.404 8.37 3.24 9.58
5/26/2021 1:30:00 PM 19.68 67.424 0.404 8.37 3.37 9.52
5/26/2021 1:45:00 PM 19.9 67.82 0.403 8.39 3.13 9.54
5/26/2021 2:00:00 PM 19.88 67.784 0.403 8.37 3.1 9.55
5/26/2021 2:15:00 PM 20.09 68.162 0.401 8.39 3.21 9.55
5/26/2021 2:30:00 PM 20.01 68.018 0.404 8.38 3.3 9.22
5/26/2021 2:45:00 PM 20.13 68.234 0.4 8.38 2.93 9.13
5/26/2021 3:00:00 PM 20.18 68.324 0.402 8.38 3.31 9.33
5/26/2021 3:15:00 PM 20.2 68.36 0.402 8.38 3.03 9.2
5/26/2021 3:30:00 PM 20.2 68.36 0.404 8.38 3.05 9.16
5/26/2021 3:45:00 PM 20.49 68.882 0.401 8.39 3.08 9.26
5/26/2021 4:00:00 PM 20.5 68.9 0.4 8.38 3.56 9.11
5/26/2021 4:15:00 PM 20.43 68.774 0.401 8.38 3.16 8.98
5/26/2021 4:30:00 PM 20.5 68.9 0.4 8.38 3.19 8.94
5/26/2021 4:45:00 PM 20.44 68.792 0.401 8.37 2.96 8.69
5/26/2021 5:00:00 PM 20.59 69.062 0.399 8.38 3.18 8.7
5/26/2021 5:15:00 PM 20.69 69.242 0.399 8.38 3.11 8.85
5/26/2021 5:30:00 PM 20.51 68.918 0.402 8.36 3.01 8.53
5/26/2021 5:45:00 PM 20.41 68.738 0.401 8.35 4.18 8.15
5/26/2021 6:00:00 PM 20.23 68.414 0.403 8.33 3.62 7.91
5/26/2021 6:15:00 PM 20.42 68.756 0.4 8.33 3.49 7.74
5/26/2021 6:30:00 PM 20.5 68.9 0.399 8.32 3.39 7.67
5/26/2021 6:45:00 PM 20.2 68.36 0.403 8.3 3.62 7.55
5/26/2021 7:00:00 PM 20.34 68.612 0.4 8.31 4.14 7.58
5/26/2021 7:15:00 PM 20.37 68.666 0.399 8.3 3.84 7.44
5/26/2021 7:30:00 PM 20.24 68.432 0.401 8.29 3.7 7.31
5/26/2021 7:45:00 PM 20.07 68.126 0.403 8.28 3.56 7.16
5/26/2021 8:00:00 PM 20.07 68.126 0.402 8.28 3.62 7.1
5/26/2021 8:15:00 PM 19.88 67.784 0.405 8.27 3.74 6.98
5/26/2021 8:30:00 PM 19.71 67.478 0.407 8.26 3.42 6.88
5/26/2021 8:45:00 PM 19.84 67.712 0.403 8.26 3.6 6.89
5/26/2021 9:00:00 PM 19.71 67.478 0.404 8.25 3.79 6.72
5/26/2021 9:15:00 PM 19.69 67.442 0.404 8.24 4.42 6.61
5/26/2021 9:30:00 PM 19.64 67.352 0.405 8.22 4.86 6.46
5/26/2021 9:45:00 PM 19.54 67.172 0.406 8.21 5.27 6.34
5/26/2021 10:00:00 PM 19.44 66.992 0.406 8.2 5.37 6.19
5/26/2021 10:15:00 PM 19.38 66.884 0.406 8.19 4.65 6.16
5/26/2021 10:30:00 PM 19.34 66.812 0.405 8.19 4.94 6.15
5/26/2021 10:45:00 PM 19.07 66.326 0.408 8.18 4.59 6.06
5/26/2021 11:00:00 PM 19.14 66.452 0.405 8.18 4.25 6.1
5/26/2021 11:15:00 PM 19.08 66.344 0.405 8.18 3.88 6.12
5/26/2021 11:30:00 PM 18.96 66.128 0.405 8.18 3.87 6.09
5/26/2021 11:45:00 PM 18.91 66.038 0.405 8.18 4 6.11
5/27/2021 12:00:00 AM 18.63 65.534 0.408 8.18 4.19 6.01
5/27/2021 12:15:00 AM 18.74 65.732 0.406 8.18 3.77 6.13
5/27/2021 12:30:00 AM 18.71 65.67799 0.404 8.18 3.88 6.16
5/27/2021 12:45:00 AM 18.58 65.444 0.404 8.18 3.8 6.14
5/27/2021 1:00:00 AM 18.3 64.94 0.408 8.17 3.74 6.07
5/27/2021 1:15:00 AM 18.36 65.048 0.405 8.17 4.16 6.15
5/27/2021 1:30:00 AM 18.25 64.85 0.405 8.17 3.87 6.13
5/27/2021 1:45:00 AM 18.16 64.688 0.406 8.17 3.92 6.15
5/27/2021 2:00:00 AM 18.06 64.508 0.405 8.16 4.2 6.14
5/27/2021 2:15:00 AM 18.01 64.418 0.405 8.17 4.33 6.2
5/27/2021 2:30:00 AM 17.99 64.382 0.404 8.16 4.27 6.21
5/27/2021 2:45:00 AM 17.89 64.202 0.403 8.16 4.05 6.21
5/27/2021 3:00:00 AM 17.79 64.022 0.404 8.15 4.2 6.23
5/27/2021 3:15:00 AM 17.78 64.004 0.402 8.16 3.85 6.28
5/27/2021 3:30:00 AM 17.72 63.896 0.403 8.15 4.19 6.27
5/27/2021 3:45:00 AM 17.72 63.896 0.403 8.16 4.39 6.25
5/27/2021 4:00:00 AM 17.58 63.644 0.404 8.15 4.1 6.3
5/27/2021 4:15:00 AM 17.47 63.446 0.405 8.15 3.99 6.27
5/27/2021 4:30:00 AM 17.52 63.536 0.402 8.16 3.95 6.4
5/27/2021 4:45:00 AM 17.42 63.356 0.402 8.16 4.26 6.4
5/27/2021 5:00:00 AM 17.31 63.158 0.404 8.16 4.7 6.35
5/27/2021 5:15:00 AM 17.25 63.05 0.402 8.16 4.29 6.45
5/27/2021 5:30:00 AM 17.18 62.924 0.402 8.16 5.27 6.46
5/27/2021 5:45:00 AM 17.05 62.69 0.404 8.16 4.18 6.46
5/27/2021 6:00:00 AM 16.98 62.564 0.403 8.16 4.55 6.48
5/27/2021 6:15:00 AM 16.95 62.51 0.402 8.16 4.21 6.54
5/27/2021 6:30:00 AM 16.86 62.348 0.403 8.16 5.09 6.54
5/27/2021 6:45:00 AM 16.86 62.348 0.401 8.16 4.54 6.61
5/27/2021 7:00:00 AM 16.81 62.258 0.401 8.17 5.14 6.65
5/27/2021 7:15:00 AM 16.83 62.294 0.399 8.17 3.9 6.86
5/27/2021 7:30:00 AM 16.76 62.168 0.4 8.18 3.98 6.96
5/27/2021 7:45:00 AM 16.81 62.258 0.397 8.19 4.13 7.1
5/27/2021 8:00:00 AM 16.82 62.276 0.396 8.19 4.28 7.23
5/27/2021 8:15:00 AM 16.86 62.348 0.395 8.2 4.11 7.41
5/27/2021 8:30:00 AM 16.87 62.366 0.394 8.21 3.94 7.51
5/27/2021 8:45:00 AM 16.88 62.384 0.393 8.22 4.03 7.65
5/27/2021 9:00:00 AM 16.89 62.402 0.392 8.22 4.47 7.75
5/27/2021 9:15:00 AM 16.91 62.438 0.391 8.23 3.99 7.84
5/27/2021 9:30:00 AM 16.88 62.384 0.392 8.23 3.55 7.95
5/27/2021 9:45:00 AM 16.88 62.384 0.391 8.24 3.69 8.05
5/27/2021 10:00:00 AM 16.95 62.51 0.39 8.25 3.79 8.2
5/27/2021 10:15:00 AM 17.02 62.636 0.389 8.26 3.9 8.38
5/27/2021 10:30:00 AM 16.95 62.51 0.391 8.26 3.62 8.44
5/27/2021 10:45:00 AM 17.13 62.834 0.387 8.28 3.49 8.71
5/27/2021 11:00:00 AM 17.23 63.014 0.387 8.29 3.56 8.83
5/27/2021 11:15:00 AM 17.36 63.248 0.384 8.31 3.74 8.96
5/27/2021 11:30:00 AM 17.35 63.23 0.384 8.31 3.67 8.98
5/27/2021 11:45:00 AM 17.46 63.428 0.382 8.32 3.69 9.18
5/27/2021 12:00:00 PM 17.56 63.608 0.381 8.33 3.59 9.23
5/27/2021 12:15:00 PM 17.65 63.77 0.38 8.33 4.47 9.34
5/27/2021 12:30:00 PM 17.71 63.878 0.377 8.34 3.59 9.38
5/27/2021 12:45:00 PM 17.77 63.986 0.378 8.34 3.7 9.39
5/27/2021 1:00:00 PM 17.93 64.274 0.375 8.35 4.05 9.53
5/27/2021 1:15:00 PM 18.02 64.436 0.374 8.35 3.34 9.55
5/27/2021 1:30:00 PM 18.21 64.778 0.375 8.36 3.93 9.68
5/27/2021 1:45:00 PM 18.25 64.85 0.375 8.35 3.51 9.55
5/27/2021 2:00:00 PM 18.54 65.372 0.373 8.38 3.27 9.82
5/27/2021 2:15:00 PM 18.49 65.282 0.375 8.37 3.77 9.77
5/27/2021 2:30:00 PM 18.64 65.552 0.373 8.38 3.55 9.82
5/27/2021 2:45:00 PM 18.84 65.912 0.372 8.39 3.53 9.95
5/27/2021 3:00:00 PM 18.94 66.092 0.372 8.4 3.49 9.94
5/27/2021 3:15:00 PM 18.98 66.164 0.373 8.4 3.52 9.93
5/27/2021 3:30:00 PM 18.94 66.092 0.373 8.39 4.57 9.86
5/27/2021 3:45:00 PM 19.03 66.254 0.372 8.4 3.11 9.94
5/27/2021 4:00:00 PM 19.01 66.218 0.371 8.4 3.64 9.75
5/27/2021 4:15:00 PM 19.01 66.218 0.371 8.4 3.19 9.77
5/27/2021 4:30:00 PM 19.17 66.506 0.369 8.42 3.4 9.8
5/27/2021 4:45:00 PM 19.23 66.614 0.37 8.42 3.78 9.85
5/27/2021 5:00:00 PM 18.66 65.588 0.386 8.38 3.54 9.16
5/27/2021 5:15:00 PM 19.2 66.56 0.372 8.4 3.33 9.54
5/27/2021 5:30:00 PM 19.29 66.722 0.371 8.4 3.34 9.51
5/27/2021 5:45:00 PM 19.25 66.65 0.37 8.4 3.27 9.41
5/27/2021 6:00:00 PM 19.27 66.686 0.369 8.4 4.02 9.26
5/27/2021 6:15:00 PM 19.06 66.308 0.374 8.37 3.3 9
5/27/2021 6:30:00 PM 19.16 66.488 0.37 8.37 3.5 8.91
5/27/2021 6:45:00 PM 19.1 66.38 0.371 8.36 3.46 8.71
5/27/2021 7:00:00 PM 19.08 66.344 0.37 8.36 3.54 8.69
5/27/2021 7:15:00 PM 18.84 65.912 0.374 8.33 3.44 8.33
5/27/2021 7:30:00 PM 18.84 65.912 0.373 8.33 3.58 8.32
5/27/2021 7:45:00 PM 18.88 65.984 0.37 8.33 3.55 8.25
5/27/2021 8:00:00 PM 18.68 65.624 0.372 8.31 3.26 8.08
5/27/2021 8:15:00 PM 18.62 65.516 0.373 8.31 3.83 8
5/27/2021 8:30:00 PM 18.49 65.282 0.374 8.3 3.54 7.87
5/27/2021 8:45:00 PM 18.36 65.048 0.374 8.29 3.53 7.79
5/27/2021 9:00:00 PM 18.11 64.598 0.377 8.27 4.63 7.55
5/27/2021 9:15:00 PM 18.13 64.634 0.376 8.27 3.77 7.53
5/27/2021 9:30:00 PM 17.99 64.382 0.376 8.27 7.76 7.45
5/27/2021 9:45:00 PM 17.85 64.13 0.377 8.26 4.17 7.34
5/27/2021 10:00:00 PM 17.64 63.752 0.38 8.25 3.91 7.25
5/27/2021 10:15:00 PM 17.45 63.41 0.382 8.24 3.78 7.16
5/27/2021 10:30:00 PM 17.3 63.14 0.384 8.24 3.6 7.15
5/27/2021 10:45:00 PM 17.23 63.014 0.382 8.24 4.5 7.13
5/27/2021 11:00:00 PM 17.1 62.78 0.383 8.23 4.04 7.04
5/27/2021 11:15:00 PM 16.91 62.438 0.384 8.22 4.03 6.98
5/27/2021 11:30:00 PM 16.75 62.15 0.385 8.22 4.18 6.99
5/27/2021 11:45:00 PM 16.7 62.06 0.385 8.22 4.08 6.97
5/28/2021 12:00:00 AM 16.52 61.736 0.386 8.21 3.8 6.93
5/28/2021 12:15:00 AM 16.42 61.556 0.386 8.21 4.03 6.91
5/28/2021 12:30:00 AM 16.31 61.358 0.388 8.21 4.01 6.93
5/28/2021 12:45:00 AM 16.2 61.16 0.386 8.2 3.92 6.91
5/28/2021 1:00:00 AM 16.1 60.98 0.388 8.2 4.03 6.95
5/28/2021 1:15:00 AM 16.01 60.818 0.388 8.2 4.02 6.95
5/28/2021 1:30:00 AM 15.85 60.53 0.388 8.19 3.95 6.94
5/28/2021 1:45:00 AM 15.78 60.404 0.389 8.2 4.06 6.95
5/28/2021 2:00:00 AM 15.66 60.188 0.389 8.19 4.43 6.98
5/28/2021 2:15:00 AM 15.54 59.972 0.391 8.19 3.79 6.89
5/28/2021 2:30:00 AM 15.48 59.864 0.39 8.19 3.92 7
5/28/2021 2:45:00 AM 15.28 59.504 0.395 8.18 3.9 6.9
5/28/2021 3:00:00 AM 15.27 59.486 0.391 8.18 4.65 7.02
5/28/2021 3:15:00 AM 15.22 59.396 0.391 8.18 4.01 7
5/28/2021 3:30:00 AM 15.07 59.126 0.393 8.18 4.56 6.98
5/28/2021 3:45:00 AM 15.02 59.036 0.393 8.18 4.03 7.05
5/28/2021 4:00:00 AM 14.96 58.928 0.391 8.18 4.05 7.06
5/28/2021 4:15:00 AM 14.8 58.64 0.395 8.18 4.16 7.01
5/28/2021 4:30:00 AM 14.78 58.604 0.395 8.17 4.13 7.03
5/28/2021 4:45:00 AM 14.72 58.496 0.395 8.17 6.2 7
5/28/2021 5:00:00 AM 14.66 58.388 0.396 8.18 4.09 7.09
5/28/2021 5:15:00 AM 14.65 58.37 0.392 8.18 4.34 7.15
5/28/2021 5:30:00 AM 14.59 58.262 0.392 8.18 4.48 7.16
5/28/2021 5:45:00 AM 14.5 58.1 0.393 8.18 4.31 7.18
5/28/2021 6:00:00 AM 14.46 58.028 0.395 8.18 4.32 7.2
5/28/2021 6:15:00 AM 14.45 58.01 0.392 8.18 3.7 7.18
5/28/2021 6:30:00 AM 14.41 57.938 0.39 8.18 3.98 7.25
5/28/2021 6:45:00 AM 14.32 57.776 0.392 8.18 3.97 7.24
5/28/2021 7:00:00 AM 14.31 57.758 0.391 8.18 4.44 7.31
5/28/2021 7:15:00 AM 14.28 57.704 0.39 8.19 3.97 7.37
5/28/2021 7:30:00 AM 14.19 57.542 0.391 8.18 3.84 7.39
5/28/2021 7:45:00 AM 14.17 57.506 0.393 8.19 4 7.44
5/28/2021 8:00:00 AM 14.18 57.524 0.389 8.19 4.02 7.53
5/28/2021 8:15:00 AM 14.17 57.506 0.388 8.19 3.78 7.55
5/28/2021 8:30:00 AM 14.13 57.434 0.389 8.19 4.16 7.63
5/28/2021 8:45:00 AM 14.07 57.326 0.392 8.2 4.16 7.71
5/28/2021 9:00:00 AM 14.08 57.344 0.389 8.2 4.16 7.78
5/28/2021 9:15:00 AM 14.06 57.308 0.389 8.2 3.97 7.86
5/28/2021 9:30:00 AM 14.02 57.236 0.392 8.21 3.74 7.92
5/28/2021 9:45:00 AM 14.01 57.218 0.392 8.21 4.27 8.01
5/28/2021 10:00:00 AM 14 57.2 0.392 8.22 5.85 8.13
5/28/2021 10:15:00 AM 14.02 57.236 0.391 8.23 3.54 8.27
5/28/2021 10:30:00 AM 13.97 57.146